Provisional Data: Meshoppen Creek near Kaiserville, PA


Please select a monitoring station.
Please select start date.
Please select start date.

Toggle Unit: C/F Toggle Unit: C/F
Sample Time Temperature (C) Temperature (F) Specific Conductivity (mS/cm) pH   Turbidity (NTU+) DO (mg/L)
6/22/2021 12:00:00 AM 23.52 74.336 0.154 7.59 4.85 7.17
6/22/2021 12:15:00 AM 23.43 74.174 0.154 7.58 4.76 7.19
6/22/2021 12:30:00 AM 23.34 74.012 0.154 7.59 4.94 7.21
6/22/2021 12:45:00 AM 23.26 73.868 0.154 7.59 5.3 7.22
6/22/2021 1:00:00 AM 23.18 73.724 0.154 7.59 5.36 7.25
6/22/2021 1:15:00 AM 23.11 73.598 0.155 7.58 4.87 7.28
6/22/2021 1:30:00 AM 23.03 73.454 0.155 7.59 5.39 7.3
6/22/2021 1:45:00 AM 22.97 73.346 0.155 7.58 5.33 7.32
6/22/2021 2:00:00 AM 22.91 73.238 0.155 7.59 4.89 7.32
6/22/2021 2:15:00 AM 22.85 73.13 0.156 7.59 5.07 7.33
6/22/2021 2:30:00 AM 22.78 73.004 0.155 7.58 5.18 7.34
6/22/2021 2:45:00 AM 22.67 72.806 0.155 7.59 5.44 7.37
6/22/2021 3:00:00 AM 22.59 72.662 0.155 7.59 5.57 7.38
6/22/2021 3:15:00 AM 22.52 72.536 0.154 7.6 5.15 7.41
6/22/2021 3:30:00 AM 22.42 72.356 0.154 7.6 5.4 7.45
6/22/2021 3:45:00 AM 22.33 72.194 0.154 7.61 6.22 7.47
6/22/2021 4:00:00 AM 22.23 72.014 0.155 7.61 5.76 7.48
6/22/2021 4:15:00 AM 22.14 71.852 0.154 7.62 5.28 7.5
6/22/2021 4:30:00 AM 22.05 71.69 0.154 7.62 5.46 7.52
6/22/2021 4:45:00 AM 21.95 71.51 0.154 7.61 5.57 7.55
6/22/2021 5:00:00 AM 21.84 71.312 0.154 7.62 5.57 7.58
6/22/2021 5:15:00 AM 21.75 71.15 0.154 7.62 5.53 7.6
6/22/2021 5:30:00 AM 21.65 70.97 0.155 7.62 5.65 7.61
6/22/2021 5:45:00 AM 21.56 70.808 0.154 7.62 5.48 7.6
6/22/2021 6:00:00 AM 21.47 70.646 0.155 7.62 5.7 7.63
6/22/2021 6:15:00 AM 21.38 70.484 0.155 7.62 5.35 7.67
6/22/2021 6:30:00 AM 21.29 70.32201 0.155 7.62 5.82 7.7
6/22/2021 6:45:00 AM 21.21 70.17799 0.155 7.63 5.14 7.74
6/22/2021 7:00:00 AM 21.13 70.034 0.154 7.63 5.35 7.76
6/22/2021 7:15:00 AM 21.06 69.908 0.154 7.64 5.42 7.79
6/22/2021 7:30:00 AM 20.98 69.764 0.153 7.64 5.12 7.84
6/22/2021 7:45:00 AM 20.92 69.656 0.153 7.66 5.07 7.91
6/22/2021 8:00:00 AM 20.85 69.53 0.153 7.67 5.31 7.97
6/22/2021 8:15:00 AM 20.79 69.422 0.152 7.68 5.13 8.04
6/22/2021 8:30:00 AM 20.72 69.296 0.152 7.69 4.84 8.1
6/22/2021 8:45:00 AM 20.68 69.224 0.151 7.72 5.15 8.22
6/22/2021 9:00:00 AM 20.64 69.152 0.151 7.74 4.77 8.31
6/22/2021 9:15:00 AM 20.59 69.062 0.151 7.76 4.87 8.36
6/22/2021 9:30:00 AM 20.56 69.008 0.15 7.78 5.55 8.43
6/22/2021 9:45:00 AM 20.52 68.936 0.15 7.81 5.1 8.46
6/22/2021 10:00:00 AM 20.49 68.882 0.151 7.82 5.29 8.46
6/22/2021 10:15:00 AM 20.47 68.846 0.15 7.84 4.99 8.54
6/22/2021 10:30:00 AM 20.44 68.792 0.15 7.85 6.47 8.57
6/22/2021 10:45:00 AM 20.41 68.738 0.149 7.87 4.76 8.58
6/22/2021 11:00:00 AM 20.39 68.702 0.149 7.88 5.37 8.63
6/22/2021 11:15:00 AM 20.38 68.684 0.149 7.91 5.53 8.69
6/22/2021 11:30:00 AM 20.34 68.612 0.149 7.91 6.09 8.64
6/22/2021 11:45:00 AM 20.34 68.612 0.149 7.93 5.3 8.71
6/22/2021 12:00:00 PM 20.35 68.63 0.149 7.97 5.97 8.82
6/22/2021 12:15:00 PM 20.32 68.576 0.149 7.98 5.72 8.78
6/22/2021 12:30:00 PM 20.36 68.648 0.149 8.03 5.74 8.88
6/22/2021 12:45:00 PM 20.38 68.684 0.148 8.08 4.87 8.96
6/22/2021 1:00:00 PM 20.4 68.72 0.148 8.12 5.97 8.98
6/22/2021 1:15:00 PM 20.39 68.702 0.148 8.11 4.9 8.87
6/22/2021 1:30:00 PM 20.36 68.648 0.148 8.07 6.54 8.75
6/22/2021 1:45:00 PM 20.33 68.594 0.148 8.05 5.42 8.72
6/22/2021 2:00:00 PM 20.27 68.486 0.148 8.01 5.85 8.69
6/22/2021 2:15:00 PM 20.2 68.36 0.148 7.97 5.37 8.62
6/22/2021 2:30:00 PM 20.16 68.288 0.148 7.98 6 8.72
6/22/2021 2:45:00 PM 20.09 68.162 0.148 7.97 6.47 8.69
6/22/2021 3:00:00 PM 20.07 68.126 0.148 7.98 5.56 8.73
6/22/2021 3:15:00 PM 20.03 68.054 0.148 8.01 5.09 8.79
6/22/2021 3:30:00 PM 19.99 67.982 0.148 8.02 5.48 8.8
6/22/2021 3:45:00 PM 19.93 67.874 0.148 8 5.65 8.74
6/22/2021 4:00:00 PM 19.89 67.802 0.148 8.04 6.65 8.84
6/22/2021 4:15:00 PM 19.86 67.748 0.148 8.06 6 8.93
6/22/2021 4:30:00 PM 19.85 67.73 0.147 8.1 5.26 8.98
6/22/2021 4:45:00 PM 19.82 67.676 0.148 8.1 6.28 8.94
6/22/2021 5:00:00 PM 19.84 67.712 0.148 8.16 6.17 9.01
6/22/2021 5:15:00 PM 19.8 67.64 0.148 8.17 6.73 9
6/22/2021 5:30:00 PM 19.78 67.604 0.148 8.18 5.02 9
6/22/2021 5:45:00 PM 19.79 67.622 0.148 8.2 5.2 9.06
6/22/2021 6:00:00 PM 19.82 67.676 0.148 8.24 4.74 9.12
6/22/2021 6:15:00 PM 19.83 67.694 0.148 8.25 4.8 9.07
6/22/2021 6:30:00 PM 19.79 67.622 0.148 8.21 4.98 8.93
6/22/2021 6:45:00 PM 19.75 67.55 0.148 8.18 4.92 8.89
6/22/2021 7:00:00 PM 19.65 67.37 0.148 8.12 4.81 8.85
6/22/2021 7:15:00 PM 19.54 67.172 0.149 8.07 5.15 8.81
6/22/2021 7:30:00 PM 19.44 66.992 0.149 8.02 4.97 8.76
6/22/2021 7:45:00 PM 19.35 66.83 0.149 7.98 4.94 8.71
6/22/2021 8:00:00 PM 19.26 66.668 0.149 7.94 5.21 8.68
6/22/2021 8:15:00 PM 19.14 66.452 0.149 7.9 5.57 8.63
6/22/2021 8:30:00 PM 19.02 66.236 0.15 7.87 5.95 8.6
6/22/2021 8:45:00 PM 18.9 66.02 0.15 7.84 5.2 8.57
6/22/2021 9:00:00 PM 18.78 65.804 0.15 7.81 5.6 8.55
6/22/2021 9:15:00 PM 18.65 65.57 0.15 7.78 5.97 8.53
6/22/2021 9:30:00 PM 18.53 65.354 0.15 7.76 6.33 8.53
6/22/2021 9:45:00 PM 18.4 65.12 0.151 7.75 4.92 8.54
6/22/2021 10:00:00 PM 18.28 64.904 0.151 7.73 6.49 8.53
6/22/2021 10:15:00 PM 18.16 64.688 0.151 7.72 6.44 8.55
6/22/2021 10:30:00 PM 18.04 64.472 0.151 7.71 5.83 8.56
6/22/2021 10:45:00 PM 17.93 64.274 0.151 7.7 6.09 8.58
6/22/2021 11:00:00 PM 17.81 64.058 0.15 7.7 5.93 8.6
6/22/2021 11:15:00 PM 17.7 63.86 0.15 7.69 5.67 8.62
6/22/2021 11:30:00 PM 17.6 63.68 0.151 7.69 5.81 8.64
6/22/2021 11:45:00 PM 17.49 63.482 0.15 7.69 5.91 8.66
6/23/2021 12:00:00 AM 17.39 63.302 0.151 7.68 5.98 8.68
6/23/2021 12:15:00 AM 17.3 63.14 0.151 7.68 5.98 8.71
6/23/2021 12:30:00 AM 17.22 62.996 0.151 7.68 6.04 8.72
6/23/2021 12:45:00 AM 17.14 62.852 0.151 7.67 5.91 8.74
6/23/2021 1:00:00 AM 17.07 62.726 0.151 7.68 6.1 8.76
6/23/2021 1:15:00 AM 17 62.6 0.151 7.68 5.82 8.78
6/23/2021 1:30:00 AM 16.93 62.474 0.151 7.68 6.05 8.79
6/23/2021 1:45:00 AM 16.86 62.348 0.151 7.67 6.15 8.81
6/23/2021 2:00:00 AM 16.78 62.204 0.151 7.68 5.73 8.82
6/23/2021 2:15:00 AM 16.71 62.078 0.151 7.68 5.91 8.84
6/23/2021 2:30:00 AM 16.63 61.934 0.151 7.67 5.7 8.86
6/23/2021 2:45:00 AM 16.55 61.79 0.151 7.67 5.82 8.88
6/23/2021 3:00:00 AM 16.47 61.646 0.151 7.68 5.62 8.9
6/23/2021 3:15:00 AM 16.38 61.484 0.151 7.68 5.95 8.92
6/23/2021 3:30:00 AM 16.3 61.34 0.151 7.67 5.67 8.94
6/23/2021 3:45:00 AM 16.21 61.178 0.151 7.68 5.98 8.96
6/23/2021 4:00:00 AM 16.13 61.034 0.151 7.67 5.61 8.98
6/23/2021 4:15:00 AM 16.05 60.89 0.151 7.67 5.65 9.01
6/23/2021 4:30:00 AM 15.97 60.746 0.151 7.67 5.64 9.03
6/23/2021 4:45:00 AM 15.9 60.62 0.151 7.67 5.72 9.05
6/23/2021 5:00:00 AM 15.82 60.476 0.151 7.67 5.43 9.07
6/23/2021 5:15:00 AM 15.74 60.332 0.151 7.67 5.62 9.09
6/23/2021 5:30:00 AM 15.66 60.188 0.151 7.67 5.26 9.11
6/23/2021 5:45:00 AM 15.58 60.044 0.151 7.67 5.55 9.13
6/23/2021 6:00:00 AM 15.51 59.918 0.151 7.67 5.11 9.17
6/23/2021 6:15:00 AM 15.44 59.792 0.151 7.68 5.21 9.21
6/23/2021 6:30:00 AM 15.37 59.666 0.152 7.69 5.07 9.28
6/23/2021 6:45:00 AM 15.3 59.54 0.152 7.7 4.96 9.33
6/23/2021 7:00:00 AM 15.26 59.468 0.152 7.71 4.81 9.41
6/23/2021 7:15:00 AM 15.24 59.432 0.152 7.74 4.8 9.52
6/23/2021 7:30:00 AM 15.22 59.396 0.152 7.77 5.06 9.6
6/23/2021 7:45:00 AM 15.22 59.396 0.152 7.79 4.64 9.66
6/23/2021 8:00:00 AM 15.27 59.486 0.152 7.83 4.33 9.75
6/23/2021 8:15:00 AM 15.36 59.648 0.152 7.86 4.42 9.81
6/23/2021 8:30:00 AM 15.47 59.846 0.152 7.9 4.4 9.86
6/23/2021 8:45:00 AM 15.6 60.08 0.152 7.92 4.36 9.9
6/23/2021 9:00:00 AM 15.74 60.332 0.152 7.96 4.36 9.93
6/23/2021 9:15:00 AM 15.89 60.602 0.152 7.99 4.34 9.95
6/23/2021 9:30:00 AM 16.05 60.89 0.152 8.02 4.34 9.97
6/23/2021 9:45:00 AM 16.22 61.196 0.153 8.05 4.11 9.97
6/23/2021 10:00:00 AM 16.42 61.556 0.152 8.07 4.48 9.99
6/23/2021 10:15:00 AM 16.57 61.826 0.152 8.1 4.06 9.98
6/23/2021 10:30:00 AM 16.8 62.24 0.152 8.15 4.21 10
6/23/2021 10:45:00 AM 17.03 62.654 0.152 8.18 4.17 10
6/23/2021 11:00:00 AM 17.3 63.14 0.152 8.21 4.08 10
6/23/2021 11:15:00 AM 17.53 63.554 0.153 8.25 4.22 9.97
6/23/2021 11:30:00 AM 17.67 63.806 0.152 8.24 4.15 9.87
6/23/2021 11:45:00 AM 17.74 63.932 0.152 8.25 4.38 9.81
6/23/2021 12:00:00 PM 17.78 64.004 0.152 8.25 4.45 9.75
6/23/2021 12:15:00 PM 18.1 64.58 0.152 8.3 4.16 9.83
6/23/2021 12:30:00 PM 18.23 64.814 0.152 8.32 4.16 9.81
6/23/2021 12:45:00 PM 18.39 65.102 0.152 8.34 4.17 9.76
6/23/2021 1:00:00 PM 18.63 65.534 0.152 8.36 4.19 9.7
6/23/2021 1:15:00 PM 19.05 66.29 0.151 8.43 4.18 9.75
6/23/2021 1:30:00 PM 19.38 66.884 0.152 8.48 4.18 9.76
6/23/2021 1:45:00 PM 19.67 67.406 0.151 8.52 4.26 9.69
6/23/2021 2:00:00 PM 20.03 68.054 0.151 8.57 4.32 9.63
6/23/2021 2:15:00 PM 20.33 68.594 0.151 8.59 4.32 9.54
6/23/2021 2:30:00 PM 20.57 69.026 0.151 8.6 4.18 9.44
6/23/2021 2:45:00 PM 20.7 69.26 0.151 8.61 4.17 9.37
6/23/2021 3:00:00 PM 20.87 69.566 0.151 8.61 4.36 9.33
6/23/2021 3:15:00 PM 21.12 70.016 0.151 8.64 4.13 9.37
6/23/2021 3:30:00 PM 21.3 70.34 0.151 8.67 4.23 9.36
6/23/2021 3:45:00 PM 21.51 70.718 0.151 8.69 4.18 9.29
6/23/2021 4:00:00 PM 21.68 71.024 0.151 8.7 4.13 9.24
6/23/2021 4:15:00 PM 21.78 71.204 0.151 8.71 4.15 9.18
6/23/2021 4:30:00 PM 21.85 71.33 0.151 8.7 4.38 9.11
6/23/2021 4:45:00 PM 21.89 71.402 0.151 8.69 4.11 9.07
6/23/2021 5:00:00 PM 21.88 71.384 0.151 8.66 4.29 9.01
6/23/2021 5:15:00 PM 21.85 71.33 0.151 8.63 4.12 8.97
6/23/2021 5:30:00 PM 21.77 71.186 0.152 8.59 4.36 8.92
6/23/2021 5:45:00 PM 21.67 71.006 0.152 8.54 4.34 8.88
6/23/2021 6:00:00 PM 21.52 70.736 0.152 8.47 4.11 8.82
6/23/2021 6:15:00 PM 21.33 70.394 0.152 8.38 4.15 8.74
6/23/2021 6:30:00 PM 21.15 70.07 0.152 8.29 4.45 8.68
6/23/2021 6:45:00 PM 20.96 69.728 0.153 8.2 4.07 8.61
6/23/2021 7:00:00 PM 20.8 69.44 0.153 8.13 4.52 8.56
6/23/2021 7:15:00 PM 20.63 69.134 0.154 8.06 4.09 8.51
6/23/2021 7:30:00 PM 20.48 68.864 0.154 8 4.24 8.48
6/23/2021 7:45:00 PM 20.33 68.594 0.154 7.95 4.07 8.46
6/23/2021 8:00:00 PM 20.19 68.342 0.154 7.91 4.15 8.43
6/23/2021 8:15:00 PM 20.06 68.108 0.155 7.88 4.13 8.41
6/23/2021 8:30:00 PM 19.92 67.856 0.155 7.85 4.4 8.4
6/23/2021 8:45:00 PM 19.77 67.586 0.155 7.82 4.43 8.39
6/23/2021 9:00:00 PM 19.62 67.316 0.155 7.79 4.43 8.38
6/23/2021 9:15:00 PM 19.46 67.028 0.156 7.77 4.61 8.38
6/23/2021 9:30:00 PM 19.29 66.722 0.156 7.75 4.61 8.39
6/23/2021 9:45:00 PM 19.12 66.416 0.156 7.74 4.88 8.4
6/23/2021 10:00:00 PM 18.97 66.146 0.156 7.73 4.85 8.43
6/23/2021 10:15:00 PM 18.82 65.876 0.156 7.72 4.8 8.46
6/23/2021 10:30:00 PM 18.67 65.606 0.156 7.71 4.89 8.48
6/23/2021 10:45:00 PM 18.52 65.336 0.156 7.7 4.68 8.49
6/23/2021 11:00:00 PM 18.39 65.102 0.156 7.7 4.77 8.52
6/23/2021 11:15:00 PM 18.25 64.85 0.156 7.69 4.52 8.54
6/23/2021 11:30:00 PM 18.13 64.634 0.156 7.69 4.89 8.57
6/23/2021 11:45:00 PM 18 64.4 0.156 7.68 4.59 8.59
6/24/2021 12:00:00 AM 17.89 64.202 0.156 7.68 5.04 8.61
6/24/2021 12:15:00 AM 17.78 64.004 0.156 7.68 4.69 8.63
6/24/2021 12:30:00 AM 17.66 63.788 0.156 7.67 4.97 8.66
6/24/2021 12:45:00 AM 17.56 63.608 0.156 7.67 4.88 8.68
6/24/2021 1:00:00 AM 17.45 63.41 0.156 7.67 5.1 8.71
6/24/2021 1:15:00 AM 17.35 63.23 0.156 7.67 4.64 8.72
6/24/2021 1:30:00 AM 17.24 63.032 0.156 7.66 4.9 8.74
6/24/2021 1:45:00 AM 17.15 62.87 0.156 7.66 4.55 8.77
6/24/2021 2:00:00 AM 17.04 62.672 0.156 7.66 4.73 8.79
6/24/2021 2:15:00 AM 16.94 62.492 0.156 7.66 4.59 8.8
6/24/2021 2:30:00 AM 16.85 62.33 0.156 7.65 4.8 8.83
6/24/2021 2:45:00 AM 16.75 62.15 0.156 7.66 4.81 8.85
6/24/2021 3:00:00 AM 16.66 61.988 0.156 7.65 4.68 8.88
6/24/2021 3:15:00 AM 16.56 61.808 0.155 7.65 4.73 8.89
6/24/2021 3:30:00 AM 16.47 61.646 0.156 7.65 4.82 8.92
6/24/2021 3:45:00 AM 16.38 61.484 0.155 7.65 4.67 8.94
6/24/2021 4:00:00 AM 16.28 61.304 0.155 7.65 4.81 8.96
6/24/2021 4:15:00 AM 16.19 61.142 0.155 7.65 4.64 8.98
6/24/2021 4:30:00 AM 16.1 60.98 0.155 7.63 4.78 9.01
6/24/2021 4:45:00 AM 16.01 60.818 0.155 7.64 4.7 9.01
6/24/2021 5:00:00 AM 15.92 60.656 0.155 7.64 4.93 9.05
6/24/2021 5:15:00 AM 15.83 60.494 0.155 7.64 4.71 9.07
6/24/2021 5:30:00 AM 15.74 60.332 0.155 7.64 4.63 9.09
6/24/2021 5:45:00 AM 15.66 60.188 0.155 7.64 5.07 9.12
6/24/2021 6:00:00 AM 15.57 60.026 0.155 7.65 4.37 9.16
6/24/2021 6:15:00 AM 15.5 59.9 0.155 7.65 4.64 9.21
6/24/2021 6:30:00 AM 15.44 59.792 0.155 7.66 4.42 9.26
6/24/2021 6:45:00 AM 15.38 59.684 0.155 7.67 4.41 9.32
6/24/2021 7:00:00 AM 15.33 59.594 0.154 7.68 4.17 9.38
6/24/2021 7:15:00 AM 15.31 59.558 0.154 7.7 4.28 9.48
6/24/2021 7:30:00 AM 15.32 59.576 0.154 7.73 4.17 9.58
6/24/2021 7:45:00 AM 15.35 59.63 0.154 7.76 4.17 9.67
6/24/2021 8:00:00 AM 15.43 59.774 0.153 7.79 4.16 9.78
6/24/2021 8:15:00 AM 15.54 59.972 0.153 7.83 4.12 9.86
6/24/2021 8:30:00 AM 15.68 60.224 0.153 7.88 4.15 9.94
6/24/2021 8:45:00 AM 15.86 60.548 0.153 7.92 4.04 10
6/24/2021 9:00:00 AM 16.05 60.89 0.153 7.97 4.18 10.03
6/24/2021 9:15:00 AM 16.25 61.25 0.153 8 4.19 10.05
6/24/2021 9:30:00 AM 16.47 61.646 0.153 8.05 3.99 10.07
6/24/2021 9:45:00 AM 16.68 62.024 0.153 8.09 3.92 10.08
6/24/2021 10:00:00 AM 16.9 62.42 0.153 8.14 4.22 10.09
6/24/2021 10:15:00 AM 17.14 62.852 0.152 8.18 3.9 10.09
6/24/2021 10:30:00 AM 17.4 63.32 0.152 8.22 3.84 10.1
6/24/2021 10:45:00 AM 17.68 63.824 0.152 8.27 3.93 10.11
6/24/2021 11:00:00 AM 17.96 64.328 0.152 8.31 3.83 10.11
6/24/2021 11:15:00 AM 18.23 64.814 0.152 8.36 3.9 10.09
6/24/2021 11:30:00 AM 18.51 65.318 0.152 8.4 3.82 10.08
6/24/2021 11:45:00 AM 18.81 65.858 0.152 8.44 3.85 10.06
6/24/2021 12:00:00 PM 19.11 66.398 0.152 8.48 3.82 10.03
6/24/2021 12:15:00 PM 19.42 66.956 0.152 8.52 3.79 9.98
6/24/2021 12:30:00 PM 19.74 67.532 0.152 8.55 4.17 9.94
6/24/2021 12:45:00 PM 20.07 68.126 0.152 8.59 3.88 9.88
6/24/2021 1:00:00 PM 20.42 68.756 0.152 8.64 3.86 9.84
6/24/2021 1:15:00 PM 20.76 69.368 0.151 8.68 3.64 9.78
6/24/2021 1:30:00 PM 21.1 69.98 0.151 8.71 3.74 9.72
6/24/2021 1:45:00 PM 21.43 70.574 0.151 8.75 3.73 9.66
6/24/2021 2:00:00 PM 21.75 71.15 0.151 8.78 3.68 9.6
6/24/2021 2:15:00 PM 22.06 71.708 0.151 8.81 3.58 9.53
6/24/2021 2:30:00 PM 22.33 72.194 0.151 8.84 3.81 9.47
6/24/2021 2:45:00 PM 22.57 72.626 0.151 8.86 3.77 9.39
6/24/2021 3:00:00 PM 22.82 73.076 0.151 8.87 3.88 9.35
6/24/2021 3:15:00 PM 23.01 73.418 0.151 8.89 3.76 9.29
6/24/2021 3:30:00 PM 23.18 73.724 0.151 8.9 3.71 9.22
6/24/2021 3:45:00 PM 23.31 73.958 0.151 8.91 3.9 9.18
6/24/2021 4:00:00 PM 23.41 74.138 0.151 8.91 3.83 9.13
6/24/2021 4:15:00 PM 23.47 74.246 0.151 8.91 3.95 9.08
6/24/2021 4:30:00 PM 23.52 74.336 0.151 8.9 3.97 9.03
6/24/2021 4:45:00 PM 23.49 74.282 0.152 8.88 3.81 8.96
6/24/2021 5:00:00 PM 23.46 74.228 0.151 8.86 3.9 8.91
6/24/2021 5:15:00 PM 23.38 74.084 0.151 8.83 3.83 8.84
6/24/2021 5:30:00 PM 23.29 73.922 0.152 8.79 3.91 8.78
6/24/2021 5:45:00 PM 23.12 73.616 0.152 8.73 3.77 8.71
6/24/2021 6:00:00 PM 22.95 73.31 0.152 8.66 4.13 8.65
6/24/2021 6:15:00 PM 22.75 72.95 0.153 8.56 4.05 8.55
6/24/2021 6:30:00 PM 22.53 72.554 0.153 8.45 3.86 8.47
6/24/2021 6:45:00 PM 22.33 72.194 0.153 8.33 3.87 8.41
6/24/2021 7:00:00 PM 22.12 71.816 0.154 8.22 3.91 8.34
6/24/2021 7:15:00 PM 21.92 71.456 0.154 8.13 3.99 8.29
6/24/2021 7:30:00 PM 21.74 71.132 0.154 8.05 3.89 8.25
6/24/2021 7:45:00 PM 21.56 70.808 0.155 7.98 3.83 8.21
6/24/2021 8:00:00 PM 21.39 70.502 0.155 7.93 4.18 8.17
6/24/2021 8:15:00 PM 21.25 70.25 0.156 7.89 3.93 8.14
6/24/2021 8:30:00 PM 21.11 69.998 0.156 7.85 3.99 8.1
6/24/2021 8:45:00 PM 20.99 69.782 0.157 7.81 4.11 8.07
6/24/2021 9:00:00 PM 20.86 69.548 0.157 7.78 4.09 8.05
6/24/2021 9:15:00 PM 20.73 69.314 0.157 7.75 4.26 8.03
6/24/2021 9:30:00 PM 20.58 69.044 0.158 7.73 4.35 8.03
6/24/2021 9:45:00 PM 20.44 68.792 0.159 7.71 4.45 8.03
6/24/2021 10:00:00 PM 20.29 68.522 0.159 7.7 4.39 8.05
6/24/2021 10:15:00 PM 20.14 68.252 0.159 7.69 4.35 8.06
6/24/2021 10:30:00 PM 19.99 67.982 0.16 7.68 4.25 8.08
6/24/2021 10:45:00 PM 19.85 67.73 0.16 7.68 4.39 8.1
6/24/2021 11:00:00 PM 19.7 67.46 0.16 7.67 4.11 8.13
6/24/2021 11:15:00 PM 19.56 67.208 0.16 7.66 4.15 8.16
6/24/2021 11:30:00 PM 19.42 66.956 0.161 7.66 4.21 8.18
6/24/2021 11:45:00 PM 19.28 66.704 0.161 7.65 4.85 8.2
6/25/2021 12:00:00 AM 19.15 66.47 0.161 7.65 4.56 8.2
6/25/2021 12:15:00 AM 19.02 66.236 0.161 7.65 4.22 8.25
6/25/2021 12:30:00 AM 18.9 66.02 0.161 7.65 4.09 8.27
6/25/2021 12:45:00 AM 18.78 65.804 0.161 7.65 4.2 8.31
6/25/2021 1:00:00 AM 18.66 65.588 0.161 7.64 4.3 8.33
6/25/2021 1:15:00 AM 18.54 65.372 0.161 7.64 4.32 8.36
6/25/2021 1:30:00 AM 18.43 65.174 0.162 7.63 4.23 8.38
6/25/2021 1:45:00 AM 18.32 64.976 0.162 7.64 4.48 8.39
6/25/2021 2:00:00 AM 18.21 64.778 0.162 7.64 4.32 8.42
6/25/2021 2:15:00 AM 18.1 64.58 0.162 7.64 4.48 8.44
6/25/2021 2:30:00 AM 17.99 64.382 0.162 7.64 6.13 8.47
6/25/2021 2:45:00 AM 17.89 64.202 0.162 7.63 4.49 8.49
6/25/2021 3:00:00 AM 17.78 64.004 0.162 7.64 4.5 8.51
6/25/2021 3:15:00 AM 17.68 63.824 0.162 7.64 4.47 8.54
6/25/2021 3:30:00 AM 17.58 63.644 0.162 7.63 4.34 8.56
6/25/2021 3:45:00 AM 17.47 63.446 0.162 7.63 4.73 8.58
6/25/2021 4:00:00 AM 17.37 63.266 0.162 7.63 4.62 8.61
6/25/2021 4:15:00 AM 17.27 63.086 0.162 7.63 4.46 8.62
6/25/2021 4:30:00 AM 17.17 62.906 0.163 7.63 4.49 8.65
6/25/2021 4:45:00 AM 17.07 62.726 0.162 7.63 4.33 8.67
6/25/2021 5:00:00 AM 16.98 62.564 0.162 7.63 4.61 8.69
6/25/2021 5:15:00 AM 16.89 62.402 0.162 7.63 4.32 8.72
6/25/2021 5:30:00 AM 16.79 62.222 0.162 7.62 4.27 8.74
6/25/2021 5:45:00 AM 16.69 62.042 0.163 7.62 4.05 8.78
6/25/2021 6:00:00 AM 16.61 61.898 0.163 7.63 4.29 8.81
6/25/2021 6:15:00 AM 16.53 61.754 0.163 7.63 4.06 8.87
6/25/2021 6:30:00 AM 16.45 61.61 0.163 7.65 4 8.92
6/25/2021 6:45:00 AM 16.39 61.502 0.163 7.65 3.82 8.98
6/25/2021 7:00:00 AM 16.35 61.43 0.163 7.67 3.81 9.06
6/25/2021 7:15:00 AM 16.33 61.394 0.163 7.69 3.84 9.19
6/25/2021 7:30:00 AM 16.33 61.394 0.162 7.72 3.87 9.32
6/25/2021 7:45:00 AM 16.34 61.412 0.162 7.75 3.8 9.43
6/25/2021 8:00:00 AM 16.4 61.52 0.162 7.79 3.74 9.55
6/25/2021 8:15:00 AM 16.48 61.664 0.162 7.84 3.96 9.66
6/25/2021 8:30:00 AM 16.58 61.844 0.162 7.89 3.75 9.77
6/25/2021 8:45:00 AM 16.72 62.096 0.161 7.94 3.64 9.86
6/25/2021 9:00:00 AM 16.88 62.384 0.161 8 3.87 9.93
6/25/2021 9:15:00 AM 17.05 62.69 0.161 8.04 3.67 9.98
6/25/2021 9:30:00 AM 17.26 63.068 0.161 8.12 3.78 10.03
6/25/2021 9:45:00 AM 17.46 63.428 0.161 8.16 3.76 10.07
6/25/2021 10:00:00 AM 17.69 63.842 0.161 8.23 3.6 10.09
6/25/2021 10:15:00 AM 17.93 64.274 0.161 8.29 3.57 10.12
6/25/2021 10:30:00 AM 18.21 64.778 0.16 8.35 3.64 10.14
6/25/2021 10:45:00 AM 18.5 65.3 0.16 8.42 3.57 10.16
6/25/2021 11:00:00 AM 18.78 65.804 0.16 8.47 3.65 10.19
6/25/2021 11:15:00 AM 19.05 66.29 0.16 8.52 3.64 10.18
6/25/2021 11:30:00 AM 19.35 66.83 0.159 8.59 3.52 10.17
6/25/2021 11:45:00 AM 19.64 67.352 0.159 8.65 3.6 10.16
6/25/2021 12:00:00 PM 19.93 67.874 0.16 8.68 3.49 10.14
6/25/2021 12:15:00 PM 20.19 68.342 0.159 8.73 3.56 10.1
6/25/2021 12:30:00 PM 20.46 68.828 0.159 8.77 3.41 10.07
6/25/2021 12:45:00 PM 20.77 69.386 0.159 8.82 3.56 10.01
6/25/2021 1:00:00 PM 21.08 69.944 0.158 8.86 3.7 9.99
6/25/2021 1:15:00 PM 21.4 70.52 0.158 8.89 3.74 9.94
6/25/2021 1:30:00 PM 21.69 71.042 0.158 8.92 3.38 9.88
6/25/2021 1:45:00 PM 22 71.6 0.157 8.96 3.53 9.82
6/25/2021 2:00:00 PM 22.27 72.086 0.157 8.99 3.51 9.79
6/25/2021 2:15:00 PM 22.5 72.5 0.157 9.02 3.47 9.73
6/25/2021 2:30:00 PM 22.72 72.896 0.156 9.03 3.53 9.66
6/25/2021 2:45:00 PM 22.97 73.346 0.156 9.06 3.73 9.59
6/25/2021 3:00:00 PM 23.21 73.778 0.156 9.08 3.48 9.52
6/25/2021 3:15:00 PM 23.37 74.066 0.156 9.1 3.58 9.48
6/25/2021 3:30:00 PM 23.49 74.282 0.156 9.11 3.54 9.44
6/25/2021 3:45:00 PM 23.52 74.336 0.156 9.12 3.53 9.34
6/25/2021 4:00:00 PM 23.56 74.408 0.156 9.13 3.3 9.29
6/25/2021 4:15:00 PM 23.74 74.732 0.155 9.15 3.58 9.3
6/25/2021 4:30:00 PM 23.87 74.966 0.156 9.14 3.86 9.23
6/25/2021 4:45:00 PM 23.8 74.84 0.155 9.12 3.75 9.11
6/25/2021 5:00:00 PM 23.71 74.67799 0.155 9.11 3.78 8.99
6/25/2021 5:15:00 PM 23.7 74.66 0.155 9.11 3.59 8.97
6/25/2021 5:30:00 PM 23.75 74.75 0.155 9.1 3.74 8.93
6/25/2021 5:45:00 PM 23.66 74.588 0.155 9.06 3.7 8.81
6/25/2021 6:00:00 PM 23.54 74.372 0.155 9.01 4.41 8.7
6/25/2021 6:15:00 PM 23.39 74.102 0.155 8.95 3.72 8.58
6/25/2021 6:30:00 PM 23.22 73.796 0.155 8.88 3.74 8.48
6/25/2021 6:45:00 PM 23.03 73.454 0.155 8.79 3.87 8.4
6/25/2021 7:00:00 PM 22.85 73.13 0.155 8.68 3.74 8.32
6/25/2021 7:15:00 PM 22.67 72.806 0.156 8.56 3.75 8.28
6/25/2021 7:30:00 PM 22.49 72.482 0.156 8.42 3.75 8.23
6/25/2021 7:45:00 PM 22.32 72.176 0.156 8.28 3.77 8.18
6/25/2021 8:00:00 PM 22.17 71.906 0.157 8.16 3.8 8.14
6/25/2021 8:15:00 PM 22.03 71.654 0.156 8.07 3.82 8.07
6/25/2021 8:30:00 PM 21.91 71.438 0.157 7.99 3.72 8.01
6/25/2021 8:45:00 PM 21.78 71.204 0.157 7.92 3.86 7.95
6/25/2021 9:00:00 PM 21.66 70.988 0.157 7.86 3.73 7.89
6/25/2021 9:15:00 PM 21.54 70.772 0.158 7.82 4.08 7.85
6/25/2021 9:30:00 PM 21.41 70.538 0.158 7.78 3.95 7.82
6/25/2021 9:45:00 PM 21.28 70.304 0.159 7.75 4.26 7.8
6/25/2021 10:00:00 PM 21.15 70.07 0.159 7.72 4.05 7.79
6/25/2021 10:15:00 PM 21.03 69.854 0.16 7.7 3.96 7.79
6/25/2021 10:30:00 PM 20.89 69.602 0.16 7.69 4.02 7.78
6/25/2021 10:45:00 PM 20.77 69.386 0.16 7.68 3.96 7.81
6/25/2021 11:00:00 PM 20.65 69.17 0.161 7.67 4.65 7.82
6/25/2021 11:15:00 PM 20.52 68.936 0.161 7.66 4.21 7.84
6/25/2021 11:30:00 PM 20.41 68.738 0.162 7.65 4.03 7.86
6/25/2021 11:45:00 PM 20.29 68.522 0.162 7.65 4.09 7.88
6/26/2021 12:00:00 AM 20.17 68.306 0.162 7.64 3.92 7.89
6/26/2021 12:15:00 AM 20.05 68.09 0.162 7.64 3.94 7.93
6/26/2021 12:30:00 AM 19.93 67.874 0.162 7.64 4.02 7.95
6/26/2021 12:45:00 AM 19.83 67.694 0.163 7.62 4.14 7.97
6/26/2021 1:00:00 AM 19.72 67.496 0.163 7.64 3.96 7.99
6/26/2021 1:15:00 AM 19.62 67.316 0.163 7.63 4.09 8
6/26/2021 1:30:00 AM 19.51 67.118 0.163 7.63 4.25 8.03
6/26/2021 1:45:00 AM 19.41 66.938 0.163 7.62 4.15 8.05
6/26/2021 2:00:00 AM 19.31 66.758 0.164 7.62 4.12 8.08
6/26/2021 2:15:00 AM 19.22 66.596 0.164 7.63 4.01 8.1
6/26/2021 2:30:00 AM 19.13 66.434 0.164 7.62 4.02 8.12
6/26/2021 2:45:00 AM 19.05 66.29 0.164 7.62 4.27 8.14
6/26/2021 3:00:00 AM 18.97 66.146 0.164 7.61 4.19 8.14
6/26/2021 3:15:00 AM 18.89 66.002 0.164 7.62 3.94 8.17
6/26/2021 3:30:00 AM 18.83 65.894 0.165 7.62 4.19 8.2
6/26/2021 3:45:00 AM 18.78 65.804 0.165 7.62 4.21 8.21
6/26/2021 4:00:00 AM 18.74 65.732 0.165 7.62 4.36 8.22
6/26/2021 4:15:00 AM 18.7 65.66 0.165 7.62 4.31 8.22
6/26/2021 4:30:00 AM 18.66 65.588 0.165 7.62 3.98 8.24
6/26/2021 4:45:00 AM 18.63 65.534 0.165 7.62 4.09 8.26
6/26/2021 5:00:00 AM 18.62 65.516 0.165 7.62 4.13 8.26
6/26/2021 5:15:00 AM 18.61 65.498 0.165 7.62 4.35 8.27
6/26/2021 5:30:00 AM 18.61 65.498 0.165 7.62 4.12 8.26
6/26/2021 5:45:00 AM 18.6 65.48 0.165 7.62 3.98 8.27
6/26/2021 6:00:00 AM 18.59 65.462 0.165 7.62 4.22 8.29
6/26/2021 6:15:00 AM 18.59 65.462 0.165 7.63 3.85 8.34
6/26/2021 6:30:00 AM 18.6 65.48 0.165 7.64 4 8.4
6/26/2021 6:45:00 AM 18.62 65.516 0.165 7.65 3.78 8.46
6/26/2021 7:00:00 AM 18.63 65.534 0.165 7.67 3.96 8.49
6/26/2021 7:15:00 AM 18.67 65.606 0.165 7.69 3.85 8.59
6/26/2021 7:30:00 AM 18.71 65.67799 0.164 7.72 3.69 8.74
6/26/2021 7:45:00 AM 18.8 65.84 0.164 7.76 3.59 8.89
6/26/2021 8:00:00 AM 18.91 66.038 0.164 7.81 3.53 9.07
6/26/2021 8:15:00 AM 18.98 66.164 0.163 7.85 3.68 9.15
6/26/2021 8:30:00 AM 19.12 66.416 0.163 7.92 3.61 9.32
6/26/2021 8:45:00 AM 19.24 66.632 0.163 7.98 3.44 9.42
6/26/2021 9:00:00 AM 19.34 66.812 0.163 8.02 3.41 9.39
6/26/2021 9:15:00 AM 19.43 66.974 0.162 8.04 3.39 9.33
6/26/2021 9:30:00 AM 19.64 67.352 0.162 8.1 3.85 9.44
6/26/2021 9:45:00 AM 19.85 67.73 0.162 8.2 3.61 9.6
6/26/2021 10:00:00 AM 20.07 68.126 0.162 8.28 3.56 9.69
6/26/2021 10:15:00 AM 20.26 68.468 0.161 8.35 3.71 9.76
6/26/2021 10:30:00 AM 20.54 68.972 0.161 8.45 3.77 9.84
6/26/2021 10:45:00 AM 20.87 69.566 0.16 8.54 3.84 9.9
6/26/2021 11:00:00 AM 21.2 70.16 0.16 8.63 3.4 9.94
6/26/2021 11:15:00 AM 21.52 70.736 0.16 8.7 3.64 9.93
6/26/2021 11:30:00 AM 21.86 71.348 0.159 8.77 3.41 9.89
6/26/2021 11:45:00 AM 22.21 71.978 0.159 8.83 3.52 9.89
6/26/2021 12:00:00 PM 22.54 72.57201 0.159 8.88 3.53 9.87
6/26/2021 12:15:00 PM 22.83 73.094 0.159 8.93 3.73 9.84
6/26/2021 12:30:00 PM 23.15 73.67 0.158 8.96 3.52 9.76
6/26/2021 12:45:00 PM 23.5 74.3 0.157 8.99 3.46 9.72
6/26/2021 1:00:00 PM 23.82 74.876 0.158 9.03 3.51 9.7
6/26/2021 1:15:00 PM 24.1 75.38 0.158 9.07 3.41 9.64
6/26/2021 1:30:00 PM 24.37 75.866 0.157 9.09 3.53 9.55
6/26/2021 1:45:00 PM 24.67 76.406 0.157 9.1 3.54 9.47
6/26/2021 2:00:00 PM 25 77 0.156 9.13 3.61 9.42
6/26/2021 2:15:00 PM 25.28 77.504 0.156 9.15 3.58 9.36
6/26/2021 2:30:00 PM 25.57 78.026 0.155 9.17 3.64 9.34
6/26/2021 2:45:00 PM 25.85 78.53 0.156 9.18 3.5 9.26
6/26/2021 3:00:00 PM 26 78.8 0.155 9.19 3.48 9.19
6/26/2021 3:15:00 PM 26.1 78.98 0.155 9.21 3.42 9.06
6/26/2021 3:30:00 PM 26.13 79.034 0.155 9.2 3.39 8.92
6/26/2021 3:45:00 PM 26.2 79.16 0.154 9.21 3.47 8.84
6/26/2021 4:00:00 PM 26.3 79.34 0.154 9.22 3.58 8.84
6/26/2021 4:15:00 PM 26.4 79.52 0.154 9.22 3.52 8.83
6/26/2021 4:30:00 PM 26.46 79.628 0.154 9.22 3.62 8.79
6/26/2021 4:45:00 PM 26.46 79.628 0.154 9.21 3.45 8.73
6/26/2021 5:00:00 PM 26.35 79.43 0.154 9.19 3.57 8.62
6/26/2021 5:15:00 PM 26.26 79.268 0.153 9.17 3.71 8.53
6/26/2021 5:30:00 PM 26.17 79.106 0.153 9.15 3.59 8.43
6/26/2021 5:45:00 PM 26.06 78.908 0.153 9.11 3.73 8.33
6/26/2021 6:00:00 PM 25.95 78.71 0.153 9.09 3.95 8.3
6/26/2021 6:15:00 PM 25.82 78.476 0.154 9.05 3.71 8.19
6/26/2021 6:30:00 PM 25.66 78.188 0.153 9 3.7 8.2
6/26/2021 6:45:00 PM 25.47 77.846 0.153 8.92 3.46 8.09
6/26/2021 7:00:00 PM 25.3 77.54 0.154 8.83 3.65 7.97
6/26/2021 7:15:00 PM 25.15 77.27 0.154 8.75 3.68 7.89
6/26/2021 7:30:00 PM 25.02 77.036 0.154 8.65 3.83 7.85
6/26/2021 7:45:00 PM 24.88 76.784 0.154 8.54 3.53 7.76
6/26/2021 8:00:00 PM 24.73 76.514 0.154 8.39 3.67 7.71
6/26/2021 8:15:00 PM 24.6 76.28 0.154 8.26 3.69 7.63
6/26/2021 8:30:00 PM 24.46 76.028 0.155 8.13 3.88 7.55
6/26/2021 8:45:00 PM 24.32 75.776 0.155 8.02 3.79 7.48
6/26/2021 9:00:00 PM 24.2 75.56 0.155 7.93 4.04 7.4
6/26/2021 9:15:00 PM 24.07 75.326 0.156 7.86 4.11 7.34
6/26/2021 9:30:00 PM 23.95 75.11 0.156 7.8 4.07 7.31
6/26/2021 9:45:00 PM 23.83 74.894 0.157 7.76 4.09 7.27
6/26/2021 10:00:00 PM 23.71 74.67799 0.157 7.72 4.04 7.25
6/26/2021 10:15:00 PM 23.59 74.462 0.157 7.69 4.13 7.24
6/26/2021 10:30:00 PM 23.48 74.264 0.158 7.67 4.31 7.23
6/26/2021 10:45:00 PM 23.37 74.066 0.158 7.65 6.26 7.22
6/26/2021 11:00:00 PM 23.26 73.868 0.158 7.64 4.12 7.23
6/26/2021 11:15:00 PM 23.16 73.688 0.159 7.63 3.98 7.23
6/26/2021 11:30:00 PM 23.05 73.49 0.159 7.62 4.17 7.27
6/26/2021 11:45:00 PM 22.95 73.31 0.16 7.61 4.14 7.28
6/27/2021 12:00:00 AM 22.85 73.13 0.16 7.6 4.17 7.29
6/27/2021 12:15:00 AM 22.75 72.95 0.16 7.6 3.9 7.3
6/27/2021 12:30:00 AM 22.65 72.77 0.161 7.6 4.07 7.33
6/27/2021 12:45:00 AM 22.56 72.608 0.161 7.59 3.87 7.34
6/27/2021 1:00:00 AM 22.46 72.42799 0.161 7.59 4.28 7.37
6/27/2021 1:15:00 AM 22.36 72.248 0.162 7.59 4.18 7.38
6/27/2021 1:30:00 AM 22.28 72.104 0.162 7.58 4.15 7.4
6/27/2021 1:45:00 AM 22.2 71.96 0.162 7.59 4.07 7.42
6/27/2021 2:00:00 AM 22.12 71.816 0.163 7.58 3.84 7.44
6/27/2021 2:15:00 AM 22.05 71.69 0.163 7.58 4.12 7.45
6/27/2021 2:30:00 AM 21.98 71.564 0.163 7.58 3.95 7.46
6/27/2021 2:45:00 AM 21.91 71.438 0.164 7.58 4.37 7.48
6/27/2021 3:00:00 AM 21.85 71.33 0.164 7.58 4.07 7.5
6/27/2021 3:15:00 AM 21.79 71.222 0.164 7.58 4.24 7.51
6/27/2021 3:30:00 AM 21.73 71.114 0.164 7.58 3.85 7.53
6/27/2021 3:45:00 AM 21.67 71.006 0.164 7.58 4.06 7.55
6/27/2021 4:00:00 AM 21.6 70.88 0.164 7.57 4.05 7.56
6/27/2021 4:15:00 AM 21.54 70.772 0.165 7.57 4.06 7.55
6/27/2021 4:30:00 AM 21.48 70.664 0.165 7.58 4.24 7.58
6/27/2021 4:45:00 AM 21.42 70.556 0.165 7.57 4.3 7.59
6/27/2021 5:00:00 AM 21.36 70.448 0.165 7.57 4.32 7.6
6/27/2021 5:15:00 AM 21.29 70.32201 0.165 7.57 4.39 7.61
6/27/2021 5:30:00 AM 21.22 70.196 0.165 7.57 4.18 7.63
6/27/2021 5:45:00 AM 21.16 70.088 0.165 7.58 3.06 7.66
6/27/2021 6:00:00 AM 21.1 69.98 0.165 7.57 4.27 7.69
6/27/2021 6:15:00 AM 21.05 69.89 0.165 7.58 4.23 7.76
6/27/2021 6:30:00 AM 21.01 69.818 0.165 7.58 4.07 7.82
6/27/2021 6:45:00 AM 20.97 69.746 0.165 7.6 3.98 7.87
6/27/2021 7:00:00 AM 20.95 69.71 0.165 7.61 4.2 7.96
6/27/2021 7:15:00 AM 20.94 69.692 0.165 7.62 3.78 8.08
6/27/2021 7:30:00 AM 20.95 69.71 0.165 7.65 4.14 8.22
6/27/2021 7:45:00 AM 20.99 69.782 0.165 7.69 4.01 8.34
6/27/2021 8:00:00 AM 21.06 69.908 0.165 7.72 3.96 8.46
6/27/2021 8:15:00 AM 21.15 70.07 0.165 7.76 3.75 8.62
6/27/2021 8:30:00 AM 21.28 70.304 0.165 7.82 4.01 8.73
6/27/2021 8:45:00 AM 21.43 70.574 0.164 7.88 4.04 8.85
6/27/2021 9:00:00 AM 21.61 70.898 0.164 7.95 3.74 8.93
6/27/2021 9:15:00 AM 21.82 71.276 0.164 8.02 3.71 9.01
6/27/2021 9:30:00 AM 22.06 71.708 0.164 8.08 3.72 9.09
6/27/2021 9:45:00 AM 22.3 72.14 0.163 8.16 3.81 9.14
6/27/2021 10:00:00 AM 22.56 72.608 0.163 8.22 3.74 9.2
6/27/2021 10:15:00 AM 22.83 73.094 0.163 8.31 3.68 9.26
6/27/2021 10:30:00 AM 23.13 73.634 0.163 8.39 3.66 9.32
6/27/2021 10:45:00 AM 23.45 74.21 0.163 8.47 3.91 9.36
6/27/2021 11:00:00 AM 23.77 74.786 0.162 8.55 3.56 9.41
6/27/2021 11:15:00 AM 24.07 75.326 0.163 8.61 3.43 9.39
6/27/2021 11:30:00 AM 24.28 75.704 0.162 8.67 3.74 9.41
6/27/2021 11:45:00 AM 24.55 76.19 0.162 8.71 3.67 9.44
6/27/2021 12:00:00 PM 24.83 76.694 0.161 8.77 3.74 9.42
6/27/2021 12:15:00 PM 24.99 76.982 0.162 8.79 3.61 9.34
6/27/2021 12:30:00 PM 25.11 77.198 0.161 8.81 3.48 9.26
6/27/2021 12:45:00 PM 25.4 77.72 0.161 8.84 3.58 9.3
6/27/2021 1:00:00 PM 25.54 77.972 0.161 8.86 3.8 9.16
6/27/2021 1:15:00 PM 25.74 78.332 0.161 8.88 3.5 9.09
6/27/2021 1:30:00 PM 25.99 78.782 0.16 8.91 3.46 9.11
6/27/2021 1:45:00 PM 26.15 79.07 0.161 8.94 3.71 9.08
6/27/2021 2:00:00 PM 26.31 79.358 0.16 8.97 3.54 9.05
6/27/2021 2:15:00 PM 26.49 79.682 0.159 9 3.5 9.1
6/27/2021 2:30:00 PM 26.68 80.024 0.158 9.03 3.67 9.13
6/27/2021 2:45:00 PM 26.88 80.384 0.158 9.05 3.44 9.09
6/27/2021 3:00:00 PM 26.96 80.528 0.159 9.06 3.78 9.01
6/27/2021 3:15:00 PM 27.01 80.618 0.158 9.07 3.77 8.93
6/27/2021 3:30:00 PM 27.05 80.69 0.157 9.07 3.85 8.77
6/27/2021 3:45:00 PM 27.07 80.726 0.158 9.07 3.58 8.65
6/27/2021 4:00:00 PM 27.22 80.996 0.157 9.09 3.91 8.74
6/27/2021 4:15:00 PM 27.32 81.176 0.155 9.08 3.66 8.71
6/27/2021 4:30:00 PM 27.23 81.014 0.156 9.07 3.48 8.58
6/27/2021 4:45:00 PM 27.11 80.798 0.155 9.03 3.65 8.42
6/27/2021 5:00:00 PM 27.02 80.636 0.157 9.01 3.6 8.3
6/27/2021 5:15:00 PM 26.97 80.546 0.157 8.99 3.33 8.27
6/27/2021 5:30:00 PM 26.93 80.474 0.156 8.97 3.47 8.27
6/27/2021 5:45:00 PM 26.87 80.366 0.156 8.94 4.07 8.23
6/27/2021 6:00:00 PM 26.79 80.222 0.156 8.9 3.82 8.16
6/27/2021 6:15:00 PM 26.66 79.988 0.156 8.83 3.83 8.03
6/27/2021 6:30:00 PM 26.55 79.79 0.156 8.77 3.48 7.92
6/27/2021 6:45:00 PM 26.43 79.574 0.156 8.69 3.66 7.82
6/27/2021 7:00:00 PM 26.32 79.376 0.156 8.6 4.72 7.75
6/27/2021 7:15:00 PM 26.2 79.16 0.157 8.5 3.88 7.68
6/27/2021 7:30:00 PM 26.09 78.962 0.157 8.38 3.68 7.61
6/27/2021 7:45:00 PM 25.97 78.746 0.157 8.25 3.78 7.51
6/27/2021 8:00:00 PM 25.84 78.512 0.157 8.13 3.79 7.44
6/27/2021 8:15:00 PM 25.72 78.296 0.158 8.03 3.75 7.34
6/27/2021 8:30:00 PM 25.59 78.062 0.158 7.94 3.75 7.28
6/27/2021 8:45:00 PM 25.46 77.828 0.159 7.87 3.69 7.21
6/27/2021 9:00:00 PM 25.33 77.594 0.159 7.81 4.06 7.12
6/27/2021 9:15:00 PM 25.21 77.378 0.159 7.76 3.88 7.09
6/27/2021 9:30:00 PM 25.08 77.144 0.159 7.72 4.2 7.02
6/27/2021 9:45:00 PM 24.96 76.92799 0.159 7.69 3.96 6.98
6/27/2021 10:00:00 PM 24.85 76.73 0.16 7.66 4.15 6.97
6/27/2021 10:15:00 PM 24.72 76.496 0.16 7.64 4.21 6.95
6/27/2021 10:30:00 PM 24.61 76.298 0.16 7.63 4.02 6.95
6/27/2021 10:45:00 PM 24.51 76.118 0.16 7.61 4.68 6.96
6/27/2021 11:00:00 PM 24.4 75.92 0.161 7.6 3.88 6.96
6/27/2021 11:15:00 PM 24.29 75.722 0.161 7.59 4.08 6.98
6/27/2021 11:30:00 PM 24.19 75.542 0.161 7.58 4.1 7
6/27/2021 11:45:00 PM 24.1 75.38 0.161 7.58 4.24 7.02
6/28/2021 12:00:00 AM 24 75.2 0.162 7.57 3.99 7.01
6/28/2021 12:15:00 AM 23.91 75.038 0.162 7.57 4.3 7.05
6/28/2021 12:30:00 AM 23.83 74.894 0.163 7.57 4.52 7.08
6/28/2021 12:45:00 AM 23.75 74.75 0.163 7.56 4.86 7.1
6/28/2021 1:00:00 AM 23.66 74.588 0.163 7.56 4.84 7.12
6/28/2021 1:15:00 AM 23.57 74.426 0.163 7.57 2.82 7.13
6/28/2021 1:30:00 AM 23.49 74.282 0.164 7.55 5.23 7.16
6/28/2021 1:45:00 AM 23.42 74.156 0.164 7.55 4.8 7.18
6/28/2021 2:00:00 AM 23.34 74.012 0.164 7.55 4.53 7.2
6/28/2021 2:15:00 AM 23.26 73.868 0.164 7.54 4.15 7.22
6/28/2021 2:30:00 AM 23.19 73.742 0.165 7.55 4.71 7.22
6/28/2021 2:45:00 AM 23.11 73.598 0.165 7.55 4.58 7.24
6/28/2021 3:00:00 AM 23.03 73.454 0.165 7.55 4.4 7.24
6/28/2021 3:15:00 AM 22.96 73.328 0.165 7.54 4.33 7.27
6/28/2021 3:30:00 AM 22.89 73.202 0.165 7.55 4.38 7.29
6/28/2021 3:45:00 AM 22.82 73.076 0.166 7.54 4.55 7.29
6/28/2021 4:00:00 AM 22.74 72.932 0.166 7.54 4.88 7.31
6/28/2021 4:15:00 AM 22.68 72.824 0.166 7.55 4.11 7.34
6/28/2021 4:30:00 AM 22.61 72.698 0.166 7.54 4.22 7.34
6/28/2021 4:45:00 AM 22.54 72.57201 0.166 7.54 4.22 7.36
6/28/2021 5:00:00 AM 22.47 72.446 0.166 7.54 4.45 7.38
6/28/2021 5:15:00 AM 22.39 72.302 0.166 7.53 4.83 7.37
6/28/2021 5:30:00 AM 22.32 72.176 0.166 7.54 4.52 7.4
6/28/2021 5:45:00 AM 22.25 72.05 0.167 7.53 4 7.42
6/28/2021 6:00:00 AM 22.18 71.924 0.167 7.53 4.06 7.46
6/28/2021 6:15:00 AM 22.12 71.816 0.167 7.54 4.04 7.49
6/28/2021 6:30:00 AM 22.06 71.708 0.167 7.56 4.16 7.53
6/28/2021 6:45:00 AM 22.01 71.618 0.167 7.56 3.97 7.61
6/28/2021 7:00:00 AM 21.99 71.582 0.167 7.57 3.92 7.67
6/28/2021 7:15:00 AM 21.98 71.564 0.167 7.59 4.07 7.82
6/28/2021 7:30:00 AM 21.99 71.582 0.167 7.61 4.03 7.94
6/28/2021 7:45:00 AM 22 71.6 0.166 7.63 3.62 8.06
6/28/2021 8:00:00 AM 22.05 71.69 0.166 7.66 4.12 8.2
6/28/2021 8:15:00 AM 22.14 71.852 0.166 7.7 4.12 8.35
6/28/2021 8:30:00 AM 22.26 72.068 0.166 7.75 3.84 8.49
6/28/2021 8:45:00 AM 22.41 72.338 0.166 7.81 3.66 8.58
6/28/2021 9:00:00 AM 22.59 72.662 0.166 7.87 3.63 8.7
6/28/2021 9:15:00 AM 22.78 73.004 0.165 7.92 3.64 8.77
6/28/2021 9:30:00 AM 23.02 73.436 0.165 7.99 3.82 8.87
6/28/2021 9:45:00 AM 23.26 73.868 0.165 8.06 3.5 8.94
6/28/2021 10:00:00 AM 23.49 74.282 0.165 8.12 3.77 8.97
6/28/2021 10:15:00 AM 23.76 74.768 0.165 8.2 3.63 9.03
6/28/2021 10:30:00 AM 24.05 75.29 0.164 8.3 3.72 9.17
6/28/2021 10:45:00 AM 24.41 75.938 0.164 8.39 3.51 9.26
6/28/2021 11:00:00 AM 24.68 76.424 0.164 8.45 3.63 9.24
6/28/2021 11:15:00 AM 24.84 76.712 0.164 8.49 3.46 9.16
6/28/2021 11:30:00 AM 25.11 77.198 0.164 8.54 3.62 9.18
6/28/2021 11:45:00 AM 25.42 77.756 0.164 8.61 3.45 9.19
6/28/2021 12:00:00 PM 25.75 78.35 0.164 8.67 3.67 9.24
6/28/2021 12:15:00 PM 26.02 78.836 0.164 8.71 3.65 9.21
6/28/2021 12:30:00 PM 26.11 78.998 0.164 8.72 3.68 9.13
6/28/2021 12:45:00 PM 26.23 79.214 0.164 8.72 3.69 8.97
6/28/2021 1:00:00 PM 26.37 79.466 0.163 8.74 3.79 8.93
6/28/2021 1:15:00 PM 26.6 79.88 0.163 8.76 3.46 8.88
6/28/2021 1:30:00 PM 26.84 80.312 0.163 8.79 3.45 8.85
6/28/2021 1:45:00 PM 27.14 80.852 0.162 8.83 3.62 8.89
6/28/2021 2:00:00 PM 27.4 81.32 0.162 8.86 3.89 8.92
6/28/2021 2:15:00 PM 27.59 81.662 0.162 8.86 3.78 8.83
6/28/2021 2:30:00 PM 27.75 81.95 0.161 8.87 3.57 8.81
6/28/2021 2:45:00 PM 27.95 82.31 0.161 8.88 3.37 8.7
6/28/2021 3:00:00 PM 28.18 82.724 0.161 8.9 3.56 8.7
6/28/2021 3:15:00 PM 28.45 83.21001 0.161 8.92 3.39 8.61
6/28/2021 3:30:00 PM 28.73 83.714 0.16 8.94 3.41 8.64
6/28/2021 3:45:00 PM 28.9 84.02 0.161 8.95 3.67 8.46
6/28/2021 4:00:00 PM 29.05 84.28999 0.159 8.94 3.3 8.42
6/28/2021 4:15:00 PM 29.21 84.578 0.159 8.95 3.46 8.33
6/28/2021 4:30:00 PM 29.4 84.92 0.159 8.97 3.56 8.32
6/28/2021 4:45:00 PM 29.46 85.028 0.159 8.96 3.6 8.26
6/28/2021 5:00:00 PM 29.53 85.15401 0.158 8.94 3.59 8.12
6/28/2021 5:15:00 PM 29.54 85.172 0.158 8.92 3.58 8.02
6/28/2021 5:30:00 PM 29.48 85.064 0.158 8.89 3.68 7.93
6/28/2021 5:45:00 PM 29.43 84.974 0.158 8.86 3.42 7.83
6/28/2021 6:00:00 PM 29.32 84.776 0.159 8.81 3.74 7.72
6/28/2021 6:15:00 PM 29.16 84.488 0.159 8.76 2.51 7.61
6/28/2021 6:30:00 PM 28.96 84.128 0.159 8.63 3.91 7.43
6/28/2021 6:45:00 PM 28.77 83.786 0.16 8.53 3.43 7.32
6/28/2021 7:00:00 PM 28.55 83.39 0.16 8.39 3.87 7.26
6/28/2021 7:15:00 PM 28.35 83.03 0.16 8.26 3.67 7.17
6/28/2021 7:30:00 PM 28.13 82.634 0.161 8.13 3.58 7.08
6/28/2021 7:45:00 PM 27.92 82.256 0.161 8.03 3.46 7.03
6/28/2021 8:00:00 PM 27.72 81.896 0.161 7.94 3.63 6.98
6/28/2021 8:15:00 PM 27.53 81.554 0.161 7.88 3.56 6.89
6/28/2021 8:30:00 PM 27.34 81.212 0.162 7.81 3.73 6.86
6/28/2021 8:45:00 PM 27.17 80.906 0.162 7.76 4.31 6.8
6/28/2021 9:00:00 PM 27.01 80.618 0.162 7.72 4 6.74
6/28/2021 9:15:00 PM 26.87 80.366 0.162 7.69 3.92 6.72
6/28/2021 9:30:00 PM 26.72 80.096 0.163 7.65 4.06 6.71
6/28/2021 9:45:00 PM 26.57 79.826 0.163 7.63 4.03 6.7
6/28/2021 10:00:00 PM 26.45 79.61 0.163 7.62 3.93 6.69
6/28/2021 10:15:00 PM 26.32 79.376 0.163 7.59 3.67 6.67
6/28/2021 10:30:00 PM 26.2 79.16 0.163 7.59 4.02 6.68
6/28/2021 10:45:00 PM 26.07 78.926 0.163 7.57 3.75 6.71
6/28/2021 11:00:00 PM 25.96 78.728 0.164 7.57 4.01 6.72
6/28/2021 11:15:00 PM 25.85 78.53 0.164 7.55 4.03 6.73
6/28/2021 11:30:00 PM 25.73 78.314 0.164 7.55 4.19 6.73
6/28/2021 11:45:00 PM 25.61 78.098 0.164 7.54 4.22 6.74
6/29/2021 12:00:00 AM 25.52 77.936 0.165 7.54 3.7 6.8
6/29/2021 12:15:00 AM 25.4 77.72 0.165 7.54 4.02 6.79
6/29/2021 12:30:00 AM 25.3 77.54 0.165 7.54 3.9 6.82
6/29/2021 12:45:00 AM 25.19 77.342 0.165 7.54 4.23 6.84
6/29/2021 1:00:00 AM 25.09 77.162 0.166 7.54 4.11 6.84
6/29/2021 1:15:00 AM 24.99 76.982 0.166 7.53 4.06 6.86
6/29/2021 1:30:00 AM 24.89 76.802 0.166 7.53 3.93 6.89
6/29/2021 1:45:00 AM 24.79 76.622 0.166 7.54 4.46 6.91
6/29/2021 2:00:00 AM 24.69 76.442 0.167 7.54 3.92 6.94
6/29/2021 2:15:00 AM 24.6 76.28 0.167 7.53 4.35 6.95
6/29/2021 2:30:00 AM 24.5 76.1 0.167 7.54 4.29 6.96
6/29/2021 2:45:00 AM 24.4 75.92 0.167 7.54 4.07 6.97
6/29/2021 3:00:00 AM 24.31 75.758 0.167 7.54 4.26 7.01
6/29/2021 3:15:00 AM 24.23 75.614 0.168 7.54 4.43 7.04
6/29/2021 3:30:00 AM 24.14 75.452 0.168 7.54 4.23 7.02
6/29/2021 3:45:00 AM 24.07 75.326 0.168 7.54 4.49 7.04
6/29/2021 4:00:00 AM 23.98 75.164 0.168 7.53 4.35 7.08
6/29/2021 4:15:00 AM 23.9 75.02 0.168 7.53 4.1 7.08
6/29/2021 4:30:00 AM 23.81 74.858 0.168 7.53 4.51 7.09
6/29/2021 4:45:00 AM 23.73 74.714 0.168 7.53 4.24 7.12
6/29/2021 5:00:00 AM 23.65 74.57 0.168 7.53 4.33 7.14
6/29/2021 5:15:00 AM 23.57 74.426 0.169 7.52 4.4 7.16
6/29/2021 5:30:00 AM 23.49 74.282 0.169 7.52 4.47 7.17
6/29/2021 5:45:00 AM 23.4 74.12 0.169 7.51 4.22 7.2
6/29/2021 6:00:00 AM 23.33 73.994 0.169 7.52 4.06 7.23
6/29/2021 6:15:00 AM 23.25 73.85 0.169 7.52 4.25 7.27
6/29/2021 6:30:00 AM 23.2 73.76 0.169 7.52 3.96 7.35
6/29/2021 6:45:00 AM 23.14 73.652 0.169 7.54 4 7.41
6/29/2021 7:00:00 AM 23.1 73.58 0.169 7.54 3.94 7.49
6/29/2021 7:15:00 AM 23.09 73.562 0.169 7.56 3.96 7.63
6/29/2021 7:30:00 AM 23.09 73.562 0.169 7.59 4.04 7.78
6/29/2021 7:45:00 AM 23.12 73.616 0.169 7.62 4.08 7.91
6/29/2021 8:00:00 AM 23.15 73.67 0.169 7.64 3.94 8.04
6/29/2021 8:15:00 AM 23.23 73.814 0.168 7.68 3.69 8.19
6/29/2021 8:30:00 AM 23.32 73.976 0.168 7.72 3.84 8.31
6/29/2021 8:45:00 AM 23.44 74.192 0.168 7.77 4.25 8.41
6/29/2021 9:00:00 AM 23.6 74.48 0.168 7.82 4 8.52
6/29/2021 9:15:00 AM 23.78 74.804 0.168 7.87 3.83 8.63
6/29/2021 9:30:00 AM 24 75.2 0.167 7.94 3.77 8.72
6/29/2021 9:45:00 AM 24.23 75.614 0.167 7.99 3.81 8.76
6/29/2021 10:00:00 AM 24.48 76.064 0.167 8.07 3.84 8.86
6/29/2021 10:15:00 AM 24.75 76.55 0.167 8.13 4.38 8.9
6/29/2021 10:30:00 AM 25.06 77.108 0.167 8.21 3.69 8.99
6/29/2021 10:45:00 AM 25.4 77.72 0.167 8.29 3.99 9.04
6/29/2021 11:00:00 AM 25.69 78.242 0.167 8.35 3.98 9.08
6/29/2021 11:15:00 AM 26.02 78.836 0.167 8.42 3.66 9.08
6/29/2021 11:30:00 AM 26.32 79.376 0.167 8.5 3.94 9.1
6/29/2021 11:45:00 AM 26.63 79.934 0.167 8.55 3.53 9.12
6/29/2021 12:00:00 PM 26.88 80.384 0.167 8.6 3.81 9.08
6/29/2021 12:15:00 PM 27.1 80.78 0.166 8.63 3.68 9
6/29/2021 12:30:00 PM 27.31 81.158 0.166 8.66 3.54 8.93
6/29/2021 12:45:00 PM 27.62 81.716 0.166 8.71 3.87 8.96
6/29/2021 1:00:00 PM 27.86 82.148 0.166 8.74 3.67 8.87
6/29/2021 1:15:00 PM 27.93 82.274 0.166 8.73 3.83 8.66
6/29/2021 1:30:00 PM 28.18 82.724 0.166 8.74 3.9 8.7
6/29/2021 1:45:00 PM 28.49 83.282 0.165 8.79 3.67 8.74
6/29/2021 2:00:00 PM 28.79 83.82201 0.165 8.83 3.55 8.69
6/29/2021 2:15:00 PM 28.9 84.02 0.166 8.83 3.57 8.61
6/29/2021 2:30:00 PM 29 84.2 0.165 8.81 3.49 8.5
6/29/2021 2:45:00 PM 29.09 84.362 0.164 8.81 3.82 8.43
6/29/2021 3:00:00 PM 29.36 84.848 0.165 8.83 3.49 8.44
6/29/2021 3:15:00 PM 29.65 85.37 0.165 8.87 3.77 8.47
6/29/2021 3:30:00 PM 29.84 85.712 0.164 8.87 3.61 8.43
6/29/2021 3:45:00 PM 29.97 85.946 0.164 8.87 3.58 8.37
6/29/2021 4:00:00 PM 30.08 86.144 0.163 8.88 3.65 8.29
6/29/2021 4:15:00 PM 30.23 86.414 0.164 8.88 3.59 8.28
6/29/2021 4:30:00 PM 30.35 86.63 0.162 8.88 3.71 8.2
6/29/2021 4:45:00 PM 30.38 86.684 0.163 8.88 4.73 8.09
6/29/2021 5:00:00 PM 30.34 86.612 0.162 8.84 3.56 7.9
6/29/2021 5:15:00 PM 30.32 86.576 0.164 8.81 3.6 7.74
6/29/2021 5:30:00 PM 30.37 86.666 0.163 8.79 3.64 7.78
6/29/2021 5:45:00 PM 30.32 86.576 0.163 8.76 3.41 7.67
6/29/2021 6:00:00 PM 30.23 86.414 0.163 8.69 3.37 7.55
6/29/2021 6:15:00 PM 30.11 86.198 0.162 8.6 3.34 7.44
6/29/2021 6:30:00 PM 29.93 85.874 0.162 8.49 3.54 7.31
6/29/2021 6:45:00 PM 29.75 85.55 0.165 8.38 3.5 7.21
6/29/2021 7:00:00 PM 29.54 85.172 0.164 8.27 3.6 7.1
6/29/2021 7:15:00 PM 29.33 84.794 0.165 8.15 3.88 7.04
6/29/2021 7:30:00 PM 29.11 84.39799 0.165 8.04 3.69 6.96
6/29/2021 7:45:00 PM 28.91 84.038 0.165 7.98 3.95 6.89
6/29/2021 8:00:00 PM 28.71 83.67799 0.166 7.92 3.96 6.86
6/29/2021 8:15:00 PM 28.5 83.3 0.166 7.85 3.89 6.81
6/29/2021 8:30:00 PM 28.3 82.94 0.166 7.81 3.92 6.72
6/29/2021 8:45:00 PM 28.11 82.598 0.166 7.75 4.06 6.67
6/29/2021 9:00:00 PM 27.93 82.274 0.166 7.72 4.06 6.62
6/29/2021 9:15:00 PM 27.76 81.968 0.167 7.68 4.23 6.58
6/29/2021 9:30:00 PM 27.61 81.698 0.167 7.65 4.35 6.57
6/29/2021 9:45:00 PM 27.49 81.482 0.167 7.63 4.18 6.55
6/29/2021 10:00:00 PM 27.35 81.23 0.167 7.61 4.63 6.55
6/29/2021 10:15:00 PM 27.2 80.96 0.167 7.6 4.37 6.52
6/29/2021 10:30:00 PM 27.07 80.726 0.167 7.58 5.56 6.55
6/29/2021 10:45:00 PM 26.95 80.51 0.167 7.57 4.43 6.55
6/29/2021 11:00:00 PM 26.82 80.276 0.167 7.57 4.38 6.55
6/29/2021 11:15:00 PM 26.43 79.574 0.159 7.58 11.3 6.73
6/29/2021 11:30:00 PM 26.17 79.106 0.157 7.56 74.4 6.77
6/29/2021 11:45:00 PM 26.11 78.998 0.159 7.55 15.24 6.74
6/30/2021 12:00:00 AM 26.04 78.872 0.159 7.56 10.03 6.75
6/30/2021 12:15:00 AM 25.91 78.638 0.159 7.56 10.49 6.79
6/30/2021 12:30:00 AM 25.78 78.404 0.159 7.55 8.96 6.81
6/30/2021 12:45:00 AM 25.56 78.008 0.156 7.56 8.85 6.98
6/30/2021 1:00:00 AM 25.45 77.81 0.156 7.55 11.59 6.99
6/30/2021 1:15:00 AM 25.35 77.63 0.157 7.54 9.29 6.98
6/30/2021 1:30:00 AM 25.21 77.378 0.157 7.53 8.9 6.99
6/30/2021 1:45:00 AM 25.07 77.126 0.157 7.53 7.88 7
6/30/2021 2:00:00 AM 24.96 76.92799 0.157 7.53 7.61 7.02
6/30/2021 2:15:00 AM 24.87 76.766 0.158 7.52 8.23 7.02
6/30/2021 2:30:00 AM 24.79 76.622 0.158 7.52 6.76 7.03
6/30/2021 2:45:00 AM 24.7 76.46 0.158 7.51 7.03 7.05
6/30/2021 3:00:00 AM 24.61 76.298 0.159 7.52 6.9 7.06
6/30/2021 3:15:00 AM 24.52 76.136 0.16 7.51 6.84 7.08
6/30/2021 3:30:00 AM 24.43 75.974 0.161 7.52 6.44 7.09
6/30/2021 3:45:00 AM 24.34 75.812 0.162 7.52 6.99 7.11
6/30/2021 4:00:00 AM 24.25 75.65 0.162 7.52 6.47 7.13
6/30/2021 4:15:00 AM 24.17 75.506 0.162 7.52 6.21 7.15
6/30/2021 4:30:00 AM 24.1 75.38 0.162 7.52 6.07 7.16
6/30/2021 4:45:00 AM 24.04 75.272 0.162 7.52 6.76 7.18
6/30/2021 5:00:00 AM 23.98 75.164 0.161 7.52 7.12 7.17
6/30/2021 5:15:00 AM 23.91 75.038 0.161 7.52 6.26 7.18
6/30/2021 5:30:00 AM 23.85 74.93 0.161 7.53 6.11 7.19
6/30/2021 5:45:00 AM 23.78 74.804 0.161 7.53 5.95 7.21
6/30/2021 6:00:00 AM 23.73 74.714 0.161 7.53 5.83 7.23
6/30/2021 6:15:00 AM 23.68 74.624 0.161 7.53 5.65 7.26
6/30/2021 6:30:00 AM 23.63 74.534 0.161 7.54 5.46 7.3
6/30/2021 6:45:00 AM 23.6 74.48 0.161 7.55 5.4 7.4
6/30/2021 7:00:00 AM 23.55 74.39 0.161 7.56 5.12 7.44
6/30/2021 7:15:00 AM 23.51 74.318 0.161 7.58 5.49 7.51
6/30/2021 7:30:00 AM 23.47 74.246 0.161 7.59 5.4 7.5
6/30/2021 7:45:00 AM 23.47 74.246 0.161 7.62 4.88 7.72
6/30/2021 8:00:00 AM 23.46 74.228 0.161 7.63 4.94 7.81
6/30/2021 8:15:00 AM 23.51 74.318 0.161 7.68 4.89 7.91
6/30/2021 8:30:00 AM 23.64 74.552 0.161 7.71 5.04 8.11
6/30/2021 8:45:00 AM 23.77 74.786 0.161 7.76 4.56 8.2
6/30/2021 9:00:00 AM 23.89 75.002 0.161 7.8 4.93 8.27
6/30/2021 9:15:00 AM 24.09 75.362 0.161 7.84 4.48 8.32
6/30/2021 9:30:00 AM 24.34 75.812 0.16 7.89 4.54 8.39
6/30/2021 9:45:00 AM 24.56 76.208 0.16 7.93 4.74 8.46
6/30/2021 10:00:00 AM 24.79 76.622 0.16 7.97 4.48 8.49
6/30/2021 10:15:00 AM 25.03 77.054 0.16 8.01 4.21 8.51
6/30/2021 10:30:00 AM 25.31 77.558 0.16 8.07 4.66 8.63
6/30/2021 10:45:00 AM 25.61 78.098 0.16 8.12 4.54 8.68
6/30/2021 11:00:00 AM 25.9 78.62 0.16 8.19 4.65 8.7
6/30/2021 11:15:00 AM 26.16 79.088 0.16 8.24 4.89 8.72
6/30/2021 11:30:00 AM 26.44 79.592 0.16 8.29 4.4 8.74
6/30/2021 11:45:00 AM 26.72 80.096 0.16 8.33 4.46 8.76
6/30/2021 12:00:00 PM 26.99 80.582 0.16 8.39 4.73 8.73
6/30/2021 12:15:00 PM 27.26 81.068 0.16 8.43 4.46 8.72
6/30/2021 12:30:00 PM 27.51 81.518 0.161 8.47 4.84 8.67
6/30/2021 12:45:00 PM 27.76 81.968 0.16 8.51 4.63 8.69
6/30/2021 1:00:00 PM 28.05 82.49 0.16 8.55 4.6 8.67
6/30/2021 1:15:00 PM 28.33 82.994 0.161 8.6 4.51 8.55
6/30/2021 1:30:00 PM 28.58 83.444 0.161 8.63 4.82 8.57
6/30/2021 1:45:00 PM 28.86 83.948 0.161 8.67 4.52 8.54
6/30/2021 2:00:00 PM 29.14 84.452 0.161 8.69 4.85 8.54
6/30/2021 2:15:00 PM 29.4 84.92 0.161 8.72 4.63 8.49
6/30/2021 2:30:00 PM 29.65 85.37 0.161 8.74 4.61 8.43
6/30/2021 2:45:00 PM 29.87 85.76601 0.162 8.75 4.36 8.4
6/30/2021 3:00:00 PM 30 86 0.162 8.75 4.37 8.27
6/30/2021 3:15:00 PM 30.16 86.288 0.162 8.75 4.54 8.2
6/30/2021 3:30:00 PM 30.18 86.324 0.162 8.74 4.18 8.04
6/30/2021 3:45:00 PM 29.97 85.946 0.163 8.63 5.38 7.65
6/30/2021 4:00:00 PM 29.88 85.784 0.164 8.55 4.41 7.46
6/30/2021 4:15:00 PM 29.87 85.76601 0.164 8.51 4.36 7.5
6/30/2021 4:30:00 PM 29.97 85.946 0.164 8.51 4.39 7.68
6/30/2021 4:45:00 PM 29.91 85.838 0.165 8.48 4.31 7.72
6/30/2021 5:00:00 PM 29.6 85.28 0.165 8.37 5.27 7.53
6/30/2021 5:15:00 PM 29.31 84.758 0.166 8.29 4.19 7.46
6/30/2021 5:30:00 PM 29.13 84.434 0.166 8.24 4.26 7.45
6/30/2021 5:45:00 PM 28.97 84.146 0.166 8.19 4.37 7.41
6/30/2021 6:00:00 PM 28.79 83.82201 0.166 8.12 4.8 7.26
6/30/2021 6:15:00 PM 28.54 83.372 0.166 8.01 4.15 7.06
6/30/2021 6:30:00 PM 28.24 82.832 0.166 7.93 4.72 6.93
6/30/2021 6:45:00 PM 28.02 82.436 0.166 7.87 4.29 6.9
6/30/2021 7:00:00 PM 27.8 82.04 0.167 7.82 4.23 6.88
6/30/2021 7:15:00 PM 27.56 81.608 0.166 7.78 4.44 6.81
6/30/2021 7:30:00 PM 27.34 81.212 0.166 7.74 4.54 6.81
6/30/2021 7:45:00 PM 27.14 80.852 0.166 7.71 4.29 6.82
6/30/2021 8:00:00 PM 26.97 80.546 0.166 7.69 4.67 6.77
6/30/2021 8:15:00 PM 26.8 80.24 0.166 7.67 4.29 6.8
6/30/2021 8:30:00 PM 26.65 79.97 0.166 7.64 4.49 6.8
6/30/2021 8:45:00 PM 26.5 79.7 0.166 7.63 4.39 6.78
6/30/2021 9:00:00 PM 26.37 79.466 0.166 7.61 5.16 6.76
6/30/2021 9:15:00 PM 26.24 79.232 0.165 7.6 4.9 6.8
6/30/2021 9:30:00 PM 26.11 78.998 0.166 7.6 4.91 6.81
6/30/2021 9:45:00 PM 25.99 78.782 0.165 7.59 4.99 6.8
6/30/2021 10:00:00 PM 25.87 78.566 0.166 7.58 4.77 6.79
6/30/2021 10:15:00 PM 25.76 78.368 0.166 7.56 4.58 6.82
6/30/2021 10:30:00 PM 25.65 78.17 0.166 7.57 4.64 6.84
6/30/2021 10:45:00 PM 25.54 77.972 0.166 7.57 4.77 6.85
6/30/2021 11:00:00 PM 25.44 77.792 0.166 7.57 4.45 6.87
6/30/2021 11:15:00 PM 25.33 77.594 0.167 7.56 4.64 6.89
6/30/2021 11:30:00 PM 25.23 77.414 0.167 7.56 4.79 6.9
6/30/2021 11:45:00 PM 25.14 77.252 0.167 7.56 4.67 6.92
7/1/2021 12:00:00 AM 25.04 77.07201 0.167 7.56 4.78 6.94
7/1/2021 12:15:00 AM 24.95 76.91 0.167 7.56 4.81 6.96
7/1/2021 12:30:00 AM 24.86 76.748 0.168 7.56 5.15 6.98
7/1/2021 12:45:00 AM 24.77 76.586 0.168 7.56 4.82 6.98
7/1/2021 1:00:00 AM 24.68 76.424 0.168 7.55 4.66 7.02
7/1/2021 1:15:00 AM 24.6 76.28 0.168 7.55 4.5 7.04
7/1/2021 1:30:00 AM 24.52 76.136 0.168 7.55 4.69 7.05
7/1/2021 1:45:00 AM 24.44 75.992 0.168 7.56 4.71 7.07
7/1/2021 2:00:00 AM 24.36 75.848 0.168 7.56 5.32 7.1
7/1/2021 2:15:00 AM 24.28 75.704 0.168 7.56 4.85 7.11
7/1/2021 2:30:00 AM 24.21 75.578 0.168 7.56 5.35 7.12
7/1/2021 2:45:00 AM 24.13 75.434 0.169 7.54 5.01 7.13
7/1/2021 3:00:00 AM 24.06 75.308 0.169 7.56 7.01 7.15
7/1/2021 3:15:00 AM 23.99 75.182 0.169 7.56 5.19 7.17
7/1/2021 3:30:00 AM 23.92 75.056 0.169 7.56 5.04 7.2
7/1/2021 3:45:00 AM 23.85 74.93 0.169 7.56 4.83 7.19
7/1/2021 4:00:00 AM 23.79 74.82201 0.169 7.58 3.53 7.22
7/1/2021 4:15:00 AM 23.73 74.714 0.169 7.56 5.6 7.24
7/1/2021 4:30:00 AM 23.67 74.606 0.169 7.56 5.29 7.24
7/1/2021 4:45:00 AM 23.61 74.498 0.169 7.56 4.83 7.26
7/1/2021 5:00:00 AM 23.56 74.408 0.169 7.56 5.35 7.26
7/1/2021 5:15:00 AM 23.5 74.3 0.17 7.56 5.63 7.29
7/1/2021 5:30:00 AM 23.45 74.21 0.17 7.56 4.8 7.28
7/1/2021 5:45:00 AM 23.39 74.102 0.17 7.56 5 7.29
7/1/2021 6:00:00 AM 23.34 74.012 0.17 7.56 4.8 7.31
7/1/2021 6:15:00 AM 23.3 73.94 0.17 7.56 4.83 7.33
7/1/2021 6:30:00 AM 23.25 73.85 0.17 7.56 4.53 7.36
7/1/2021 6:45:00 AM 23.17 73.706 0.169 7.57 5.23 7.4
7/1/2021 7:00:00 AM 23.12 73.616 0.168 7.57 5.08 7.44
7/1/2021 7:15:00 AM 23.07 73.526 0.168 7.59 4.85 7.49
7/1/2021 7:30:00 AM 23.03 73.454 0.168 7.59 5.2 7.56
7/1/2021 7:45:00 AM 23 73.4 0.168 7.61 4.86 7.62
7/1/2021 8:00:00 AM 22.96 73.328 0.167 7.63 5.44 7.7
7/1/2021 8:15:00 AM 22.92 73.256 0.167 7.64 5.25 7.73
7/1/2021 8:30:00 AM 22.91 73.238 0.167 7.66 4.76 7.76
7/1/2021 8:45:00 AM 22.91 73.238 0.166 7.69 4.98 7.92
7/1/2021 9:00:00 AM 22.88 73.184 0.166 7.7 5.04 7.94
7/1/2021 9:15:00 AM 22.89 73.202 0.166 7.72 4.53 8.02
7/1/2021 9:30:00 AM 22.89 73.202 0.166 7.74 4.63 8.07
7/1/2021 9:45:00 AM 22.87 73.166 0.166 7.74 4.64 8.03
7/1/2021 10:00:00 AM 22.87 73.166 0.166 7.75 4.81 8.04
7/1/2021 10:15:00 AM 22.87 73.166 0.166 7.78 5.06 8.14
7/1/2021 10:30:00 AM 22.86 73.148 0.166 7.78 4.58 8.12
7/1/2021 10:45:00 AM 22.85 73.13 0.166 7.79 4.48 8.13
7/1/2021 11:00:00 AM 22.85 73.13 0.166 7.81 4.67 8.2
7/1/2021 11:15:00 AM 22.87 73.166 0.166 7.82 4.55 8.28
7/1/2021 11:30:00 AM 22.92 73.256 0.166 7.86 4.53 8.42
7/1/2021 11:45:00 AM 22.94 73.292 0.166 7.89 4.55 8.46
7/1/2021 12:00:00 PM 22.95 73.31 0.166 7.9 4.35 8.42
7/1/2021 12:15:00 PM 22.98 73.364 0.165 7.9 4.65 8.39
7/1/2021 12:30:00 PM 23.05 73.49 0.165 7.93 4.61 8.47
7/1/2021 12:45:00 PM 23.13 73.634 0.164 7.98 4.94 8.61
7/1/2021 1:00:00 PM 23.21 73.778 0.164 8.01 4.43 8.68
7/1/2021 1:15:00 PM 23.25 73.85 0.164 8.05 4.64 8.65
7/1/2021 1:30:00 PM 23.3 73.94 0.163 8.05 4.45 8.59
7/1/2021 1:45:00 PM 23.34 74.012 0.163 8.04 5.24 8.49
7/1/2021 2:00:00 PM 23.38 74.084 0.163 8.06 4.66 8.47
7/1/2021 2:15:00 PM 23.4 74.12 0.163 8.05 4.45 8.45
7/1/2021 2:30:00 PM 23.39 74.102 0.162 8.04 4.48 8.39
7/1/2021 2:45:00 PM 23.36 74.048 0.162 8.01 4.35 8.3
7/1/2021 3:00:00 PM 23.38 74.084 0.162 8.03 4.96 8.41
7/1/2021 3:15:00 PM 23.38 74.084 0.162 8.03 4.47 8.44
7/1/2021 3:30:00 PM 23.35 74.03 0.162 8.02 4.59 8.4
7/1/2021 3:45:00 PM 23.32 73.976 0.16 8 4.66 8.31
7/1/2021 4:00:00 PM 23.3 73.94 0.16 7.97 4.87 8.23
7/1/2021 4:15:00 PM 23.27 73.886 0.16 7.94 5.07 8.13
7/1/2021 4:30:00 PM 23.26 73.868 0.159 7.94 4.74 8.2
7/1/2021 4:45:00 PM 23.22 73.796 0.16 7.94 5.05 8.21
7/1/2021 5:00:00 PM 22.99 73.382 0.15 7.88 26.09 8.14
7/1/2021 5:15:00 PM 22.93 73.274 0.152 7.83 13.82 8.02
7/1/2021 5:30:00 PM 22.82 73.076 0.151 7.78 16.96 8
7/1/2021 5:45:00 PM 22.73 72.914 0.151 7.75 13.88 8
7/1/2021 6:00:00 PM 22.62 72.716 0.151 7.73 12.46 8.01
7/1/2021 6:15:00 PM 22.51 72.518 0.149 7.71 13.81 8.06
7/1/2021 6:30:00 PM 22.42 72.356 0.148 7.7 15.63 8.09
7/1/2021 6:45:00 PM 22.38 72.284 0.149 7.7 15.5 8.08
7/1/2021 7:00:00 PM 22.33 72.194 0.149 7.69 15.61 8.06
7/1/2021 7:15:00 PM 22.27 72.086 0.151 7.68 16.05 8.02
7/1/2021 7:30:00 PM 22.22 71.996 0.153 7.67 15.28 8
7/1/2021 7:45:00 PM 22.18 71.924 0.153 7.65 15.06 7.99
7/1/2021 8:00:00 PM 22.16 71.888 0.152 7.65 15.02 7.99
7/1/2021 8:15:00 PM 22.13 71.834 0.152 7.65 14.22 8
7/1/2021 8:30:00 PM 22.09 71.762 0.152 7.65 13.59 8.01
7/1/2021 8:45:00 PM 22.04 71.672 0.152 7.64 13.33 8.03
7/1/2021 9:00:00 PM 21.99 71.582 0.153 7.64 15.65 8.03
7/1/2021 9:15:00 PM 21.94 71.492 0.153 7.63 14.4 8.02
7/1/2021 9:30:00 PM 21.88 71.384 0.153 7.63 13.49 8
7/1/2021 9:45:00 PM 21.82 71.276 0.153 7.62 12.58 7.97
7/1/2021 10:00:00 PM 21.76 71.168 0.153 7.62 13.68 7.96
7/1/2021 10:15:00 PM 21.7 71.06 0.153 7.63 10.89 7.97
7/1/2021 10:30:00 PM 21.66 70.988 0.153 7.62 11.35 7.99
7/1/2021 10:45:00 PM 21.62 70.916 0.154 7.61 12.11 8
7/1/2021 11:00:00 PM 21.58 70.844 0.154 7.62 11.85 8.02
7/1/2021 11:15:00 PM 21.56 70.808 0.155 7.62 11.7 8.03
7/1/2021 11:30:00 PM 21.53 70.754 0.156 7.62 11.78 8.03
7/1/2021 11:45:00 PM 21.51 70.718 0.157 7.62 12.1 8.04
7/2/2021 12:00:00 AM 21.48 70.664 0.159 7.63 11.65 8.04
7/2/2021 12:15:00 AM 21.45 70.61 0.16 7.62 11.97 8.05
7/2/2021 12:30:00 AM 21.41 70.538 0.16 7.63 11.3 8.06
7/2/2021 12:45:00 AM 21.38 70.484 0.161 7.63 11.54 8.07
7/2/2021 1:00:00 AM 21.35 70.43 0.161 7.63 11.41 8.08
7/2/2021 1:15:00 AM 21.31 70.358 0.16 7.63 12.19 8.09
7/2/2021 1:30:00 AM 21.28 70.304 0.16 7.64 10.87 8.1
7/2/2021 1:45:00 AM 21.25 70.25 0.159 7.64 12.98 8.1
7/2/2021 2:00:00 AM 21.22 70.196 0.159 7.63 10.74 8.11
7/2/2021 2:15:00 AM 21.19 70.142 0.159 7.64 11.69 8.11
7/2/2021 2:30:00 AM 21.16 70.088 0.159 7.64 10.18 8.11
7/2/2021 2:45:00 AM 21.12 70.016 0.159 7.64 11.03 8.12
7/2/2021 3:00:00 AM 21.09 69.962 0.159 7.64 10.18 8.13
7/2/2021 3:15:00 AM 21.06 69.908 0.159 7.64 11.07 8.14
7/2/2021 3:30:00 AM 21.03 69.854 0.16 7.63 10.84 8.15
7/2/2021 3:45:00 AM 21 69.8 0.16 7.65 10.41 8.16
7/2/2021 4:00:00 AM 20.98 69.764 0.161 7.65 11 8.16
7/2/2021 4:15:00 AM 20.95 69.71 0.161 7.64 11.72 8.16
7/2/2021 4:30:00 AM 20.93 69.674 0.162 7.65 10.35 8.17
7/2/2021 4:45:00 AM 20.89 69.602 0.163 7.65 10.77 8.17
7/2/2021 5:00:00 AM 20.86 69.548 0.163 7.65 10.98 8.18
7/2/2021 5:15:00 AM 20.82 69.476 0.164 7.65 10.48 8.18
7/2/2021 5:30:00 AM 20.79 69.422 0.164 7.65 11.03 8.19
7/2/2021 5:45:00 AM 20.76 69.368 0.164 7.66 11.05 8.19
7/2/2021 6:00:00 AM 20.73 69.314 0.164 7.66 11.47 8.21
7/2/2021 6:15:00 AM 20.7 69.26 0.164 7.67 10.77 8.22
7/2/2021 6:30:00 AM 20.68 69.224 0.163 7.67 11.08 8.24
7/2/2021 6:45:00 AM 20.65 69.17 0.163 7.69 12 8.27
7/2/2021 7:00:00 AM 20.63 69.134 0.163 7.69 11.82 8.3
7/2/2021 7:15:00 AM 20.61 69.098 0.162 7.7 12.28 8.33
7/2/2021 7:30:00 AM 20.61 69.098 0.162 7.72 11.99 8.37
7/2/2021 7:45:00 AM 20.61 69.098 0.162 7.73 13.25 8.39
7/2/2021 8:00:00 AM 20.62 69.116 0.161 7.74 11.86 8.42
7/2/2021 8:15:00 AM 20.63 69.134 0.161 7.75 11.76 8.45
7/2/2021 8:30:00 AM 20.63 69.134 0.161 7.76 11.76 8.46
7/2/2021 8:45:00 AM 20.65 69.17 0.161 7.78 12.01 8.5
7/2/2021 9:00:00 AM 20.64 69.152 0.161 7.79 12.69 8.5
7/2/2021 9:15:00 AM 20.64 69.152 0.16 7.79 13.79 8.5
7/2/2021 9:30:00 AM 20.64 69.152 0.161 7.8 13.5 8.51
7/2/2021 9:45:00 AM 20.65 69.17 0.161 7.81 12.85 8.52
7/2/2021 10:00:00 AM 20.67 69.206 0.161 7.82 15.01 8.52
7/2/2021 10:15:00 AM 20.68 69.224 0.161 7.83 14.07 8.52
7/2/2021 10:30:00 AM 20.73 69.314 0.162 7.84 18.38 8.56
7/2/2021 10:45:00 AM 20.78 69.404 0.163 7.85 16.38 8.59
7/2/2021 11:00:00 AM 20.85 69.53 0.163 7.86 26.66 8.6
7/2/2021 11:15:00 AM 20.92 69.656 0.164 7.88 16.75 8.61
7/2/2021 11:30:00 AM 20.96 69.728 0.164 7.9 16.27 8.63
7/2/2021 11:45:00 AM 20.97 69.746 0.164 7.89 14.87 8.6
7/2/2021 12:00:00 PM 21 69.8 0.164 7.89 17.22 8.62
7/2/2021 12:15:00 PM 21.06 69.908 0.163 7.91 14.87 8.63
7/2/2021 12:30:00 PM 21.16 70.088 0.164 7.92 15.09 8.67
7/2/2021 12:45:00 PM 21.21 70.17799 0.164 7.93 15.31 8.64
7/2/2021 1:00:00 PM 21.3 70.34 0.164 7.95 14.8 8.67
7/2/2021 1:15:00 PM 21.4 70.52 0.165 7.95 15.35 8.67
7/2/2021 1:30:00 PM 21.59 70.862 0.165 7.99 13.91 8.7
7/2/2021 1:45:00 PM 21.67 71.006 0.165 8 13.75 8.67
7/2/2021 2:00:00 PM 21.91 71.438 0.165 8.02 14.63 8.68
7/2/2021 2:15:00 PM 22.09 71.762 0.165 8.04 12.33 8.65
7/2/2021 2:30:00 PM 22.31 72.158 0.165 8.06 13.36 8.64
7/2/2021 2:45:00 PM 22.39 72.302 0.164 8.06 13.53 8.6
7/2/2021 3:00:00 PM 22.52 72.536 0.163 8.07 13.4 8.6
7/2/2021 3:15:00 PM 22.64 72.752 0.163 8.07 12.65 8.57
7/2/2021 3:30:00 PM 22.74 72.932 0.162 8.09 12.15 8.54
7/2/2021 3:45:00 PM 22.92 73.256 0.161 8.09 12.97 8.5
7/2/2021 4:00:00 PM 23.11 73.598 0.161 8.11 13.15 8.5
7/2/2021 4:15:00 PM 23.17 73.706 0.16 8.1 12.18 8.44
7/2/2021 4:30:00 PM 23.14 73.652 0.16 8.09 11.91 8.41
7/2/2021 4:45:00 PM 23.08 73.544 0.159 8.05 11.04 8.35
7/2/2021 5:00:00 PM 23.1 73.58 0.159 8.04 12.42 8.38
7/2/2021 5:15:00 PM 23.06 73.508 0.159 8.03 11.47 8.33
7/2/2021 5:30:00 PM 22.99 73.382 0.159 8 11.14 8.29
7/2/2021 5:45:00 PM 22.94 73.292 0.16 7.98 11.16 8.27
7/2/2021 6:00:00 PM 22.92 73.256 0.16 7.96 11.37 8.27
7/2/2021 6:15:00 PM 22.88 73.184 0.161 7.94 11.36 8.22
7/2/2021 6:30:00 PM 22.83 73.094 0.162 7.92 10.65 8.21
7/2/2021 6:45:00 PM 22.77 72.986 0.163 7.9 10.56 8.19
7/2/2021 7:00:00 PM 22.65 72.77 0.163 7.88 10.31 8.17
7/2/2021 7:15:00 PM 22.55 72.59 0.164 7.85 9.94 8.14
7/2/2021 7:30:00 PM 22.43 72.374 0.164 7.82 10.05 8.13
7/2/2021 7:45:00 PM 22.33 72.194 0.165 7.81 9.75 8.11
7/2/2021 8:00:00 PM 22.23 72.014 0.165 7.79 9.74 8.1
7/2/2021 8:15:00 PM 22.16 71.888 0.165 7.77 9.62 8.09
7/2/2021 8:30:00 PM 22.09 71.762 0.165 7.76 9.77 8.08
7/2/2021 8:45:00 PM 22.01 71.618 0.165 7.75 9.69 8.06
7/2/2021 9:00:00 PM 21.92 71.456 0.165 7.73 9.65 8.06
7/2/2021 9:15:00 PM 21.83 71.294 0.165 7.72 10.13 8.06
7/2/2021 9:30:00 PM 21.74 71.132 0.164 7.71 10.25 8.07
7/2/2021 9:45:00 PM 21.65 70.97 0.164 7.71 9.86 8.08
7/2/2021 10:00:00 PM 21.58 70.844 0.164 7.69 9.7 8.08
7/2/2021 10:15:00 PM 21.52 70.736 0.163 7.7 9.81 8.1
7/2/2021 10:30:00 PM 21.46 70.628 0.163 7.7 9.75 8.11
7/2/2021 10:45:00 PM 21.41 70.538 0.162 7.69 9.19 8.11
7/2/2021 11:00:00 PM 21.34 70.412 0.162 7.69 9.37 8.12
7/2/2021 11:15:00 PM 21.26 70.268 0.161 7.7 10.38 8.13
7/2/2021 11:30:00 PM 21.18 70.124 0.161 7.69 9.94 8.15
7/2/2021 11:45:00 PM 21.09 69.962 0.16 7.69 10.01 8.16
7/3/2021 12:00:00 AM 21.02 69.836 0.16 7.69 9.55 8.17
7/3/2021 12:15:00 AM 20.94 69.692 0.159 7.69 9.02 8.19
7/3/2021 12:30:00 AM 20.87 69.566 0.159 7.69 9.08 8.2
7/3/2021 12:45:00 AM 20.8 69.44 0.159 7.69 8.64 8.2
7/3/2021 1:00:00 AM 20.74 69.332 0.158 7.68 8.69 8.22
7/3/2021 1:15:00 AM 20.68 69.224 0.158 7.67 8.4 8.23
7/3/2021 1:30:00 AM 20.62 69.116 0.158 7.67 8.65 8.24
7/3/2021 1:45:00 AM 20.56 69.008 0.158 7.65 8.41 8.25
7/3/2021 2:00:00 AM 20.51 68.918 0.158 7.66 8.03 8.26
7/3/2021 2:15:00 AM 20.45 68.81 0.159 7.66 8.33 8.26
7/3/2021 2:30:00 AM 20.4 68.72 0.159 7.65 8.36 8.28
7/3/2021 2:45:00 AM 20.35 68.63 0.159 7.66 8.27 8.29
7/3/2021 3:00:00 AM 20.31 68.558 0.159 7.65 7.71 8.3
7/3/2021 3:15:00 AM 20.26 68.468 0.159 7.65 8.1 8.31
7/3/2021 3:30:00 AM 20.2 68.36 0.159 7.66 7.89 8.32
7/3/2021 3:45:00 AM 20.15 68.27 0.16 7.65 8.2 8.32
7/3/2021 4:00:00 AM 20.1 68.18 0.16 7.66 7.86 8.34
7/3/2021 4:15:00 AM 20.06 68.108 0.16 7.65 8.16 8.34
7/3/2021 4:30:00 AM 20.02 68.036 0.16 7.65 7.74 8.35
7/3/2021 4:45:00 AM 19.98 67.964 0.16 7.65 8.26 8.35
7/3/2021 5:00:00 AM 19.93 67.874 0.161 7.66 8.71 8.36
7/3/2021 5:15:00 AM 19.89 67.802 0.161 7.66 7.97 8.37
7/3/2021 5:30:00 AM 19.86 67.748 0.161 7.65 7.9 8.37
7/3/2021 5:45:00 AM 19.83 67.694 0.161 7.65 7.91 8.37
7/3/2021 6:00:00 AM 19.8 67.64 0.161 7.65 8.42 8.38
7/3/2021 6:15:00 AM 19.77 67.586 0.161 7.65 7.25 8.4
7/3/2021 6:30:00 AM 19.74 67.532 0.161 7.65 7.7 8.41
7/3/2021 6:45:00 AM 19.71 67.478 0.161 7.66 8.22 8.42
7/3/2021 7:00:00 AM 19.69 67.442 0.161 7.67 7.62 8.43
7/3/2021 7:15:00 AM 19.66 67.388 0.16 7.67 7.52 8.45
7/3/2021 7:30:00 AM 19.65 67.37 0.16 7.68 7.21 8.51
7/3/2021 7:45:00 AM 19.66 67.388 0.16 7.7 7.3 8.59
7/3/2021 8:00:00 AM 19.67 67.406 0.16 7.72 6.68 8.62
7/3/2021 8:15:00 AM 19.69 67.442 0.16 7.74 6.5 8.63
7/3/2021 8:30:00 AM 19.71 67.478 0.159 7.77 6.55 8.69
7/3/2021 8:45:00 AM 19.78 67.604 0.159 7.79 6.75 8.78
7/3/2021 9:00:00 AM 19.86 67.748 0.159 7.81 6.38 8.85
7/3/2021 9:15:00 AM 19.91 67.838 0.158 7.83 7.37 8.78
7/3/2021 9:30:00 AM 19.91 67.838 0.157 7.85 7.06 8.77
7/3/2021 9:45:00 AM 19.98 67.964 0.155 7.87 7.75 8.89
7/3/2021 10:00:00 AM 20.08 68.144 0.154 7.9 7.25 8.94
7/3/2021 10:15:00 AM 20.05 68.09 0.152 7.9 7.64 8.87
7/3/2021 10:30:00 AM 20 68 0.151 7.89 7.59 8.86
7/3/2021 10:45:00 AM 19.92 67.856 0.15 7.88 7.74 8.84
7/3/2021 11:00:00 AM 19.89 67.802 0.149 7.88 7.61 8.87
7/3/2021 11:15:00 AM 19.92 67.856 0.149 7.91 7.7 8.94
7/3/2021 11:30:00 AM 20.06 68.108 0.149 7.93 7.66 9.01
7/3/2021 11:45:00 AM 20.09 68.162 0.149 7.93 7.46 8.94
7/3/2021 12:00:00 PM 20.27 68.486 0.15 7.97 7.09 9
7/3/2021 12:15:00 PM 20.3 68.54 0.151 7.99 7.75 8.99
7/3/2021 12:30:00 PM 20.35 68.63 0.152 7.99 8.14 8.89
7/3/2021 12:45:00 PM 20.41 68.738 0.152 8.01 7.76 8.92
7/3/2021 1:00:00 PM 20.48 68.864 0.152 8.04 7.9 8.94
7/3/2021 1:15:00 PM 20.52 68.936 0.152 8.04 7.69 8.92
7/3/2021 1:30:00 PM 20.54 68.972 0.152 8.06 8.2 8.94
7/3/2021 1:45:00 PM 20.56 69.008 0.152 8.07 7.01 8.95
7/3/2021 2:00:00 PM 20.7 69.26 0.152 8.1 7 8.99
7/3/2021 2:15:00 PM 20.81 69.458 0.152 8.12 7.09 8.98
7/3/2021 2:30:00 PM 21.1 69.98 0.152 8.16 6.77 9
7/3/2021 2:45:00 PM 21.37 70.466 0.151 8.17 6.43 8.99
7/3/2021 3:00:00 PM 21.44 70.592 0.151 8.18 6.56 8.89
7/3/2021 3:15:00 PM 21.39 70.502 0.15 8.12 6.53 8.75
7/3/2021 3:30:00 PM 21.34 70.412 0.15 8.11 6.83 8.78
7/3/2021 3:45:00 PM 21.27 70.286 0.15 8.09 6.6 8.75
7/3/2021 4:00:00 PM 21.31 70.358 0.149 8.1 6.34 8.8
7/3/2021 4:15:00 PM 21.31 70.358 0.149 8.1 6.24 8.81
7/3/2021 4:30:00 PM 21.35 70.43 0.149 8.11 6.16 8.82
7/3/2021 4:45:00 PM 21.36 70.448 0.148 8.11 6.47 8.79
7/3/2021 5:00:00 PM 21.35 70.43 0.149 8.09 6.29 8.77
7/3/2021 5:15:00 PM 21.39 70.502 0.149 8.09 6.28 8.76
7/3/2021 5:30:00 PM 21.37 70.466 0.149 8.06 6.56 8.68
7/3/2021 5:45:00 PM 21.37 70.466 0.149 8.05 6.47 8.7
7/3/2021 6:00:00 PM 21.3 70.34 0.148 8.02 6.5 8.66
7/3/2021 6:15:00 PM 21.25 70.25 0.148 8.01 6.56 8.65
7/3/2021 6:30:00 PM 21.16 70.088 0.148 7.97 6.53 8.6
7/3/2021 6:45:00 PM 21.08 69.944 0.147 7.94 6.45 8.58
7/3/2021 7:00:00 PM 20.99 69.782 0.147 7.92 6.8 8.57
7/3/2021 7:15:00 PM 20.89 69.602 0.146 7.9 8.31 8.55
7/3/2021 7:30:00 PM 20.8 69.44 0.146 7.87 8.29 8.52
7/3/2021 7:45:00 PM 20.72 69.296 0.145 7.85 7.42 8.5
7/3/2021 8:00:00 PM 20.66 69.188 0.145 7.82 8.48 8.47
7/3/2021 8:15:00 PM 20.61 69.098 0.145 7.8 8.19 8.45
7/3/2021 8:30:00 PM 20.57 69.026 0.145 7.77 8.76 8.42
7/3/2021 8:45:00 PM 20.52 68.936 0.145 7.75 8.83 8.4
7/3/2021 9:00:00 PM 20.47 68.846 0.145 7.74 8.46 8.38
7/3/2021 9:15:00 PM 20.41 68.738 0.145 7.72 8.8 8.37
7/3/2021 9:30:00 PM 20.35 68.63 0.144 7.71 9.53 8.36
7/3/2021 9:45:00 PM 20.29 68.522 0.144 7.69 9.5 8.36
7/3/2021 10:00:00 PM 20.23 68.414 0.144 7.68 9.44 8.37
7/3/2021 10:15:00 PM 20.17 68.306 0.144 7.67 8.89 8.37
7/3/2021 10:30:00 PM 20.1 68.18 0.144 7.66 9.08 8.38
7/3/2021 10:45:00 PM 20.04 68.07201 0.144 7.66 8.73 8.39
7/3/2021 11:00:00 PM 19.96 67.92799 0.144 7.65 8.82 8.4
7/3/2021 11:15:00 PM 19.89 67.802 0.144 7.65 8.79 8.41
7/3/2021 11:30:00 PM 19.82 67.676 0.145 7.64 9.72 8.43
7/3/2021 11:45:00 PM 19.75 67.55 0.145 7.64 9.27 8.44
7/4/2021 12:00:00 AM 19.68 67.424 0.146 7.63 9.51 8.45
7/4/2021 12:15:00 AM 19.62 67.316 0.147 7.64 10.34 8.46
7/4/2021 12:30:00 AM 19.55 67.19 0.147 7.63 9.28 8.48
7/4/2021 12:45:00 AM 19.48 67.064 0.148 7.62 8.99 8.49
7/4/2021 1:00:00 AM 19.41 66.938 0.149 7.62 9.45 8.5
7/4/2021 1:15:00 AM 19.36 66.848 0.15 7.63 9.13 8.51
7/4/2021 1:30:00 AM 19.32 66.776 0.15 7.62 9.92 8.51
7/4/2021 1:45:00 AM 19.27 66.686 0.151 7.62 10.43 8.53
7/4/2021 2:00:00 AM 19.23 66.614 0.151 7.61 9.67 8.54
7/4/2021 2:15:00 AM 19.18 66.524 0.152 7.62 9.05 8.54
7/4/2021 2:30:00 AM 19.13 66.434 0.152 7.62 9.33 8.55
7/4/2021 2:45:00 AM 19.09 66.362 0.152 7.62 9.43 8.56
7/4/2021 3:00:00 AM 19.04 66.272 0.153 7.61 9.13 8.56
7/4/2021 3:15:00 AM 19 66.2 0.153 7.61 8.95 8.57
7/4/2021 3:30:00 AM 18.96 66.128 0.153 7.61 8.66 8.58
7/4/2021 3:45:00 AM 18.91 66.038 0.153 7.61 11.26 8.58
7/4/2021 4:00:00 AM 18.87 65.966 0.154 7.6 8.87 8.59
7/4/2021 4:15:00 AM 18.84 65.912 0.154 7.61 9.33 8.59
7/4/2021 4:30:00 AM 18.8 65.84 0.155 7.61 9.28 8.6
7/4/2021 4:45:00 AM 18.76 65.768 0.155 7.61 9.14 8.6
7/4/2021 5:00:00 AM 18.72 65.696 0.156 7.61 9.21 8.61
7/4/2021 5:15:00 AM 18.68 65.624 0.156 7.61 8.35 8.62
7/4/2021 5:30:00 AM 18.65 65.57 0.156 7.62 8.97 8.62
7/4/2021 5:45:00 AM 18.62 65.516 0.157 7.62 8.51 8.63
7/4/2021 6:00:00 AM 18.59 65.462 0.157 7.62 8.55 8.63
7/4/2021 6:15:00 AM 18.56 65.408 0.157 7.62 8.07 8.65
7/4/2021 6:30:00 AM 18.54 65.372 0.157 7.63 8.15 8.67
7/4/2021 6:45:00 AM 18.51 65.318 0.157 7.63 8.01 8.69
7/4/2021 7:00:00 AM 18.48 65.264 0.157 7.64 7.69 8.72
7/4/2021 7:15:00 AM 18.47 65.246 0.157 7.65 7.38 8.79
7/4/2021 7:30:00 AM 18.48 65.264 0.157 7.67 7.43 8.85
7/4/2021 7:45:00 AM 18.52 65.336 0.157 7.7 7.35 8.92
7/4/2021 8:00:00 AM 18.54 65.372 0.157 7.73 7.23 8.98
7/4/2021 8:15:00 AM 18.62 65.516 0.157 7.75 7.43 9.02
7/4/2021 8:30:00 AM 18.68 65.624 0.157 7.78 6.94 9.05
7/4/2021 8:45:00 AM 18.77 65.786 0.157 7.8 6.72 9.09
7/4/2021 9:00:00 AM 18.9 66.02 0.157 7.82 7.58 9.1
7/4/2021 9:15:00 AM 19.03 66.254 0.157 7.85 6.9 9.14
7/4/2021 9:30:00 AM 19.11 66.398 0.157 7.87 7.57 9.12
7/4/2021 9:45:00 AM 19.25 66.65 0.157 7.9 6.67 9.16
7/4/2021 10:00:00 AM 19.38 66.884 0.157 7.93 6.59 9.21
7/4/2021 10:15:00 AM 19.51 67.118 0.157 7.96 6.78 9.2
7/4/2021 10:30:00 AM 19.69 67.442 0.157 7.98 6.78 9.24
7/4/2021 10:45:00 AM 19.77 67.586 0.157 8.01 6.89 9.22
7/4/2021 11:00:00 AM 19.89 67.802 0.157 8.03 6.38 9.21
7/4/2021 11:15:00 AM 20.02 68.036 0.157 8.06 6.84 9.19
7/4/2021 11:30:00 AM 20.21 68.378 0.157 8.09 6.46 9.2
7/4/2021 11:45:00 AM 20.29 68.522 0.157 8.09 6.77 9.11
7/4/2021 12:00:00 PM 20.51 68.918 0.157 8.1 6.38 9.09
7/4/2021 12:15:00 PM 20.5 68.9 0.157 8.06 6.26 8.95
7/4/2021 12:30:00 PM 20.66 69.188 0.157 8.08 6.28 9.04
7/4/2021 12:45:00 PM 20.94 69.692 0.157 8.13 6.12 9.08
7/4/2021 1:00:00 PM 20.99 69.782 0.157 8.12 6.47 8.94
7/4/2021 1:15:00 PM 21.37 70.466 0.156 8.16 6.21 9
7/4/2021 1:30:00 PM 21.35 70.43 0.156 8.14 6.27 8.88
7/4/2021 1:45:00 PM 21.66 70.988 0.156 8.18 6.46 8.99
7/4/2021 2:00:00 PM 21.8 71.24 0.156 8.2 5.94 8.93
7/4/2021 2:15:00 PM 21.89 71.402 0.156 8.2 6.5 8.82
7/4/2021 2:30:00 PM 22.01 71.618 0.156 8.2 6.25 8.78
7/4/2021 2:45:00 PM 22.36 72.248 0.156 8.25 6.12 8.88
7/4/2021 3:00:00 PM 22.66 72.788 0.156 8.3 6.36 8.87
7/4/2021 3:15:00 PM 22.89 73.202 0.156 8.33 6.11 8.77
7/4/2021 3:30:00 PM 23.11 73.598 0.156 8.34 6.1 8.73
7/4/2021 3:45:00 PM 23.25 73.85 0.156 8.37 6.26 8.72
7/4/2021 4:00:00 PM 23.4 74.12 0.156 8.38 5.88 8.7
7/4/2021 4:15:00 PM 23.5 74.3 0.155 8.39 6.34 8.68
7/4/2021 4:30:00 PM 23.6 74.48 0.155 8.38 5.98 8.65
7/4/2021 4:45:00 PM 23.6 74.48 0.155 8.38 6.02 8.61
7/4/2021 5:00:00 PM 23.57 74.426 0.155 8.35 6.24 8.57
7/4/2021 5:15:00 PM 23.51 74.318 0.155 8.31 5.97 8.5
7/4/2021 5:30:00 PM 23.45 74.21 0.155 8.27 6.17 8.47
7/4/2021 5:45:00 PM 23.33 73.994 0.155 8.22 6.08 8.43
7/4/2021 6:00:00 PM 23.2 73.76 0.155 8.15 6.61 8.37
7/4/2021 6:15:00 PM 23.08 73.544 0.155 8.09 6.06 8.33
7/4/2021 6:30:00 PM 22.96 73.328 0.155 8.04 6.29 8.28
7/4/2021 6:45:00 PM 22.83 73.094 0.155 7.98 6.38 8.24
7/4/2021 7:00:00 PM 22.71 72.878 0.155 7.94 6.07 8.2
7/4/2021 7:15:00 PM 22.58 72.644 0.155 7.9 6.2 8.16
7/4/2021 7:30:00 PM 22.46 72.42799 0.155 7.86 6.23 8.14
7/4/2021 7:45:00 PM 22.33 72.194 0.155 7.83 6.13 8.13
7/4/2021 8:00:00 PM 22.2 71.96 0.155 7.81 6.39 8.12
7/4/2021 8:15:00 PM 22.07 71.726 0.156 7.78 6.37 8.11
7/4/2021 8:30:00 PM 21.94 71.492 0.155 7.76 6.39 8.11
7/4/2021 8:45:00 PM 21.81 71.258 0.156 7.74 6.35 8.1
7/4/2021 9:00:00 PM 21.7 71.06 0.155 7.71 6.34 8.1
7/4/2021 9:15:00 PM 21.58 70.844 0.155 7.7 6.44 8.09
7/4/2021 9:30:00 PM 21.48 70.664 0.155 7.69 6.89 8.09
7/4/2021 9:45:00 PM 21.38 70.484 0.155 7.68 7.19 8.11
7/4/2021 10:00:00 PM 21.28 70.304 0.155 7.67 6.74 8.11
7/4/2021 10:15:00 PM 21.18 70.124 0.155 7.66 6.68 8.13
7/4/2021 10:30:00 PM 21.09 69.962 0.155 7.66 6.22 8.14
7/4/2021 10:45:00 PM 21 69.8 0.155 7.65 6.38 8.16
7/4/2021 11:00:00 PM 20.91 69.638 0.155 7.65 6.42 8.18
7/4/2021 11:15:00 PM 20.82 69.476 0.155 7.64 6.47 8.19
7/4/2021 11:30:00 PM 20.73 69.314 0.155 7.64 6.25 8.21
7/4/2021 11:45:00 PM 20.64 69.152 0.155 7.64 6.34 8.23
7/5/2021 12:00:00 AM 20.56 69.008 0.155 7.63 6.69 8.25
7/5/2021 12:15:00 AM 20.48 68.864 0.155 7.63 6.61 8.25
7/5/2021 12:30:00 AM 20.39 68.702 0.155 7.63 6.89 8.28
7/5/2021 12:45:00 AM 20.32 68.576 0.155 7.63 6.39 8.29
7/5/2021 1:00:00 AM 20.23 68.414 0.155 7.62 6.56 8.31
7/5/2021 1:15:00 AM 20.15 68.27 0.155 7.62 6.34 8.32
7/5/2021 1:30:00 AM 20.07 68.126 0.155 7.62 6.34 8.34
7/5/2021 1:45:00 AM 19.99 67.982 0.155 7.62 6.44 8.35
7/5/2021 2:00:00 AM 19.91 67.838 0.155 7.61 6.3 8.37
7/5/2021 2:15:00 AM 19.83 67.694 0.155 7.61 6.6 8.38
7/5/2021 2:30:00 AM 19.75 67.55 0.155 7.6 6.55 8.4
7/5/2021 2:45:00 AM 19.67 67.406 0.155 7.6 6.49 8.42
7/5/2021 3:00:00 AM 19.59 67.262 0.155 7.6 6.38 8.44
7/5/2021 3:15:00 AM 19.51 67.118 0.155 7.6 6.5 8.45
7/5/2021 3:30:00 AM 19.43 66.974 0.155 7.6 6.35 8.46
7/5/2021 3:45:00 AM 19.36 66.848 0.155 7.6 6.19 8.48
7/5/2021 4:00:00 AM 19.28 66.704 0.155 7.59 6.34 8.49
7/5/2021 4:15:00 AM 19.21 66.578 0.155 7.59 6.46 8.51
7/5/2021 4:30:00 AM 19.12 66.416 0.155 7.59 6.45 8.52
7/5/2021 4:45:00 AM 19.04 66.272 0.155 7.59 6.3 8.53
7/5/2021 5:00:00 AM 18.95 66.11 0.156 7.59 6.38 8.56
7/5/2021 5:15:00 AM 18.87 65.966 0.156 7.59 6.57 8.57
7/5/2021 5:30:00 AM 18.79 65.82201 0.156 7.58 6.27 8.58
7/5/2021 5:45:00 AM 18.71 65.67799 0.156 7.59 6.36 8.61
7/5/2021 6:00:00 AM 18.63 65.534 0.156 7.58 6.13 8.63
7/5/2021 6:15:00 AM 18.56 65.408 0.156 7.59 6.39 8.67
7/5/2021 6:30:00 AM 18.5 65.3 0.156 7.59 5.94 8.71
7/5/2021 6:45:00 AM 18.45 65.21 0.156 7.61 5.94 8.73
7/5/2021 7:00:00 AM 18.41 65.138 0.156 7.62 5.96 8.81
7/5/2021 7:15:00 AM 18.4 65.12 0.156 7.64 5.74 8.87
7/5/2021 7:30:00 AM 18.39 65.102 0.156 7.66 5.54 8.96
7/5/2021 7:45:00 AM 18.41 65.138 0.156 7.69 5.54 9.04
7/5/2021 8:00:00 AM 18.45 65.21 0.156 7.72 5.43 9.11
7/5/2021 8:15:00 AM 18.53 65.354 0.156 7.75 5.51 9.17
7/5/2021 8:30:00 AM 18.62 65.516 0.156 7.78 5.38 9.24
7/5/2021 8:45:00 AM 18.74 65.732 0.156 7.82 5.58 9.28
7/5/2021 9:00:00 AM 18.86 65.948 0.156 7.86 5.55 9.33
7/5/2021 9:15:00 AM 19 66.2 0.156 7.89 5.43 9.35
7/5/2021 9:30:00 AM 19.16 66.488 0.156 7.92 5.41 9.38
7/5/2021 9:45:00 AM 19.33 66.794 0.156 7.97 5.3 9.41
7/5/2021 10:00:00 AM 19.5 67.1 0.156 8.01 5.43 9.43
7/5/2021 10:15:00 AM 19.68 67.424 0.155 8.06 5.24 9.45
7/5/2021 10:30:00 AM 19.88 67.784 0.155 8.09 5.13 9.45
7/5/2021 10:45:00 AM 20.11 68.198 0.155 8.15 5.21 9.46
7/5/2021 11:00:00 AM 20.36 68.648 0.155 8.19 5.07 9.48
7/5/2021 11:15:00 AM 20.61 69.098 0.155 8.24 5.21 9.48
7/5/2021 11:30:00 AM 20.89 69.602 0.155 8.29 5.08 9.47
7/5/2021 11:45:00 AM 21.19 70.142 0.155 8.35 5.13 9.45
7/5/2021 12:00:00 PM 21.49 70.682 0.154 8.39 5.08 9.42
7/5/2021 12:15:00 PM 21.81 71.258 0.154 8.44 5.06 9.39
7/5/2021 12:30:00 PM 22.11 71.798 0.154 8.48 5.17 9.32
7/5/2021 12:45:00 PM 22.45 72.41 0.154 8.53 5.03 9.3
7/5/2021 1:00:00 PM 22.64 72.752 0.154 8.55 4.79 9.2
7/5/2021 1:15:00 PM 22.83 73.094 0.154 8.56 5.22 9.1
7/5/2021 1:30:00 PM 23.08 73.544 0.154 8.59 5.03 9.09
7/5/2021 1:45:00 PM 23.18 73.724 0.153 8.6 4.99 9
7/5/2021 2:00:00 PM 23.32 73.976 0.153 8.61 5.01 8.98
7/5/2021 2:15:00 PM 23.43 74.174 0.153 8.62 4.84 8.95
7/5/2021 2:30:00 PM 23.6 74.48 0.153 8.65 4.82 8.96
7/5/2021 2:45:00 PM 23.72 74.696 0.153 8.69 3.81 8.95
7/5/2021 3:00:00 PM 23.91 75.038 0.153 8.7 5.25 8.94
7/5/2021 3:15:00 PM 24.1 75.38 0.152 8.72 4.79 8.91
7/5/2021 3:30:00 PM 24.26 75.668 0.152 8.75 4.9 8.88
7/5/2021 3:45:00 PM 24.43 75.974 0.152 8.77 4.61 8.84
7/5/2021 4:00:00 PM 24.58 76.244 0.152 8.79 4.62 8.79
7/5/2021 4:15:00 PM 24.72 76.496 0.152 8.8 4.72 8.75
7/5/2021 4:30:00 PM 24.8 76.64 0.152 8.8 4.61 8.69
7/5/2021 4:45:00 PM 24.85 76.73 0.152 8.8 4.68 8.63
7/5/2021 5:00:00 PM 24.87 76.766 0.152 8.78 4.7 8.58
7/5/2021 5:15:00 PM 24.86 76.748 0.152 8.76 4.5 8.54
7/5/2021 5:30:00 PM 24.81 76.658 0.152 8.73 4.54 8.47
7/5/2021 5:45:00 PM 24.74 76.532 0.152 8.69 4.64 8.44
7/5/2021 6:00:00 PM 24.66 76.388 0.152 8.63 4.99 8.37
7/5/2021 6:15:00 PM 24.55 76.19 0.152 8.56 4.79 8.32
7/5/2021 6:30:00 PM 24.43 75.974 0.153 8.49 4.69 8.25
7/5/2021 6:45:00 PM 24.31 75.758 0.153 8.4 4.77 8.19
7/5/2021 7:00:00 PM 24.19 75.542 0.153 8.32 3.56 8.14
7/5/2021 7:15:00 PM 24.07 75.326 0.153 8.21 5 8.08
7/5/2021 7:30:00 PM 23.96 75.128 0.154 8.12 4.56 8.01
7/5/2021 7:45:00 PM 23.86 74.948 0.154 8.05 4.83 7.99
7/5/2021 8:00:00 PM 23.76 74.768 0.154 7.97 4.55 7.89
7/5/2021 8:15:00 PM 23.64 74.552 0.155 7.91 4.69 7.88
7/5/2021 8:30:00 PM 23.52 74.336 0.155 7.87 4.69 7.82
7/5/2021 8:45:00 PM 23.39 74.102 0.155 7.82 4.61 7.8
7/5/2021 9:00:00 PM 23.26 73.868 0.156 7.78 4.67 7.8
7/5/2021 9:15:00 PM 23.12 73.616 0.156 7.75 4.98 7.78
7/5/2021 9:30:00 PM 22.99 73.382 0.156 7.72 4.99 7.75
7/5/2021 9:45:00 PM 22.86 73.148 0.156 7.7 5.02 7.76
7/5/2021 10:00:00 PM 22.74 72.932 0.157 7.68 5.19 7.77
7/5/2021 10:15:00 PM 22.62 72.716 0.157 7.66 4.76 7.79
7/5/2021 10:30:00 PM 22.51 72.518 0.157 7.67 3.69 7.81
7/5/2021 10:45:00 PM 22.4 72.32 0.157 7.65 5.33 7.82
7/5/2021 11:00:00 PM 22.3 72.14 0.157 7.65 4.98 7.83
7/5/2021 11:15:00 PM 22.2 71.96 0.157 7.64 4.81 7.84
7/5/2021 11:30:00 PM 22.11 71.798 0.157 7.63 4.83 7.83
7/5/2021 11:45:00 PM 22.02 71.636 0.157 7.62 4.91 7.87
7/6/2021 12:00:00 AM 21.95 71.51 0.157 7.62 4.82 7.89
7/6/2021 12:15:00 AM 21.87 71.366 0.157 7.62 4.88 7.9
7/6/2021 12:30:00 AM 21.8 71.24 0.157 7.61 5.16 7.92
7/6/2021 12:45:00 AM 21.73 71.114 0.158 7.61 5.16 7.92
7/6/2021 1:00:00 AM 21.66 70.988 0.158 7.6 4.95 7.92
7/6/2021 1:15:00 AM 21.59 70.862 0.158 7.6 4.94 7.95
7/6/2021 1:30:00 AM 21.53 70.754 0.158 7.6 4.97 7.96
7/6/2021 1:45:00 AM 21.47 70.646 0.158 7.59 4.98 7.97
7/6/2021 2:00:00 AM 21.41 70.538 0.158 7.59 5.13 7.98
7/6/2021 2:15:00 AM 21.35 70.43 0.158 7.59 4.93 7.96
7/6/2021 2:30:00 AM 21.29 70.32201 0.158 7.59 4.96 8
7/6/2021 2:45:00 AM 21.24 70.232 0.158 7.6 5.07 8.01
7/6/2021 3:00:00 AM 21.18 70.124 0.158 7.6 4.96 8.01
7/6/2021 3:15:00 AM 21.12 70.016 0.158 7.6 4.78 8.03
7/6/2021 3:30:00 AM 21.06 69.908 0.158 7.59 5 8.03
7/6/2021 3:45:00 AM 21 69.8 0.158 7.59 4.91 8.06
7/6/2021 4:00:00 AM 20.94 69.692 0.158 7.58 4.79 8.07
7/6/2021 4:15:00 AM 20.88 69.584 0.158 7.59 4.89 8.08
7/6/2021 4:30:00 AM 20.82 69.476 0.158 7.58 4.81 8.08
7/6/2021 4:45:00 AM 20.77 69.386 0.158 7.58 4.78 8.1
7/6/2021 5:00:00 AM 20.71 69.278 0.158 7.57 4.86 8.12
7/6/2021 5:15:00 AM 20.65 69.17 0.158 7.58 5.25 8.12
7/6/2021 5:30:00 AM 20.59 69.062 0.158 7.58 4.78 8.1
7/6/2021 5:45:00 AM 20.54 68.972 0.158 7.58 5.23 8.13
7/6/2021 6:00:00 AM 20.48 68.864 0.158 7.57 4.84 8.13
7/6/2021 6:15:00 AM 20.43 68.774 0.158 7.58 4.81 8.18
7/6/2021 6:30:00 AM 20.38 68.684 0.158 7.59 4.83 8.24
7/6/2021 6:45:00 AM 20.35 68.63 0.157 7.6 4.7 8.29
7/6/2021 7:00:00 AM 20.33 68.594 0.157 7.61 4.59 8.34
7/6/2021 7:15:00 AM 20.32 68.576 0.157 7.63 4.57 8.42
7/6/2021 7:30:00 AM 20.33 68.594 0.157 7.65 4.62 8.53
7/6/2021 7:45:00 AM 20.36 68.648 0.157 7.69 4.59 8.64
7/6/2021 8:00:00 AM 20.42 68.756 0.157 7.72 4.54 8.74
7/6/2021 8:15:00 AM 20.51 68.918 0.156 7.76 4.42 8.88
7/6/2021 8:30:00 AM 20.63 69.134 0.156 7.81 4.56 8.96
7/6/2021 8:45:00 AM 20.77 69.386 0.156 7.86 4.8 9.01
7/6/2021 9:00:00 AM 20.95 69.71 0.156 7.92 4.4 9.09
7/6/2021 9:15:00 AM 21.12 70.016 0.156 7.98 4.51 9.13
7/6/2021 9:30:00 AM 21.29 70.32201 0.155 8.05 4.54 9.17
7/6/2021 9:45:00 AM 21.51 70.718 0.155 8.11 4.6 9.21
7/6/2021 10:00:00 AM 21.72 71.096 0.155 8.18 4.4 9.24
7/6/2021 10:15:00 AM 21.93 71.474 0.155 8.24 4.45 9.25
7/6/2021 10:30:00 AM 22.18 71.924 0.155 8.31 4.36 9.3
7/6/2021 10:45:00 AM 22.45 72.41 0.155 8.39 4.27 9.34
7/6/2021 11:00:00 AM 22.7 72.86 0.155 8.45 4.09 9.33
7/6/2021 11:15:00 AM 22.89 73.202 0.154 8.5 4.35 9.29
7/6/2021 11:30:00 AM 23.19 73.742 0.154 8.56 4.22 9.28
7/6/2021 11:45:00 AM 23.47 74.246 0.154 8.62 4.2 9.31
7/6/2021 12:00:00 PM 23.73 74.714 0.154 8.67 4.41 9.31
7/6/2021 12:15:00 PM 24.02 75.236 0.154 8.72 4.37 9.27
7/6/2021 12:30:00 PM 24.3 75.74 0.153 8.75 4.23 9.21
7/6/2021 12:45:00 PM 24.61 76.298 0.153 8.8 4.05 9.16
7/6/2021 1:00:00 PM 24.92 76.856 0.153 8.84 3.98 9.15
7/6/2021 1:15:00 PM 25.17 77.306 0.153 8.87 4.16 9.11
7/6/2021 1:30:00 PM 25.33 77.594 0.153 8.9 3.96 9
7/6/2021 1:45:00 PM 25.51 77.918 0.152 8.92 4.11 8.98
7/6/2021 2:00:00 PM 25.72 78.296 0.152 8.96 4.03 8.93
7/6/2021 2:15:00 PM 25.93 78.674 0.152 8.97 3.95 8.9
7/6/2021 2:30:00 PM 26.13 79.034 0.152 9 4.43 8.87
7/6/2021 2:45:00 PM 26.33 79.394 0.152 9.02 3.87 8.76
7/6/2021 3:00:00 PM 26.45 79.61 0.151 9.03 4.2 8.71
7/6/2021 3:15:00 PM 26.7 80.06 0.151 9.05 4.03 8.7
7/6/2021 3:30:00 PM 26.8 80.24 0.151 9.05 3.97 8.57
7/6/2021 3:45:00 PM 26.93 80.474 0.151 9.06 3.88 8.57
7/6/2021 4:00:00 PM 26.75 80.15 0.151 9.01 4.31 8.24
7/6/2021 4:15:00 PM 26.55 79.79 0.15 8.93 4.16 7.92
7/6/2021 4:30:00 PM 26.42 79.556 0.151 8.85 3.98 7.81
7/6/2021 4:45:00 PM 26.26 79.268 0.151 8.75 3.88 7.85
7/6/2021 5:00:00 PM 26.08 78.944 0.15 8.64 4.01 7.93
7/6/2021 5:15:00 PM 25.94 78.692 0.151 8.59 3.95 8.03
7/6/2021 5:30:00 PM 25.83 78.494 0.151 8.56 4.02 8.09
7/6/2021 5:45:00 PM 25.78 78.404 0.151 8.58 4.02 8.1
7/6/2021 6:00:00 PM 25.8 78.44 0.151 8.61 4.22 8.14
7/6/2021 6:15:00 PM 25.76 78.368 0.151 8.61 4.26 8.06
7/6/2021 6:30:00 PM 25.71 78.278 0.151 8.58 4.2 7.98
7/6/2021 6:45:00 PM 25.67 78.206 0.151 8.54 4.27 7.95
7/6/2021 7:00:00 PM 25.58 78.044 0.151 8.46 4.43 7.88
7/6/2021 7:15:00 PM 25.45 77.81 0.152 8.34 4.29 7.79
7/6/2021 7:30:00 PM 25.34 77.612 0.152 8.22 3.93 7.74
7/6/2021 7:45:00 PM 25.23 77.414 0.153 8.12 4.05 7.71
7/6/2021 8:00:00 PM 25.13 77.234 0.154 8.02 4.15 7.67
7/6/2021 8:15:00 PM 25.03 77.054 0.154 7.95 4.17 7.6
7/6/2021 8:30:00 PM 24.94 76.892 0.155 7.9 4.43 7.54
7/6/2021 8:45:00 PM 24.83 76.694 0.155 7.84 4.21 7.5
7/6/2021 9:00:00 PM 24.72 76.496 0.156 7.81 4.62 7.47
7/6/2021 9:15:00 PM 24.6 76.28 0.156 7.77 4.41 7.43
7/6/2021 9:30:00 PM 24.47 76.046 0.156 7.73 4.27 7.44
7/6/2021 9:45:00 PM 24.34 75.812 0.157 7.71 4.37 7.45
7/6/2021 10:00:00 PM 24.21 75.578 0.157 7.69 4.69 7.45
7/6/2021 10:15:00 PM 24.08 75.344 0.158 7.68 4.51 7.46
7/6/2021 10:30:00 PM 23.96 75.128 0.158 7.66 4.56 7.44
7/6/2021 10:45:00 PM 23.85 74.93 0.158 7.65 4.44 7.46
7/6/2021 11:00:00 PM 23.74 74.732 0.158 7.64 4.59 7.49
7/6/2021 11:15:00 PM 23.63 74.534 0.159 7.64 4.56 7.5
7/6/2021 11:30:00 PM 23.53 74.354 0.159 7.63 4.58 7.51
7/6/2021 11:45:00 PM 23.44 74.192 0.159 7.63 4.55 7.47
7/7/2021 12:00:00 AM 23.35 74.03 0.16 7.62 4.53 7.51
7/7/2021 12:15:00 AM 23.27 73.886 0.16 7.61 4.17 7.59
7/7/2021 12:30:00 AM 23.18 73.724 0.16 7.62 4.45 7.58
7/7/2021 12:45:00 AM 23.1 73.58 0.16 7.61 4.55 7.61
7/7/2021 1:00:00 AM 23.02 73.436 0.161 7.62 4.45 7.61
7/7/2021 1:15:00 AM 22.95 73.31 0.16 7.61 4.46 7.6
7/7/2021 1:30:00 AM 22.87 73.166 0.161 7.62 4.41 7.65
7/7/2021 1:45:00 AM 22.8 73.04 0.161 7.61 4.7 7.66
7/7/2021 2:00:00 AM 22.73 72.914 0.161 7.61 5.4 7.67
7/7/2021 2:15:00 AM 22.66 72.788 0.161 7.61 4.45 7.63
7/7/2021 2:30:00 AM 22.6 72.68 0.161 7.61 4.59 7.66
7/7/2021 2:45:00 AM 22.53 72.554 0.161 7.61 4.46 7.71
7/7/2021 3:00:00 AM 22.47 72.446 0.161 7.61 4.86 7.72
7/7/2021 3:15:00 AM 22.41 72.338 0.161 7.61 4.95 7.72
7/7/2021 3:30:00 AM 22.34 72.212 0.161 7.61 3.21 7.71
7/7/2021 3:45:00 AM 22.29 72.122 0.161 7.6 4.92 7.73
7/7/2021 4:00:00 AM 22.22 71.996 0.161 7.61 5.46 7.77
7/7/2021 4:15:00 AM 22.17 71.906 0.161 7.6 4.59 7.77
7/7/2021 4:30:00 AM 22.11 71.798 0.161 7.6 4.68 7.79
7/7/2021 4:45:00 AM 22.05 71.69 0.161 7.6 4.38 7.75
7/7/2021 5:00:00 AM 22.01 71.618 0.161 7.59 4.96 7.8
7/7/2021 5:15:00 AM 21.96 71.528 0.161 7.6 4.72 7.76
7/7/2021 5:30:00 AM 21.91 71.438 0.161 7.6 4.46 7.81
7/7/2021 5:45:00 AM 21.86 71.348 0.161 7.6 4.66 7.84
7/7/2021 6:00:00 AM 21.81 71.258 0.161 7.6 4.5 7.86
7/7/2021 6:15:00 AM 21.77 71.186 0.16 7.6 4.69 7.9
7/7/2021 6:30:00 AM 21.73 71.114 0.16 7.61 5.07 7.94
7/7/2021 6:45:00 AM 21.7 71.06 0.16 7.62 4.64 8
7/7/2021 7:00:00 AM 21.68 71.024 0.16 7.63 4.43 8.05
7/7/2021 7:15:00 AM 21.67 71.006 0.16 7.65 4.59 8.14
7/7/2021 7:30:00 AM 21.68 71.024 0.159 7.68 4.5 8.24
7/7/2021 7:45:00 AM 21.69 71.042 0.159 7.71 4.42 8.34
7/7/2021 8:00:00 AM 21.7 71.06 0.159 7.74 4.38 8.41
7/7/2021 8:15:00 AM 21.75 71.15 0.158 7.77 4.24 8.52
7/7/2021 8:30:00 AM 21.8 71.24 0.158 7.82 4.35 8.64
7/7/2021 8:45:00 AM 21.86 71.348 0.158 7.86 4.37 8.72
7/7/2021 9:00:00 AM 21.97 71.546 0.158 7.92 4.38 8.86
7/7/2021 9:15:00 AM 22.14 71.852 0.157 7.98 4.37 8.94
7/7/2021 9:30:00 AM 22.38 72.284 0.157 8.06 4.33 9.05
7/7/2021 9:45:00 AM 22.62 72.716 0.157 8.16 4.37 9.1
7/7/2021 10:00:00 AM 22.85 73.13 0.156 8.24 4.33 9.15
7/7/2021 10:15:00 AM 23.1 73.58 0.156 8.32 4.14 9.18
7/7/2021 10:30:00 AM 23.34 74.012 0.156 8.41 4.23 9.21
7/7/2021 10:45:00 AM 23.6 74.48 0.155 8.48 4.14 9.22
7/7/2021 11:00:00 AM 23.85 74.93 0.156 8.56 4.13 9.25
7/7/2021 11:15:00 AM 24.1 75.38 0.155 8.63 4.11 9.26
7/7/2021 11:30:00 AM 24.35 75.83 0.155 8.69 4.14 9.28
7/7/2021 11:45:00 AM 24.62 76.316 0.155 8.75 4.11 9.28
7/7/2021 12:00:00 PM 24.89 76.802 0.155 8.8 3.99 9.27
7/7/2021 12:15:00 PM 25.12 77.216 0.155 8.84 4.08 9.2
7/7/2021 12:30:00 PM 25.37 77.666 0.154 8.88 4.2 9.13
7/7/2021 12:45:00 PM 25.53 77.954 0.154 8.89 3.94 8.98
7/7/2021 1:00:00 PM 25.82 78.476 0.154 8.93 4.12 8.96
7/7/2021 1:15:00 PM 26.06 78.908 0.153 8.96 3.69 8.98
7/7/2021 1:30:00 PM 26.37 79.466 0.153 8.99 3.84 8.99
7/7/2021 1:45:00 PM 26.46 79.628 0.153 9 3.92 8.82
7/7/2021 2:00:00 PM 26.7 80.06 0.152 9.03 3.86 8.84
7/7/2021 2:15:00 PM 26.92 80.456 0.152 9.06 3.77 8.8
7/7/2021 2:30:00 PM 27.15 80.87 0.152 9.08 4.04 8.76
7/7/2021 2:45:00 PM 27.4 81.32 0.152 9.1 4.08 8.71
7/7/2021 3:00:00 PM 27.56 81.608 0.152 9.12 3.88 8.67
7/7/2021 3:15:00 PM 27.63 81.734 0.152 9.13 3.84 8.51
7/7/2021 3:30:00 PM 27.75 81.95 0.151 9.12 3.78 8.43
7/7/2021 3:45:00 PM 27.83 82.094 0.151 9.12 3.86 8.37
7/7/2021 4:00:00 PM 27.84 82.112 0.151 9.11 4 8.28
7/7/2021 4:15:00 PM 27.86 82.148 0.151 9.09 3.95 8.25
7/7/2021 4:30:00 PM 27.92 82.256 0.151 9.09 4.05 8.3
7/7/2021 4:45:00 PM 27.91 82.238 0.151 9.08 4.11 8.27
7/7/2021 5:00:00 PM 27.93 82.274 0.151 9.08 3.84 8.23
7/7/2021 5:15:00 PM 27.95 82.31 0.15 9.08 3.99 8.2
7/7/2021 5:30:00 PM 27.9 82.22 0.15 9.06 3.88 8.13
7/7/2021 5:45:00 PM 27.85 82.13 0.15 9.04 4.02 8.06
7/7/2021 6:00:00 PM 27.78 82.004 0.15 9 4.06 7.99
7/7/2021 6:15:00 PM 27.68 81.824 0.15 8.96 4.06 7.92
7/7/2021 6:30:00 PM 27.57 81.626 0.151 8.89 4.02 7.82
7/7/2021 6:45:00 PM 27.46 81.42799 0.15 8.82 4.05 7.73
7/7/2021 7:00:00 PM 27.35 81.23 0.151 8.73 3.88 7.64
7/7/2021 7:15:00 PM 27.23 81.014 0.151 8.62 4.08 7.57
7/7/2021 7:30:00 PM 27.11 80.798 0.152 8.5 4 7.53
7/7/2021 7:45:00 PM 27 80.6 0.152 8.36 6.32 7.48
7/7/2021 8:00:00 PM 26.88 80.384 0.153 8.21 6.44 7.37
7/7/2021 8:15:00 PM 26.77 80.186 0.153 8.08 4.59 7.27
7/7/2021 8:30:00 PM 26.67 80.006 0.154 7.97 4.17 7.21
7/7/2021 8:45:00 PM 26.56 79.808 0.155 7.89 4.63 7.14
7/7/2021 9:00:00 PM 26.46 79.628 0.156 7.83 4.44 7.13
7/7/2021 9:15:00 PM 26.35 79.43 0.156 7.78 4.66 7.11
7/7/2021 9:30:00 PM 26.23 79.214 0.157 7.76 4.57 7.1
7/7/2021 9:45:00 PM 25.96 78.728 0.156 7.73 4.97 7.11
7/7/2021 10:00:00 PM 25.76 78.368 0.156 7.71 5.12 7.16
7/7/2021 10:15:00 PM 25.62 78.116 0.156 7.7 4.93 7.17
7/7/2021 10:30:00 PM 25.43 77.774 0.156 7.69 4.89 7.21
7/7/2021 10:45:00 PM 25.25 77.45 0.156 7.69 5.31 7.24
7/7/2021 11:00:00 PM 25.08 77.144 0.156 7.68 4.86 7.26
7/7/2021 11:15:00 PM 24.94 76.892 0.156 7.67 4.81 7.29
7/7/2021 11:30:00 PM 24.8 76.64 0.156 7.65 4.83 7.3
7/7/2021 11:45:00 PM 24.67 76.406 0.156 7.66 5.17 7.32
7/8/2021 12:00:00 AM 24.53 76.154 0.156 7.66 5.1 7.36
7/8/2021 12:15:00 AM 24.41 75.938 0.157 7.65 4.82 7.37
7/8/2021 12:30:00 AM 24.3 75.74 0.157 7.65 5.01 7.4
7/8/2021 12:45:00 AM 24.15 75.47 0.156 7.65 4.93 7.44
7/8/2021 1:00:00 AM 24.04 75.272 0.156 7.64 5.06 7.48
7/8/2021 1:15:00 AM 23.91 75.038 0.156 7.64 5.14 7.5
7/8/2021 1:30:00 AM 23.8 74.84 0.156 7.64 5.08 7.51
7/8/2021 1:45:00 AM 23.72 74.696 0.156 7.64 4.94 7.54
7/8/2021 2:00:00 AM 23.62 74.516 0.156 7.63 5.29 7.56
7/8/2021 2:15:00 AM 23.53 74.354 0.156 7.63 5.29 7.55
7/8/2021 2:30:00 AM 23.44 74.192 0.156 7.62 5.25 7.6
7/8/2021 2:45:00 AM 23.36 74.048 0.156 7.63 5.21 7.61
7/8/2021 3:00:00 AM 23.29 73.922 0.156 7.63 5.68 7.63
7/8/2021 3:15:00 AM 23.22 73.796 0.156 7.63 5.11 7.65
7/8/2021 3:30:00 AM 23.16 73.688 0.156 7.62 5.6 7.67
7/8/2021 3:45:00 AM 23.09 73.562 0.156 7.63 5.71 7.69
7/8/2021 4:00:00 AM 23.02 73.436 0.157 7.62 5.29 7.71
7/8/2021 4:15:00 AM 22.96 73.328 0.157 7.63 5.59 7.73
7/8/2021 4:30:00 AM 22.89 73.202 0.157 7.63 5.51 7.74
7/8/2021 4:45:00 AM 22.83 73.094 0.157 7.63 5.52 7.71
7/8/2021 5:00:00 AM 22.77 72.986 0.157 7.63 5.53 7.73
7/8/2021 5:15:00 AM 22.7 72.86 0.157 7.63 5.74 7.76
7/8/2021 5:30:00 AM 22.63 72.734 0.157 7.62 5.88 7.79
7/8/2021 5:45:00 AM 22.57 72.626 0.157 7.63 6.07 7.81
7/8/2021 6:00:00 AM 22.51 72.518 0.157 7.63 5.75 7.84
7/8/2021 6:15:00 AM 22.45 72.41 0.157 7.63 5.79 7.86
7/8/2021 6:30:00 AM 22.39 72.302 0.158 7.64 5.61 7.89
7/8/2021 6:45:00 AM 22.34 72.212 0.158 7.65 6.02 7.95
7/8/2021 7:00:00 AM 22.3 72.14 0.158 7.67 5.7 8.02
7/8/2021 7:15:00 AM 22.28 72.104 0.159 7.69 5.87 8.13
7/8/2021 7:30:00 AM 22.25 72.05 0.159 7.71 5.55 8.18
7/8/2021 7:45:00 AM 22.24 72.032 0.159 7.73 5.35 8.2
7/8/2021 8:00:00 AM 22.24 72.032 0.16 7.75 5.32 8.25
7/8/2021 8:15:00 AM 22.24 72.032 0.16 7.77 5.47 8.33
7/8/2021 8:30:00 AM 22.27 72.086 0.16 7.8 5.27 8.42
7/8/2021 8:45:00 AM 22.34 72.212 0.16 7.85 5.6 8.56
7/8/2021 9:00:00 AM 22.37 72.266 0.16 7.88 5.29 8.55
7/8/2021 9:15:00 AM 22.47 72.446 0.16 7.94 5.49 8.67
7/8/2021 9:30:00 AM 22.52 72.536 0.16 7.99 5.05 8.73
7/8/2021 9:45:00 AM 22.62 72.716 0.16 8.05 5.34 8.86
7/8/2021 10:00:00 AM 22.77 72.986 0.159 8.14 4.93 8.96
7/8/2021 10:15:00 AM 22.88 73.184 0.159 8.21 5.09 8.98
7/8/2021 10:30:00 AM 22.97 73.346 0.159 8.25 5 8.89
7/8/2021 10:45:00 AM 23.02 73.436 0.159 8.24 5.53 8.76
7/8/2021 11:00:00 AM 23.01 73.418 0.159 8.23 5.27 8.71
7/8/2021 11:15:00 AM 23.03 73.454 0.159 8.25 5.96 8.8
7/8/2021 11:30:00 AM 23.05 73.49 0.158 8.25 5.43 8.78
7/8/2021 11:45:00 AM 23.12 73.616 0.158 8.27 6.02 8.71
7/8/2021 12:00:00 PM 23.13 73.634 0.158 8.27 6.22 8.67
7/8/2021 12:15:00 PM 23.13 73.634 0.158 8.26 6.62 8.67
7/8/2021 12:30:00 PM 23.12 73.616 0.158 8.23 7.84 8.6
7/8/2021 12:45:00 PM 23.16 73.688 0.157 8.23 6 8.65
7/8/2021 1:00:00 PM 23.17 73.706 0.158 8.22 6.49 8.57
7/8/2021 1:15:00 PM 23.2 73.76 0.158 8.2 6.06 8.55
7/8/2021 1:30:00 PM 23.21 73.778 0.158 8.19 6.03 8.56
7/8/2021 1:45:00 PM 23.24 73.832 0.158 8.2 6.31 8.59
7/8/2021 2:00:00 PM 23.3 73.94 0.158 8.23 6.39 8.67
7/8/2021 2:15:00 PM 23.36 74.048 0.158 8.29 5.86 8.71
7/8/2021 2:30:00 PM 23.4 74.12 0.159 8.31 5.93 8.66
7/8/2021 2:45:00 PM 23.41 74.138 0.159 8.32 6.09 8.64
7/8/2021 3:00:00 PM 23.4 74.12 0.158 8.29 6.07 8.58
7/8/2021 3:15:00 PM 23.41 74.138 0.158 8.3 6.25 8.61
7/8/2021 3:30:00 PM 23.41 74.138 0.158 8.29 7.07 8.59
7/8/2021 3:45:00 PM 23.4 74.12 0.157 8.3 6.53 8.58
7/8/2021 4:00:00 PM 23.39 74.102 0.157 8.28 8.88 8.56
7/8/2021 4:15:00 PM 23.35 74.03 0.156 8.25 12.09 8.5
7/8/2021 4:30:00 PM 23.32 73.976 0.155 8.17 11.78 8.43
7/8/2021 4:45:00 PM 23.28 73.904 0.154 8.11 14.22 8.37
7/8/2021 5:00:00 PM 23.24 73.832 0.154 8.05 13.06 8.32
7/8/2021 5:15:00 PM 23.2 73.76 0.155 7.99 12.71 8.25
7/8/2021 5:30:00 PM 23.15 73.67 0.157 7.94 12.58 8.2
7/8/2021 5:45:00 PM 23.12 73.616 0.158 7.9 16.01 8.16
7/8/2021 6:00:00 PM 23.1 73.58 0.159 7.87 12.9 8.13
7/8/2021 6:15:00 PM 23.08 73.544 0.16 7.84 14.36 8.11
7/8/2021 6:30:00 PM 23.06 73.508 0.16 7.82 12 8.09
7/8/2021 6:45:00 PM 23.05 73.49 0.16 7.8 14.79 8.08
7/8/2021 7:00:00 PM -99999.99 -179968 -99999.99 -99999.99 -99999.99 -99999.99
7/8/2021 7:15:00 PM -99999.99 -179968 -99999.99 -99999.99 -99999.99 -99999.99
7/8/2021 7:30:00 PM -99999.99 -179968 -99999.99 -99999.99 -99999.99 -99999.99
7/8/2021 7:45:00 PM -99999.99 -179968 -99999.99 -99999.99 -99999.99 -99999.99
7/8/2021 8:00:00 PM -99999.99 -179968 -99999.99 -99999.99 -99999.99 -99999.99
7/8/2021 8:15:00 PM -99999.99 -179968 -99999.99 -99999.99 -99999.99 -99999.99
7/8/2021 8:30:00 PM -99999.99 -179968 -99999.99 -99999.99 -99999.99 -99999.99
7/8/2021 8:45:00 PM -99999.99 -179968 -99999.99 -99999.99 -99999.99 -99999.99
7/8/2021 9:00:00 PM -99999.99 -179968 -99999.99 -99999.99 -99999.99 -99999.99
7/8/2021 9:15:00 PM -99999.99 -179968 -99999.99 -99999.99 -99999.99 -99999.99
7/8/2021 9:30:00 PM -99999.99 -179968 -99999.99 -99999.99 -99999.99 -99999.99
7/8/2021 9:45:00 PM -99999.99 -179968 -99999.99 -99999.99 -99999.99 -99999.99
7/8/2021 10:00:00 PM -99999.99 -179968 -99999.99 -99999.99 -99999.99 -99999.99
7/8/2021 10:15:00 PM -99999.99 -179968 -99999.99 -99999.99 -99999.99 -99999.99
7/8/2021 10:30:00 PM -99999.99 -179968 -99999.99 -99999.99 -99999.99 -99999.99
7/8/2021 10:45:00 PM -99999.99 -179968 -99999.99 -99999.99 -99999.99 -99999.99
7/8/2021 11:00:00 PM -99999.99 -179968 -99999.99 -99999.99 -99999.99 -99999.99
7/8/2021 11:15:00 PM -99999.99 -179968 -99999.99 -99999.99 -99999.99 -99999.99
7/8/2021 11:30:00 PM 22.6 72.68 0.161 7.68 11.27 7.94
7/8/2021 11:45:00 PM 22.56 72.608 0.159 7.66 14.54 7.97
7/9/2021 12:00:00 AM 22.53 72.554 0.161 7.65 14.89 7.98
7/9/2021 12:15:00 AM 22.5 72.5 0.164 7.65 14.81 7.99
7/9/2021 12:30:00 AM 22.46 72.42799 0.166 7.65 12.47 8
7/9/2021 12:45:00 AM 22.42 72.356 0.167 7.65 14.86 8
7/9/2021 1:00:00 AM 22.37 72.266 0.168 7.65 12.96 8
7/9/2021 1:15:00 AM 22.32 72.176 0.169 7.65 12.61 8.01
7/9/2021 1:30:00 AM 22.27 72.086 0.169 7.65 13.78 8.02
7/9/2021 1:45:00 AM 22.22 71.996 0.169 7.64 13.81 8.03
7/9/2021 2:00:00 AM 22.17 71.906 0.168 7.64 13.86 8.04
7/9/2021 2:15:00 AM 22.12 71.816 0.167 7.65 14.18 8.05
7/9/2021 2:30:00 AM 22.08 71.744 0.166 7.64 13.74 8.05
7/9/2021 2:45:00 AM 22.03 71.654 0.165 7.64 13.74 8.07
7/9/2021 3:00:00 AM 21.99 71.582 0.164 7.64 13.99 8.07
7/9/2021 3:15:00 AM 21.95 71.51 0.162 7.65 13.12 8.07
7/9/2021 3:30:00 AM 21.91 71.438 0.162 7.65 13.1 8.08
7/9/2021 3:45:00 AM 21.86 71.348 0.16 7.64 12.29 8.09
7/9/2021 4:00:00 AM 21.81 71.258 0.16 7.64 13.03 8.09
7/9/2021 4:15:00 AM 21.76 71.168 0.16 7.64 13.6 8.1
7/9/2021 4:30:00 AM 21.72 71.096 0.159 7.64 12.7 8.11
7/9/2021 4:45:00 AM 21.67 71.006 0.159 7.65 12.57 8.11
7/9/2021 5:00:00 AM 21.62 70.916 0.159 7.64 13.37 8.12
7/9/2021 5:15:00 AM 21.57 70.826 0.159 7.64 11.9 8.13
7/9/2021 5:30:00 AM 21.53 70.754 0.158 7.64 13.28 8.14
7/9/2021 5:45:00 AM 21.49 70.682 0.158 7.64 13.68 8.14
7/9/2021 6:00:00 AM 21.45 70.61 0.158 7.64 12.84 8.16
7/9/2021 6:15:00 AM 21.42 70.556 0.158 7.64 12.24 8.18
7/9/2021 6:30:00 AM 21.39 70.502 0.157 7.65 14.08 8.19
7/9/2021 6:45:00 AM 21.37 70.466 0.157 7.66 11.85 8.22
7/9/2021 7:00:00 AM 21.35 70.43 0.157 7.67 12.13 8.25
7/9/2021 7:15:00 AM 21.34 70.412 0.157 7.68 11.73 8.29
7/9/2021 7:30:00 AM 21.33 70.394 0.157 7.69 11.24 8.33
7/9/2021 7:45:00 AM 21.35 70.43 0.157 7.72 10.85 8.39
7/9/2021 8:00:00 AM 21.38 70.484 0.157 7.74 11.84 8.47
7/9/2021 8:15:00 AM 21.43 70.574 0.157 7.78 10.36 8.54
7/9/2021 8:30:00 AM 21.5 70.7 0.157 7.82 9.86 8.61
7/9/2021 8:45:00 AM 21.53 70.754 0.157 7.84 10 8.63
7/9/2021 9:00:00 AM 21.55 70.79 0.157 7.85 10.95 8.63
7/9/2021 9:15:00 AM 21.63 70.934 0.157 7.88 9.92 8.69
7/9/2021 9:30:00 AM 21.7 71.06 0.156 7.92 10.07 8.72
7/9/2021 9:45:00 AM 21.78 71.204 0.157 7.96 9.56 8.76
7/9/2021 10:00:00 AM 21.88 71.384 0.157 8 8.66 8.78
7/9/2021 10:15:00 AM 21.95 71.51 0.157 8.03 9.15 8.79
7/9/2021 10:30:00 AM 22.03 71.654 0.158 8.07 8.91 8.83
7/9/2021 10:45:00 AM 22.08 71.744 0.158 8.08 9.08 8.74
7/9/2021 11:00:00 AM 22.21 71.978 0.158 8.1 8.9 8.81
7/9/2021 11:15:00 AM 22.31 72.158 0.159 8.13 8.4 8.82
7/9/2021 11:30:00 AM 22.41 72.338 0.159 8.15 8.93 8.82
7/9/2021 11:45:00 AM 22.57 72.626 0.16 8.21 8.01 8.86
7/9/2021 12:00:00 PM 22.83 73.094 0.16 8.27 8.54 8.88
7/9/2021 12:15:00 PM 23.12 73.616 0.16 8.34 8.41 8.89
7/9/2021 12:30:00 PM 23.36 74.048 0.161 8.39 8.86 8.9
7/9/2021 12:45:00 PM 23.54 74.372 0.161 8.44 8.64 8.86
7/9/2021 1:00:00 PM 23.69 74.642 0.161 8.45 8.09 8.8
7/9/2021 1:15:00 PM 23.84 74.912 0.161 8.47 8.05 8.8
7/9/2021 1:30:00 PM 23.95 75.11 0.161 8.5 7.37 8.79
7/9/2021 1:45:00 PM 24 75.2 0.16 8.53 7.83 8.74
7/9/2021 2:00:00 PM 24.07 75.326 0.16 8.54 8.28 8.75
7/9/2021 2:15:00 PM 24.17 75.506 0.16 8.56 7.83 8.73
7/9/2021 2:30:00 PM 24.17 75.506 0.16 8.55 8.79 8.62
7/9/2021 2:45:00 PM 24.11 75.398 0.159 8.5 8.69 8.51
7/9/2021 3:00:00 PM 24.07 75.326 0.159 8.45 8.24 8.49
7/9/2021 3:15:00 PM 24.07 75.326 0.159 8.44 8.02 8.5
7/9/2021 3:30:00 PM 24.06 75.308 0.158 8.43 8.66 8.48
7/9/2021 3:45:00 PM 24.01 75.218 0.158 8.38 9.15 8.42
7/9/2021 4:00:00 PM 23.98 75.164 0.158 8.34 8.64 8.43
7/9/2021 4:15:00 PM 23.98 75.164 0.158 8.33 9.57 8.45
7/9/2021 4:30:00 PM 23.93 75.074 0.158 8.31 9.5 8.42
7/9/2021 4:45:00 PM 23.86 74.948 0.157 8.26 9.07 8.36
7/9/2021 5:00:00 PM 23.73 74.714 0.157 8.17 9.1 8.26
7/9/2021 5:15:00 PM 23.6 74.48 0.157 8.06 9.58 8.17
7/9/2021 5:30:00 PM 23.5 74.3 0.156 7.99 9.53 8.12
7/9/2021 5:45:00 PM 23.42 74.156 0.156 7.94 8.94 8.1
7/9/2021 6:00:00 PM 23.36 74.048 0.156 7.89 9.67 8.06
7/9/2021 6:15:00 PM 23.31 73.958 0.156 7.86 10.73 8.04
7/9/2021 6:30:00 PM 23.29 73.922 0.156 7.85 9.97 8.1
7/9/2021 6:45:00 PM 23.27 73.886 0.155 7.86 10.19 8.1
7/9/2021 7:00:00 PM 23.26 73.868 0.155 7.85 10.74 8.09
7/9/2021 7:15:00 PM 23.23 73.814 0.155 7.83 9.89 8.08
7/9/2021 7:30:00 PM 23.21 73.778 0.155 7.82 10.48 8.06
7/9/2021 7:45:00 PM 23.17 73.706 0.155 7.8 10.55 8.03
7/9/2021 8:00:00 PM 23.14 73.652 0.155 7.78 10.5 8.01
7/9/2021 8:15:00 PM 23.1 73.58 0.155 7.76 10.92 8
7/9/2021 8:30:00 PM 23.05 73.49 0.155 7.74 11.44 7.97
7/9/2021 8:45:00 PM 23.01 73.418 0.155 7.73 10.65 7.96
7/9/2021 9:00:00 PM 22.96 73.328 0.156 7.71 10.62 7.95
7/9/2021 9:15:00 PM 22.91 73.238 0.156 7.69 11.1 7.95
7/9/2021 9:30:00 PM 22.85 73.13 0.156 7.68 11.79 7.93
7/9/2021 9:45:00 PM 22.79 73.022 0.156 7.67 13 7.93
7/9/2021 10:00:00 PM 22.74 72.932 0.157 7.66 11.7 7.94
7/9/2021 10:15:00 PM 22.7 72.86 0.157 7.66 11.48 7.95
7/9/2021 10:30:00 PM 22.65 72.77 0.157 7.65 11.11 7.95
7/9/2021 10:45:00 PM 22.61 72.698 0.157 7.65 10.68 7.96
7/9/2021 11:00:00 PM 22.57 72.626 0.157 7.65 10.78 7.96
7/9/2021 11:15:00 PM 22.52 72.536 0.157 7.63 10.98 7.97
7/9/2021 11:30:00 PM 22.48 72.464 0.157 7.64 10.99 7.97
7/9/2021 11:45:00 PM 22.44 72.392 0.157 7.63 11.28 7.99
7/10/2021 12:00:00 AM 22.38 72.284 0.156 7.64 10.99 8
7/10/2021 12:15:00 AM 22.33 72.194 0.156 7.63 11.01 8.01
7/10/2021 12:30:00 AM 22.29 72.122 0.156 7.63 10.22 8.01
7/10/2021 12:45:00 AM 22.24 72.032 0.156 7.62 10.36 8.02
7/10/2021 1:00:00 AM 22.19 71.942 0.156 7.63 10.16 8.03
7/10/2021 1:15:00 AM 22.14 71.852 0.156 7.62 10.98 8.04
7/10/2021 1:30:00 AM 22.1 71.78 0.156 7.61 10.6 8.05
7/10/2021 1:45:00 AM 22.05 71.69 0.156 7.61 10.39 8.06
7/10/2021 2:00:00 AM 22.01 71.618 0.156 7.6 10.36 8.07
7/10/2021 2:15:00 AM 21.96 71.528 0.156 7.59 10.15 8.08
7/10/2021 2:30:00 AM 21.91 71.438 0.155 7.59 11.07 8.08
7/10/2021 2:45:00 AM 21.87 71.366 0.155 7.59 10.1 8.1
7/10/2021 3:00:00 AM 21.82 71.276 0.155 7.6 10.19 8.1
7/10/2021 3:15:00 AM 21.77 71.186 0.155 7.59 10.02 8.11
7/10/2021 3:30:00 AM 21.72 71.096 0.155 7.6 9.99 8.12
7/10/2021 3:45:00 AM 21.67 71.006 0.154 7.6 10.19 8.13
7/10/2021 4:00:00 AM 21.62 70.916 0.154 7.59 10.1 8.14
7/10/2021 4:15:00 AM 21.57 70.826 0.154 7.6 9.75 8.14
7/10/2021 4:30:00 AM 21.52 70.736 0.154 7.6 9.9 8.16
7/10/2021 4:45:00 AM 21.46 70.628 0.154 7.6 10.1 8.17
7/10/2021 5:00:00 AM 21.41 70.538 0.154 7.6 9.42 8.18
7/10/2021 5:15:00 AM 21.36 70.448 0.154 7.6 9.81 8.19
7/10/2021 5:30:00 AM 21.31 70.358 0.154 7.59 10.04 8.2
7/10/2021 5:45:00 AM 21.26 70.268 0.154 7.6 9.56 8.22
7/10/2021 6:00:00 AM 21.21 70.17799 0.154 7.6 9.79 8.23
7/10/2021 6:15:00 AM 21.16 70.088 0.154 7.6 9.9 8.24
7/10/2021 6:30:00 AM 21.12 70.016 0.154 7.61 9.34 8.26
7/10/2021 6:45:00 AM 21.08 69.944 0.154 7.61 9.52 8.29
7/10/2021 7:00:00 AM 21.05 69.89 0.154 7.62 8.99 8.32
7/10/2021 7:15:00 AM 21.02 69.836 0.154 7.64 8.56 8.35
7/10/2021 7:30:00 AM 21 69.8 0.154 7.65 9.19 8.4
7/10/2021 7:45:00 AM 20.99 69.782 0.154 7.67 8.21 8.45
7/10/2021 8:00:00 AM 20.98 69.764 0.154 7.69 8.05 8.5
7/10/2021 8:15:00 AM 20.97 69.746 0.154 7.72 8.08 8.56
7/10/2021 8:30:00 AM 20.98 69.764 0.154 7.74 7.82 8.6
7/10/2021 8:45:00 AM 20.97 69.746 0.154 7.76 7.9 8.61
7/10/2021 9:00:00 AM 20.97 69.746 0.154 7.79 7.75 8.68
7/10/2021 9:15:00 AM 20.98 69.764 0.154 7.8 7.16 8.72
7/10/2021 9:30:00 AM 21 69.8 0.154 7.84 7.25 8.79
7/10/2021 9:45:00 AM 21.01 69.818 0.154 7.88 7.09 8.8
7/10/2021 10:00:00 AM 21.01 69.818 0.154 7.88 6.89 8.79
7/10/2021 10:15:00 AM 21 69.8 0.154 7.9 6.54 8.79
7/10/2021 10:30:00 AM 21 69.8 0.154 7.91 6.77 8.8
7/10/2021 10:45:00 AM 21 69.8 0.154 7.93 6.71 8.84
7/10/2021 11:00:00 AM 21.02 69.836 0.154 7.94 6.31 8.9
7/10/2021 11:15:00 AM 21.07 69.926 0.154 8.01 7.06 9
7/10/2021 11:30:00 AM 21.21 70.17799 0.154 8.09 6.35 9.13
7/10/2021 11:45:00 AM 21.31 70.358 0.154 8.18 6.38 9.19
7/10/2021 12:00:00 PM 21.53 70.754 0.154 8.27 6.2 9.25
7/10/2021 12:15:00 PM 21.68 71.024 0.153 8.33 6.4 9.24
7/10/2021 12:30:00 PM 21.83 71.294 0.153 8.4 6.03 9.26
7/10/2021 12:45:00 PM 22.05 71.69 0.153 8.48 6.33 9.28
7/10/2021 1:00:00 PM 22.17 71.906 0.153 8.52 5.98 9.25
7/10/2021 1:15:00 PM 22.46 72.42799 0.153 8.58 5.91 9.25
7/10/2021 1:30:00 PM 22.55 72.59 0.152 8.62 6.23 9.17
7/10/2021 1:45:00 PM 22.61 72.698 0.152 8.64 5.87 9.14
7/10/2021 2:00:00 PM 22.7 72.86 0.152 8.67 5.97 9.11
7/10/2021 2:15:00 PM 22.92 73.256 0.152 8.71 5.67 9.12
7/10/2021 2:30:00 PM 23.16 73.688 0.152 8.74 5.61 9.04
7/10/2021 2:45:00 PM 23.16 73.688 0.152 8.74 5.84 8.96
7/10/2021 3:00:00 PM 23.14 73.652 0.152 8.74 5.63 8.95
7/10/2021 3:15:00 PM 23.12 73.616 0.151 8.74 5.48 8.94
7/10/2021 3:30:00 PM 23.19 73.742 0.151 8.77 5.75 8.94
7/10/2021 3:45:00 PM 23.24 73.832 0.151 8.77 5.72 8.87
7/10/2021 4:00:00 PM 23.28 73.904 0.151 8.77 5.58 8.82
7/10/2021 4:15:00 PM 23.38 74.084 0.151 8.77 5.83 8.83
7/10/2021 4:30:00 PM 23.42 74.156 0.151 8.76 5.36 8.77
7/10/2021 4:45:00 PM 23.53 74.354 0.151 8.76 5.66 8.76
7/10/2021 5:00:00 PM 23.54 74.372 0.151 8.73 5.68 8.75
7/10/2021 5:15:00 PM 23.49 74.282 0.151 8.71 5.68 8.66
7/10/2021 5:30:00 PM 23.42 74.156 0.151 8.64 5.62 8.6
7/10/2021 5:45:00 PM 23.41 74.138 0.151 8.6 5.62 8.62
7/10/2021 6:00:00 PM 23.36 74.048 0.151 8.54 5.66 8.52
7/10/2021 6:15:00 PM 23.31 73.958 0.152 8.46 5.95 8.45
7/10/2021 6:30:00 PM 23.23 73.814 0.152 8.38 5.55 8.43
7/10/2021 6:45:00 PM 23.18 73.724 0.152 8.31 5.51 8.38
7/10/2021 7:00:00 PM 23.14 73.652 0.152 8.25 6.21 8.37
7/10/2021 7:15:00 PM 23.06 73.508 0.152 8.18 5.78 8.32
7/10/2021 7:30:00 PM 23 73.4 0.153 8.1 5.73 8.29
7/10/2021 7:45:00 PM 22.92 73.256 0.153 8.03 5.67 8.24
7/10/2021 8:00:00 PM 22.84 73.112 0.153 7.98 5.67 8.19
7/10/2021 8:15:00 PM 22.74 72.932 0.153 7.92 5.61 8.15
7/10/2021 8:30:00 PM 22.64 72.752 0.153 7.87 6.05 8.11
7/10/2021 8:45:00 PM 22.55 72.59 0.154 7.82 6.29 8.08
7/10/2021 9:00:00 PM 22.45 72.41 0.154 7.79 6.47 8.05
7/10/2021 9:15:00 PM 22.36 72.248 0.154 7.76 6.33 8.04
7/10/2021 9:30:00 PM 22.27 72.086 0.154 7.74 6.41 8.02
7/10/2021 9:45:00 PM 22.19 71.942 0.154 7.73 6.47 8.03
7/10/2021 10:00:00 PM 22.11 71.798 0.154 7.71 6.2 8.03
7/10/2021 10:15:00 PM 22.03 71.654 0.154 7.69 6.3 8.03
7/10/2021 10:30:00 PM 21.95 71.51 0.154 7.68 6.02 8.04
7/10/2021 10:45:00 PM 21.87 71.366 0.154 7.68 6.55 8.05
7/10/2021 11:00:00 PM 21.79 71.222 0.154 7.67 5.87 8.07
7/10/2021 11:15:00 PM 21.71 71.078 0.154 7.67 6.24 8.08
7/10/2021 11:30:00 PM 21.63 70.934 0.154 7.66 6 8.08
7/10/2021 11:45:00 PM 21.55 70.79 0.154 7.65 5.89 8.1
7/11/2021 12:00:00 AM 21.48 70.664 0.154 7.64 5.79 8.11
7/11/2021 12:15:00 AM 21.4 70.52 0.154 7.65 6.16 8.13
7/11/2021 12:30:00 AM 21.33 70.394 0.154 7.64 6.06 8.14
7/11/2021 12:45:00 AM 21.26 70.268 0.154 7.64 6 8.13
7/11/2021 1:00:00 AM 21.2 70.16 0.154 7.63 6.03 8.16
7/11/2021 1:15:00 AM 21.13 70.034 0.154 7.63 6.21 8.18
7/11/2021 1:30:00 AM 21.07 69.926 0.154 7.63 6.64 8.19
7/11/2021 1:45:00 AM 21 69.8 0.154 7.63 6.22 8.2
7/11/2021 2:00:00 AM 20.92 69.656 0.154 7.62 6.35 8.21
7/11/2021 2:15:00 AM 20.85 69.53 0.154 7.63 5.88 8.23
7/11/2021 2:30:00 AM 20.78 69.404 0.154 7.62 6.79 8.24
7/11/2021 2:45:00 AM 20.71 69.278 0.154 7.62 6.37 8.26
7/11/2021 3:00:00 AM 20.63 69.134 0.154 7.62 5.92 8.27
7/11/2021 3:15:00 AM 20.56 69.008 0.154 7.62 6.24 8.27
7/11/2021 3:30:00 AM 20.49 68.882 0.154 7.61 11.14 8.29
7/11/2021 3:45:00 AM 20.42 68.756 0.154 7.62 6.05 8.31
7/11/2021 4:00:00 AM 20.34 68.612 0.154 7.61 6.17 8.32
7/11/2021 4:15:00 AM 20.28 68.504 0.154 7.61 6.14 8.34
7/11/2021 4:30:00 AM 20.22 68.396 0.154 7.61 6.72 8.35
7/11/2021 4:45:00 AM 20.16 68.288 0.154 7.61 6.13 8.36
7/11/2021 5:00:00 AM 20.1 68.18 0.154 7.61 5.98 8.36
7/11/2021 5:15:00 AM 20.05 68.09 0.154 7.61 6.44 8.39
7/11/2021 5:30:00 AM 20 68 0.154 7.6 6.34 8.39
7/11/2021 5:45:00 AM 19.95 67.91 0.155 7.61 6.33 8.42
7/11/2021 6:00:00 AM 19.91 67.838 0.155 7.61 6.29 8.43
7/11/2021 6:15:00 AM 19.87 67.766 0.155 7.61 6.16 8.45
7/11/2021 6:30:00 AM 19.83 67.694 0.155 7.62 6.11 8.47
7/11/2021 6:45:00 AM 19.8 67.64 0.155 7.62 6.5 8.51
7/11/2021 7:00:00 AM 19.77 67.586 0.155 7.63 5.96 8.54
7/11/2021 7:15:00 AM 19.75 67.55 0.155 7.64 5.67 8.59
7/11/2021 7:30:00 AM 19.74 67.532 0.155 7.66 5.52 8.67
7/11/2021 7:45:00 AM 19.74 67.532 0.155 7.68 5.55 8.73
7/11/2021 8:00:00 AM 19.76 67.568 0.155 7.72 5.81 8.81
7/11/2021 8:15:00 AM 19.77 67.586 0.155 7.73 5.45 8.82
7/11/2021 8:30:00 AM 19.78 67.604 0.155 7.75 5.48 8.87
7/11/2021 8:45:00 AM 19.8 67.64 0.155 7.77 6.07 8.9
7/11/2021 9:00:00 AM 19.81 67.658 0.155 7.79 5.11 8.91
7/11/2021 9:15:00 AM 19.83 67.694 0.155 7.81 5.1 8.9
7/11/2021 9:30:00 AM 19.84 67.712 0.155 7.82 5.31 8.92
7/11/2021 9:45:00 AM 19.85 67.73 0.155 7.82 5.39 8.92
7/11/2021 10:00:00 AM 19.86 67.748 0.155 7.84 5.16 8.95
7/11/2021 10:15:00 AM 19.88 67.784 0.155 7.85 4.93 8.97
7/11/2021 10:30:00 AM 19.89 67.802 0.155 7.85 5.38 8.93
7/11/2021 10:45:00 AM 19.91 67.838 0.155 7.86 4.91 8.91
7/11/2021 11:00:00 AM 19.91 67.838 0.155 7.85 4.82 8.94
7/11/2021 11:15:00 AM 19.92 67.856 0.155 7.85 4.93 8.92
7/11/2021 11:30:00 AM 19.93 67.874 0.155 7.86 4.94 8.92
7/11/2021 11:45:00 AM 19.94 67.892 0.155 7.86 4.83 8.95
7/11/2021 12:00:00 PM 19.96 67.92799 0.155 7.87 4.73 8.97
7/11/2021 12:15:00 PM 20 68 0.155 7.9 4.86 9.04
7/11/2021 12:30:00 PM 20.03 68.054 0.155 7.92 4.77 9.05
7/11/2021 12:45:00 PM 20.08 68.144 0.155 7.96 4.71 9.1
7/11/2021 1:00:00 PM 20.13 68.234 0.155 8.01 4.8 9.17
7/11/2021 1:15:00 PM 20.19 68.342 0.155 8.06 4.72 9.22
7/11/2021 1:30:00 PM 20.29 68.522 0.155 8.14 4.65 9.32
7/11/2021 1:45:00 PM 20.44 68.792 0.155 8.24 4.76 9.43
7/11/2021 2:00:00 PM 20.54 68.972 0.155 8.33 4.67 9.45
7/11/2021 2:15:00 PM 20.63 69.134 0.155 8.35 4.83 9.34
7/11/2021 2:30:00 PM 20.7 69.26 0.155 8.38 4.7 9.31
7/11/2021 2:45:00 PM 20.73 69.314 0.155 8.4 5.68 9.31
7/11/2021 3:00:00 PM 20.73 69.314 0.155 8.37 6.19 9.19
7/11/2021 3:15:00 PM 20.75 69.35 0.155 8.35 4.63 9.13
7/11/2021 3:30:00 PM 20.76 69.368 0.155 8.31 4.99 9.09
7/11/2021 3:45:00 PM 20.78 69.404 0.155 8.3 4.81 9.1
7/11/2021 4:00:00 PM 20.82 69.476 0.155 8.32 4.68 9.16
7/11/2021 4:15:00 PM 20.86 69.548 0.155 8.36 4.69 9.16
7/11/2021 4:30:00 PM 20.92 69.656 0.155 8.4 4.64 9.19
7/11/2021 4:45:00 PM 20.96 69.728 0.155 8.43 4.59 9.18
7/11/2021 5:00:00 PM 20.98 69.764 0.155 8.42 5.08 9.12
7/11/2021 5:15:00 PM 21.04 69.872 0.155 8.46 4.84 9.19
7/11/2021 5:30:00 PM 21.12 70.016 0.155 8.52 4.61 9.24
7/11/2021 5:45:00 PM 21.23 70.214 0.155 8.56 4.5 9.25
7/11/2021 6:00:00 PM 21.31 70.358 0.155 8.59 4.63 9.2
7/11/2021 6:15:00 PM 21.33 70.394 0.155 8.58 4.75 9.07
7/11/2021 6:30:00 PM 21.29 70.32201 0.155 8.5 5.14 8.9
7/11/2021 6:45:00 PM 21.25 70.25 0.155 8.38 4.96 8.83
7/11/2021 7:00:00 PM 21.21 70.17799 0.155 8.26 4.78 8.75
7/11/2021 7:15:00 PM 21.17 70.106 0.156 8.15 4.77 8.66
7/11/2021 7:30:00 PM 21.14 70.052 0.156 8.07 4.58 8.59
7/11/2021 7:45:00 PM 21.09 69.962 0.156 7.98 4.94 8.54
7/11/2021 8:00:00 PM 21.05 69.89 0.157 7.91 4.77 8.47
7/11/2021 8:15:00 PM 21.01 69.818 0.157 7.85 4.69 8.42
7/11/2021 8:30:00 PM 20.98 69.764 0.157 7.8 4.72 8.38
7/11/2021 8:45:00 PM 20.95 69.71 0.157 7.77 5.25 8.35
7/11/2021 9:00:00 PM 20.92 69.656 0.157 7.73 5.21 8.32
7/11/2021 9:15:00 PM 20.9 69.62 0.151 7.7 9.75 8.33
7/11/2021 9:30:00 PM 20.89 69.602 0.141 7.63 19.96 8.36
7/11/2021 9:45:00 PM 20.88 69.584 0.14 7.62 24.8 8.33
7/11/2021 10:00:00 PM 20.82 69.476 0.14 7.58 14.06 8.33
7/11/2021 10:15:00 PM 20.72 69.296 0.136 7.55 28.27 8.32
7/11/2021 10:30:00 PM 20.62 69.116 0.134 7.48 35.54 8.31
7/11/2021 10:45:00 PM 20.52 68.936 0.139 7.45 38.03 8.26
7/11/2021 11:00:00 PM 20.42 68.756 0.143 7.38 43.38 8.22
7/11/2021 11:15:00 PM 20.36 68.648 0.141 7.37 41.07 8.24
7/11/2021 11:30:00 PM 20.35 68.63 0.138 7.39 35.4 8.27
7/11/2021 11:45:00 PM 20.32 68.576 0.137 7.41 35.02 8.31
7/12/2021 12:00:00 AM 20.3 68.54 0.135 7.43 36.18 8.33
7/12/2021 12:15:00 AM 20.25 68.45 0.132 7.42 27.32 8.34
7/12/2021 12:30:00 AM 20.21 68.378 0.13 7.41 26.11 8.34
7/12/2021 12:45:00 AM 20.18 68.324 0.128 7.41 25.54 8.35
7/12/2021 1:00:00 AM 20.16 68.288 0.127 7.4 39.15 8.35
7/12/2021 1:15:00 AM 20.12 68.216 0.129 7.4 46.14 8.36
7/12/2021 1:30:00 AM 20.06 68.108 0.134 7.42 57.54 8.39
7/12/2021 1:45:00 AM 20 68 0.139 7.43 85.54 8.41
7/12/2021 2:00:00 AM 20.01 68.018 0.148 7.45 71.69 8.41
7/12/2021 2:15:00 AM 20.07 68.126 0.162 7.46 87.63 8.4
7/12/2021 2:30:00 AM 20.12 68.216 0.169 7.48 73.82 8.39
7/12/2021 2:45:00 AM 20.14 68.252 0.164 7.48 64.76 8.39
7/12/2021 3:00:00 AM 20.13 68.234 0.158 7.48 56.67 8.4
7/12/2021 3:15:00 AM 20.11 68.198 0.153 7.47 61.08 8.41
7/12/2021 3:30:00 AM 20.1 68.18 0.149 7.47 48.94 8.42
7/12/2021 3:45:00 AM 20.1 68.18 0.147 7.46 48.05 8.42
7/12/2021 4:00:00 AM 20.11 68.198 0.145 7.46 43.67 8.42
7/12/2021 4:15:00 AM 20.11 68.198 0.144 7.45 43.69 8.42
7/12/2021 4:30:00 AM 20.12 68.216 0.142 7.45 40.3 8.42
7/12/2021 4:45:00 AM 20.11 68.198 0.141 7.44 34.34 8.42
7/12/2021 5:00:00 AM 20.1 68.18 0.138 7.44 36.23 8.42
7/12/2021 5:15:00 AM 20.08 68.144 0.136 7.43 49.78 8.43
7/12/2021 5:30:00 AM 20.05 68.09 0.133 7.42 37.46 8.44
7/12/2021 5:45:00 AM 20 68 0.13 7.4 39.42 8.44
7/12/2021 6:00:00 AM 19.96 67.92799 0.128 7.4 38.31 8.46
7/12/2021 6:15:00 AM 19.92 67.856 0.126 7.39 37.29 8.47
7/12/2021 6:30:00 AM 19.89 67.802 0.124 7.39 38.44 8.49
7/12/2021 6:45:00 AM 19.86 67.748 0.124 7.4 31.87 8.5
7/12/2021 7:00:00 AM 19.85 67.73 0.124 7.4 28.93 8.52
7/12/2021 7:15:00 AM 19.83 67.694 0.124 7.41 42.45 8.54
7/12/2021 7:30:00 AM 19.83 67.694 0.125 7.42 28.93 8.56
7/12/2021 7:45:00 AM 19.82 67.676 0.126 7.41 27.24 8.58
7/12/2021 8:00:00 AM 19.84 67.712 0.127 7.42 26.86 8.62
7/12/2021 8:15:00 AM 19.9 67.82 0.128 7.45 28.7 8.65
7/12/2021 8:30:00 AM 19.97 67.946 0.129 7.47 27.64 8.7
7/12/2021 8:45:00 AM 20 68 0.129 7.48 26.91 8.71
7/12/2021 9:00:00 AM 20.07 68.126 0.13 7.5 22.99 8.73
7/12/2021 9:15:00 AM 20.07 68.126 0.131 7.52 24.5 8.72
7/12/2021 9:30:00 AM 20.11 68.198 0.132 7.52 20.42 8.76
7/12/2021 9:45:00 AM 20.22 68.396 0.133 7.55 20.56 8.81
7/12/2021 10:00:00 AM 20.3 68.54 0.134 7.58 18.39 8.82
7/12/2021 10:15:00 AM 20.33 68.594 0.136 7.6 16.77 8.85
7/12/2021 10:30:00 AM 20.37 68.666 0.137 7.61 15.66 8.83
7/12/2021 10:45:00 AM 20.39 68.702 0.138 7.61 17.52 8.79
7/12/2021 11:00:00 AM 20.42 68.756 0.139 7.61 15.53 8.77
7/12/2021 11:15:00 AM 20.47 68.846 0.14 7.62 14.89 8.81
7/12/2021 11:30:00 AM 20.59 69.062 0.14 7.66 14.83 8.89
7/12/2021 11:45:00 AM 20.73 69.314 0.141 7.7 14.4 8.95
7/12/2021 12:00:00 PM 20.94 69.692 0.141 7.75 15.07 9.03
7/12/2021 12:15:00 PM 20.97 69.746 0.141 7.78 14.57 8.99
7/12/2021 12:30:00 PM 21.09 69.962 0.141 7.79 13.99 9.02
7/12/2021 12:45:00 PM 21.3 70.34 0.141 7.83 13.91 9.07
7/12/2021 1:00:00 PM 21.45 70.61 0.141 7.86 13.66 9.07
7/12/2021 1:15:00 PM 21.55 70.79 0.14 7.89 14.42 9.07
7/12/2021 1:30:00 PM 21.76 71.168 0.14 7.93 14.37 9.07
7/12/2021 1:45:00 PM 21.92 71.456 0.14 7.95 13.22 9.05
7/12/2021 2:00:00 PM 22.18 71.924 0.14 7.98 13.06 9.05
7/12/2021 2:15:00 PM 22.32 72.176 0.14 8 12.7 8.97
7/12/2021 2:30:00 PM 22.47 72.446 0.141 8 12.93 8.94
7/12/2021 2:45:00 PM 22.49 72.482 0.141 8 12.93 8.89
7/12/2021 3:00:00 PM 22.58 72.644 0.141 8 13.1 8.87
7/12/2021 3:15:00 PM 22.74 72.932 0.142 8.02 13.67 8.88
7/12/2021 3:30:00 PM 22.74 72.932 0.142 8.01 13.24 8.81
7/12/2021 3:45:00 PM 22.83 73.094 0.143 7.99 12.14 8.79
7/12/2021 4:00:00 PM 22.89 73.202 0.143 7.99 12.92 8.76
7/12/2021 4:15:00 PM 22.93 73.274 0.144 7.98 12.15 8.73
7/12/2021 4:30:00 PM 22.98 73.364 0.144 7.98 12.03 8.72
7/12/2021 4:45:00 PM 22.99 73.382 0.145 7.97 11.4 8.69
7/12/2021 5:00:00 PM 22.96 73.328 0.145 7.92 11.99 8.58
7/12/2021 5:15:00 PM 22.94 73.292 0.146 7.88 11.81 8.52
7/12/2021 5:30:00 PM 22.94 73.292 0.146 7.85 11.7 8.46
7/12/2021 5:45:00 PM 22.94 73.292 0.147 7.81 12.09 8.42
7/12/2021 6:00:00 PM 22.93 73.274 0.147 7.79 11.51 8.4
7/12/2021 6:15:00 PM 22.93 73.274 0.147 7.78 10.84 8.39
7/12/2021 6:30:00 PM 22.94 73.292 0.147 7.77 11.73 8.37
7/12/2021 6:45:00 PM 22.95 73.31 0.147 7.76 12.29 8.36
7/12/2021 7:00:00 PM 22.97 73.346 0.147 7.76 11.39 8.35
7/12/2021 7:15:00 PM 22.97 73.346 0.148 7.74 11.42 8.31
7/12/2021 7:30:00 PM 22.96 73.328 0.148 7.72 11.8 8.27
7/12/2021 7:45:00 PM 22.93 73.274 0.148 7.69 11.58 8.22
7/12/2021 8:00:00 PM 22.89 73.202 0.148 7.66 11.45 8.17
7/12/2021 8:15:00 PM 22.85 73.13 0.148 7.63 12.03 8.14
7/12/2021 8:30:00 PM 22.8 73.04 0.148 7.61 12.11 8.1
7/12/2021 8:45:00 PM 22.76 72.968 0.149 7.59 11.63 8.07
7/12/2021 9:00:00 PM 22.72 72.896 0.149 7.57 11.19 8.05
7/12/2021 9:15:00 PM 22.69 72.842 0.149 7.55 12.66 8.04
7/12/2021 9:30:00 PM 22.67 72.806 0.149 7.54 12.5 8.03
7/12/2021 9:45:00 PM 22.65 72.77 0.149 7.53 12.55 8.02
7/12/2021 10:00:00 PM 22.64 72.752 0.149 7.53 11.79 8.01
7/12/2021 10:15:00 PM 22.63 72.734 0.149 7.53 12.26 8.01
7/12/2021 10:30:00 PM 22.59 72.662 0.149 7.54 11.36 8.01
7/12/2021 10:45:00 PM 22.54 72.57201 0.149 7.55 12.17 8.03
7/12/2021 11:00:00 PM 22.45 72.41 0.147 7.55 12.16 8.06
7/12/2021 11:15:00 PM 22.41 72.338 0.147 7.55 11.76 8.06
7/12/2021 11:30:00 PM 22.35 72.23 0.147 7.55 11.95 8.07
7/12/2021 11:45:00 PM 22.28 72.104 0.147 7.54 12.36 8.07
7/13/2021 12:00:00 AM 22.19 71.942 0.146 7.53 14.74 8.09
7/13/2021 12:15:00 AM 22.11 71.798 0.148 7.52 13.73 8.1
7/13/2021 12:30:00 AM 22.01 71.618 0.148 7.51 13.58 8.1
7/13/2021 12:45:00 AM 21.94 71.492 0.149 7.5 14.16 8.11
7/13/2021 1:00:00 AM 21.87 71.366 0.151 7.49 15.21 8.11
7/13/2021 1:15:00 AM 21.8 71.24 0.152 7.49 14.78 8.13
7/13/2021 1:30:00 AM 21.73 71.114 0.153 7.49 14.21 8.14
7/13/2021 1:45:00 AM 21.68 71.024 0.154 7.49 14.7 8.16
7/13/2021 2:00:00 AM 21.63 70.934 0.154 7.5 14.96 8.17
7/13/2021 2:15:00 AM 21.58 70.844 0.154 7.5 12.1 8.19
7/13/2021 2:30:00 AM 21.54 70.772 0.155 7.52 16.37 8.21
7/13/2021 2:45:00 AM 21.51 70.718 0.155 7.52 17.38 8.23
7/13/2021 3:00:00 AM 21.47 70.646 0.155 7.53 22.29 8.24
7/13/2021 3:15:00 AM 21.42 70.556 0.155 7.52 23.7 8.25
7/13/2021 3:30:00 AM 21.38 70.484 0.154 7.52 24.24 8.26
7/13/2021 3:45:00 AM 21.34 70.412 0.154 7.53 24.27 8.27
7/13/2021 4:00:00 AM 21.29 70.32201 0.153 7.53 23.73 8.28
7/13/2021 4:15:00 AM 21.25 70.25 0.152 7.53 23.43 8.29
7/13/2021 4:30:00 AM 21.2 70.16 0.151 7.52 23.53 8.3
7/13/2021 4:45:00 AM 21.15 70.07 0.15 7.51 22.91 8.31
7/13/2021 5:00:00 AM 21.1 69.98 0.149 7.52 25.98 8.32
7/13/2021 5:15:00 AM 21.05 69.89 0.147 7.51 28.49 8.34
7/13/2021 5:30:00 AM 20.98 69.764 0.145 7.5 29.27 8.35
7/13/2021 5:45:00 AM 20.91 69.638 0.141 7.49 38.97 8.36
7/13/2021 6:00:00 AM 20.82 69.476 0.138 7.47 35.3 8.37
7/13/2021 6:15:00 AM 20.74 69.332 0.136 7.47 41.43 8.38
7/13/2021 6:30:00 AM 20.67 69.206 0.135 7.46 44.52 8.4
7/13/2021 6:45:00 AM 20.62 69.116 0.137 7.44 50.03 8.41
7/13/2021 7:00:00 AM 20.6 69.08 0.139 7.44 51.01 8.4
7/13/2021 7:15:00 AM 20.6 69.08 0.141 7.45 53.6 8.41
7/13/2021 7:30:00 AM 20.6 69.08 0.142 7.45 74.02 8.41
7/13/2021 7:45:00 AM 20.61 69.098 0.142 7.45 52.7 8.43
7/13/2021 8:00:00 AM 20.62 69.116 0.142 7.45 55.47 8.44
7/13/2021 8:15:00 AM 20.63 69.134 0.142 7.45 55.35 8.45
7/13/2021 8:30:00 AM 20.65 69.17 0.142 7.46 53.34 8.45
7/13/2021 8:45:00 AM 20.67 69.206 0.141 7.46 69.33 8.46
7/13/2021 9:00:00 AM 20.71 69.278 0.141 7.46 52.61 8.46
7/13/2021 9:15:00 AM 20.8 69.44 0.139 7.46 55.04 8.46
7/13/2021 9:30:00 AM 20.84 69.512 0.138 7.47 51.42 8.45
7/13/2021 9:45:00 AM 20.91 69.638 0.137 7.48 42.48 8.46
7/13/2021 10:00:00 AM 20.98 69.764 0.137 7.49 46.78 8.46
7/13/2021 10:15:00 AM 21.07 69.926 0.138 7.48 52.64 8.45
7/13/2021 10:30:00 AM 21.16 70.088 0.14 7.49 46.82 8.44
7/13/2021 10:45:00 AM 21.22 70.196 0.142 7.49 49.95 8.42
7/13/2021 11:00:00 AM 21.26 70.268 0.144 7.49 55.93 8.41
7/13/2021 11:15:00 AM 21.32 70.376 0.144 7.49 63 8.4
7/13/2021 11:30:00 AM 21.38 70.484 0.143 7.48 56.18 8.39
7/13/2021 11:45:00 AM 21.43 70.574 0.141 7.48 57.5 8.38
7/13/2021 12:00:00 PM 21.55 70.79 0.139 7.49 66.69 8.38
7/13/2021 12:15:00 PM 21.73 71.114 0.137 7.5 58.07 8.38
7/13/2021 12:30:00 PM 21.91 71.438 0.135 7.51 58.49 8.37
7/13/2021 12:45:00 PM 22.05 71.69 0.134 7.51 58.79 8.36
7/13/2021 1:00:00 PM 22.19 71.942 0.132 7.51 57.24 8.33
7/13/2021 1:15:00 PM 22.32 72.176 0.13 7.49 73.77 8.28
7/13/2021 1:30:00 PM 22.46 72.42799 0.128 7.48 85.45 8.24
7/13/2021 1:45:00 PM 22.52 72.536 0.125 7.48 98.22 8.21
7/13/2021 2:00:00 PM 22.54 72.57201 0.123 7.46 114.25 8.19
7/13/2021 2:15:00 PM 22.55 72.59 0.122 7.45 107.59 8.18
7/13/2021 2:30:00 PM 22.63 72.734 0.122 7.45 98.79 8.18
7/13/2021 2:45:00 PM 22.76 72.968 0.122 7.46 97.38 8.17
7/13/2021 3:00:00 PM 22.89 73.202 0.123 7.46 76.73 8.17
7/13/2021 3:15:00 PM 23.03 73.454 0.124 7.48 80.34 8.17
7/13/2021 3:30:00 PM 23.12 73.616 0.125 7.49 58.17 8.17
7/13/2021 3:45:00 PM 23.16 73.688 0.126 7.5 52.09 8.17
7/13/2021 4:00:00 PM 23.14 73.652 0.126 7.5 57.99 8.16
7/13/2021 4:15:00 PM 23.19 73.742 0.125 7.5 58.5 8.16
7/13/2021 4:30:00 PM 23.23 73.814 0.124 7.52 60.82 8.15
7/13/2021 4:45:00 PM 23.2 73.76 0.123 7.5 55.49 8.14
7/13/2021 5:00:00 PM 23.18 73.724 0.123 7.5 50.39 8.12
7/13/2021 5:15:00 PM 23.22 73.796 0.121 7.5 45.37 8.12
7/13/2021 5:30:00 PM 23.26 73.868 0.121 7.5 50.47 8.11
7/13/2021 5:45:00 PM 23.25 73.85 0.119 7.49 44.5 8.1
7/13/2021 6:00:00 PM 23.26 73.868 0.119 7.49 52.55 8.1
7/13/2021 6:15:00 PM 23.23 73.814 0.118 7.48 52.02 8.09
7/13/2021 6:30:00 PM 23.18 73.724 0.117 7.48 58.37 8.08
7/13/2021 6:45:00 PM 23.1 73.58 0.117 7.47 51.46 8.08
7/13/2021 7:00:00 PM 23.06 73.508 0.116 7.46 47.11 8.08
7/13/2021 7:15:00 PM 23.04 73.472 0.115 7.47 54.92 8.08
7/13/2021 7:30:00 PM 22.99 73.382 0.115 7.45 53.55 8.08
7/13/2021 7:45:00 PM 22.94 73.292 0.114 7.45 56.29 8.07
7/13/2021 8:00:00 PM 22.88 73.184 0.114 7.45 52.69 8.07
7/13/2021 8:15:00 PM 22.83 73.094 0.113 7.43 47.01 8.07
7/13/2021 8:30:00 PM 22.77 72.986 0.113 7.44 51.86 8.07
7/13/2021 8:45:00 PM 22.71 72.878 0.113 7.43 54.68 8.08
7/13/2021 9:00:00 PM 22.65 72.77 0.113 7.41 54.15 8.09
7/13/2021 9:15:00 PM 22.59 72.662 0.113 7.41 59.7 8.09
7/13/2021 9:30:00 PM 22.55 72.59 0.112 7.41 53.64 8.1
7/13/2021 9:45:00 PM 22.51 72.518 0.113 7.42 50.44 8.11
7/13/2021 10:00:00 PM 22.47 72.446 0.113 7.43 47.97 8.12
7/13/2021 10:15:00 PM 22.42 72.356 0.113 7.42 44.78 8.13
7/13/2021 10:30:00 PM 22.34 72.212 0.112 7.43 42.34 8.16
7/13/2021 10:45:00 PM 22.28 72.104 0.112 7.44 42.81 8.17
7/13/2021 11:00:00 PM 22.2 71.96 0.111 7.44 41.59 8.18
7/13/2021 11:15:00 PM 22.12 71.816 0.111 7.43 36.33 8.21
7/13/2021 11:30:00 PM 22.07 71.726 0.111 7.43 37.2 8.2
7/13/2021 11:45:00 PM 22 71.6 0.112 7.43 38.73 8.2
7/14/2021 12:00:00 AM 21.93 71.474 0.112 7.42 38.23 8.21
7/14/2021 12:15:00 AM 21.86 71.348 0.112 7.42 37.38 8.22
7/14/2021 12:30:00 AM 21.79 71.222 0.113 7.43 39.49 8.23
7/14/2021 12:45:00 AM 21.72 71.096 0.113 7.42 35.89 8.24
7/14/2021 1:00:00 AM 21.65 70.97 0.113 7.42 31.62 8.25
7/14/2021 1:15:00 AM 21.58 70.844 0.113 7.41 32.08 8.27
7/14/2021 1:30:00 AM 21.51 70.718 0.114 7.41 34.6 8.28
7/14/2021 1:45:00 AM 21.45 70.61 0.115 7.42 30.83 8.29
7/14/2021 2:00:00 AM 21.4 70.52 0.116 7.43 35.23 8.3
7/14/2021 2:15:00 AM 21.34 70.412 0.116 7.43 32.78 8.31
7/14/2021 2:30:00 AM 21.28 70.304 0.117 7.43 31.22 8.32
7/14/2021 2:45:00 AM 21.21 70.17799 0.117 7.43 30.52 8.33
7/14/2021 3:00:00 AM 21.14 70.052 0.118 7.42 32.16 8.34
7/14/2021 3:15:00 AM 21.08 69.944 0.118 7.43 29.06 8.36
7/14/2021 3:30:00 AM 21.02 69.836 0.119 7.43 29.78 8.37
7/14/2021 3:45:00 AM 20.97 69.746 0.12 7.44 27.34 8.37
7/14/2021 4:00:00 AM 20.93 69.674 0.121 7.44 29.49 8.38
7/14/2021 4:15:00 AM 20.9 69.62 0.122 7.44 26.24 8.39
7/14/2021 4:30:00 AM 20.86 69.548 0.122 7.45 29.43 8.39
7/14/2021 4:45:00 AM 20.83 69.494 0.122 7.45 25.47 8.4
7/14/2021 5:00:00 AM 20.8 69.44 0.122 7.45 26.03 8.41
7/14/2021 5:15:00 AM 20.77 69.386 0.122 7.44 25.6 8.42
7/14/2021 5:30:00 AM 20.74 69.332 0.122 7.45 25.39 8.43
7/14/2021 5:45:00 AM 20.71 69.278 0.122 7.45 25.73 8.44
7/14/2021 6:00:00 AM 20.67 69.206 0.121 7.45 23.95 8.44
7/14/2021 6:15:00 AM 20.64 69.152 0.121 7.45 24.49 8.46
7/14/2021 6:30:00 AM 20.61 69.098 0.121 7.45 21.67 8.47
7/14/2021 6:45:00 AM 20.59 69.062 0.121 7.45 21.6 8.48
7/14/2021 7:00:00 AM 20.58 69.044 0.122 7.46 22.48 8.49
7/14/2021 7:15:00 AM 20.57 69.026 0.122 7.47 19.68 8.51
7/14/2021 7:30:00 AM 20.58 69.044 0.123 7.47 22.23 8.52
7/14/2021 7:45:00 AM 20.6 69.08 0.123 7.48 22.06 8.54
7/14/2021 8:00:00 AM 20.61 69.098 0.124 7.48 21.23 8.53
7/14/2021 8:15:00 AM 20.64 69.152 0.125 7.49 20.66 8.56
7/14/2021 8:30:00 AM 20.7 69.26 0.125 7.5 20.52 8.57
7/14/2021 8:45:00 AM 20.7 69.26 0.125 7.5 19.85 8.57
7/14/2021 9:00:00 AM 20.73 69.314 0.126 7.5 19.96 8.58
7/14/2021 9:15:00 AM 20.78 69.404 0.126 7.52 18.92 8.59
7/14/2021 9:30:00 AM 20.82 69.476 0.126 7.52 18.76 8.59
7/14/2021 9:45:00 AM 20.88 69.584 0.127 7.53 18.17 8.61
7/14/2021 10:00:00 AM 20.95 69.71 0.127 7.55 17.9 8.64
7/14/2021 10:15:00 AM 21.05 69.89 0.127 7.57 17.62 8.67
7/14/2021 10:30:00 AM 21.14 70.052 0.127 7.58 17.28 8.68
7/14/2021 10:45:00 AM 21.18 70.124 0.127 7.59 16.25 8.69
7/14/2021 11:00:00 AM 21.33 70.394 0.127 7.61 16.37 8.73
7/14/2021 11:15:00 AM 21.52 70.736 0.127 7.64 15.54 8.74
7/14/2021 11:30:00 AM 21.64 70.952 0.127 7.65 16.19 8.74
7/14/2021 11:45:00 AM 21.72 71.096 0.127 7.68 16.08 8.72
7/14/2021 12:00:00 PM 21.67 71.006 0.128 7.67 15.27 8.68
7/14/2021 12:15:00 PM 21.66 70.988 0.127 7.66 15.99 8.66
7/14/2021 12:30:00 PM 21.75 71.15 0.127 7.66 16.68 8.67
7/14/2021 12:45:00 PM 21.88 71.384 0.127 7.67 15.09 8.67
7/14/2021 1:00:00 PM 22.02 71.636 0.127 7.69 16.08 8.69
7/14/2021 1:15:00 PM 22.16 71.888 0.127 7.71 15.14 8.68
7/14/2021 1:30:00 PM 22.25 72.05 0.128 7.71 15.32 8.67
7/14/2021 1:45:00 PM 22.4 72.32 0.128 7.73 15.69 8.68
7/14/2021 2:00:00 PM 22.62 72.716 0.128 7.76 15.97 8.69
7/14/2021 2:15:00 PM 22.8 73.04 0.129 7.77 15.42 8.66
7/14/2021 2:30:00 PM 22.84 73.112 0.129 7.77 17.89 8.62
7/14/2021 2:45:00 PM 22.85 73.13 0.13 7.76 17.87 8.55
7/14/2021 3:00:00 PM 22.84 73.112 0.13 7.74 17.28 8.54
7/14/2021 3:15:00 PM 22.86 73.148 0.131 7.74 16.06 8.53
7/14/2021 3:30:00 PM 22.9 73.22 0.131 7.74 16.95 8.52
7/14/2021 3:45:00 PM 23 73.4 0.132 7.74 16.83 8.52
7/14/2021 4:00:00 PM 23.1 73.58 0.132 7.76 15.49 8.5
7/14/2021 4:15:00 PM 23.18 73.724 0.132 7.75 15.23 8.45
7/14/2021 4:30:00 PM 23.17 73.706 0.132 7.72 15.7 8.37
7/14/2021 4:45:00 PM 23.25 73.85 0.131 7.7 16.51 8.36
7/14/2021 5:00:00 PM 23.28 73.904 0.131 7.7 16.28 8.32
7/14/2021 5:15:00 PM 23.28 73.904 0.131 7.68 17.84 8.31
7/14/2021 5:30:00 PM 23.26 73.868 0.131 7.69 17.03 8.27
7/14/2021 5:45:00 PM 23.22 73.796 0.13 7.67 16.02 8.23
7/14/2021 6:00:00 PM 23.21 73.778 0.13 7.64 16.3 8.22
7/14/2021 6:15:00 PM 23.22 73.796 0.13 7.63 17.6 8.22
7/14/2021 6:30:00 PM 23.25 73.85 0.13 7.64 16.75 8.23
7/14/2021 6:45:00 PM 23.24 73.832 0.131 7.65 16.56 8.22
7/14/2021 7:00:00 PM 23.19 73.742 0.131 7.62 17.93 8.2
7/14/2021 7:15:00 PM 23.12 73.616 0.131 7.62 18.27 8.19
7/14/2021 7:30:00 PM 23.07 73.526 0.132 7.6 18.62 8.18
7/14/2021 7:45:00 PM 23.01 73.418 0.133 7.59 19.28 8.16
7/14/2021 8:00:00 PM 22.95 73.31 0.133 7.58 19.05 8.16
7/14/2021 8:15:00 PM 22.88 73.184 0.133 7.58 17.43 8.15
7/14/2021 8:30:00 PM 22.81 73.058 0.134 7.58 19.64 8.15
7/14/2021 8:45:00 PM 22.72 72.896 0.134 7.58 19.96 8.15
7/14/2021 9:00:00 PM 22.63 72.734 0.134 7.57 20.49 8.15
7/14/2021 9:15:00 PM 22.53 72.554 0.134 7.55 20.57 8.16
7/14/2021 9:30:00 PM 22.44 72.392 0.134 7.55 18.94 8.17
7/14/2021 9:45:00 PM 22.34 72.212 0.133 7.53 19.62 8.18
7/14/2021 10:00:00 PM 22.25 72.05 0.133 7.51 17.65 8.19
7/14/2021 10:15:00 PM 22.16 71.888 0.132 7.51 17.71 8.21
7/14/2021 10:30:00 PM 22.07 71.726 0.131 7.52 19.59 8.22
7/14/2021 10:45:00 PM 21.98 71.564 0.13 7.5 17.12 8.24
7/14/2021 11:00:00 PM 21.88 71.384 0.129 7.51 17.85 8.26
7/14/2021 11:15:00 PM 21.79 71.222 0.128 7.5 18.1 8.27
7/14/2021 11:30:00 PM 21.71 71.078 0.128 7.5 18.98 8.29
7/14/2021 11:45:00 PM 21.62 70.916 0.127 7.5 18.37 8.3
7/15/2021 12:00:00 AM 21.55 70.79 0.127 7.48 19.69 8.32
7/15/2021 12:15:00 AM 21.48 70.664 0.128 7.49 17.82 8.32
7/15/2021 12:30:00 AM 21.43 70.574 0.129 7.49 18.47 8.33
7/15/2021 12:45:00 AM 21.38 70.484 0.129 7.5 18.1 8.34
7/15/2021 1:00:00 AM 21.34 70.412 0.129 7.49 17.67 8.35
7/15/2021 1:15:00 AM 21.3 70.34 0.13 7.49 16.23 8.35
7/15/2021 1:30:00 AM 21.26 70.268 0.13 7.49 17.79 8.36
7/15/2021 1:45:00 AM 21.24 70.232 0.13 7.49 17.26 8.37
7/15/2021 2:00:00 AM 21.21 70.17799 0.131 7.5 16.94 8.37
7/15/2021 2:15:00 AM 21.19 70.142 0.132 7.49 16.55 8.37
7/15/2021 2:30:00 AM 21.17 70.106 0.132 7.48 17.05 8.38
7/15/2021 2:45:00 AM 21.14 70.052 0.133 7.5 16.91 8.38
7/15/2021 3:00:00 AM 21.12 70.016 0.133 7.49 16.37 8.39
7/15/2021 3:15:00 AM 21.08 69.944 0.133 7.5 16.98 8.4
7/15/2021 3:30:00 AM 21.05 69.89 0.133 7.51 16.22 8.4
7/15/2021 3:45:00 AM 21.02 69.836 0.133 7.5 16.02 8.41
7/15/2021 4:00:00 AM 20.98 69.764 0.133 7.51 14.27 8.41
7/15/2021 4:15:00 AM 20.94 69.692 0.133 7.5 16.8 8.42
7/15/2021 4:30:00 AM 20.91 69.638 0.134 7.5 15.89 8.43
7/15/2021 4:45:00 AM 20.88 69.584 0.134 7.51 16.51 8.43
7/15/2021 5:00:00 AM 20.85 69.53 0.134 7.51 16.06 8.43
7/15/2021 5:15:00 AM 20.83 69.494 0.134 7.5 16.56 8.44
7/15/2021 5:30:00 AM 20.8 69.44 0.134 7.5 16.02 8.44
7/15/2021 5:45:00 AM 20.78 69.404 0.135 7.5 16.08 8.44
7/15/2021 6:00:00 AM 20.75 69.35 0.135 7.51 17.16 8.45
7/15/2021 6:15:00 AM 20.73 69.314 0.135 7.51 15.57 8.45
7/15/2021 6:30:00 AM 20.71 69.278 0.136 7.5 15.33 8.47
7/15/2021 6:45:00 AM 20.7 69.26 0.136 7.51 15.87 8.48
7/15/2021 7:00:00 AM 20.69 69.242 0.137 7.52 15.7 8.49
7/15/2021 7:15:00 AM 20.68 69.224 0.137 7.51 15.36 8.51
7/15/2021 7:30:00 AM 20.68 69.224 0.138 7.52 16.68 8.53
7/15/2021 7:45:00 AM 20.69 69.242 0.139 7.53 15.01 8.55
7/15/2021 8:00:00 AM 20.7 69.26 0.14 7.55 14.5 8.57
7/15/2021 8:15:00 AM 20.72 69.296 0.141 7.55 15.96 8.6
7/15/2021 8:30:00 AM 20.74 69.332 0.141 7.56 14.82 8.63
7/15/2021 8:45:00 AM 20.77 69.386 0.142 7.57 13.92 8.65
7/15/2021 9:00:00 AM 20.8 69.44 0.142 7.58 16.86 8.66
7/15/2021 9:15:00 AM 20.83 69.494 0.142 7.58 14.09 8.69
7/15/2021 9:30:00 AM 20.89 69.602 0.141 7.61 15.47 8.72
7/15/2021 9:45:00 AM 21 69.8 0.141 7.63 14.79 8.77
7/15/2021 10:00:00 AM 21.12 70.016 0.14 7.65 15.43 8.79
7/15/2021 10:15:00 AM 21.22 70.196 0.14 7.67 14.96 8.81
7/15/2021 10:30:00 AM 21.31 70.358 0.139 7.69 14.28 8.82
7/15/2021 10:45:00 AM 21.43 70.574 0.139 7.71 14.11 8.83
7/15/2021 11:00:00 AM 21.59 70.862 0.139 7.73 14.43 8.85
7/15/2021 11:15:00 AM 21.76 71.168 0.138 7.76 13.8 8.86
7/15/2021 11:30:00 AM 21.92 71.456 0.138 7.79 14.04 8.85
7/15/2021 11:45:00 AM 22.08 71.744 0.138 7.8 13.55 8.85
7/15/2021 12:00:00 PM 22.27 72.086 0.137 7.83 12.73 8.85
7/15/2021 12:15:00 PM 22.41 72.338 0.137 7.84 13.45 8.85
7/15/2021 12:30:00 PM 22.67 72.806 0.137 7.88 13.47 8.84
7/15/2021 12:45:00 PM 22.89 73.202 0.137 7.9 12.7 8.83
7/15/2021 1:00:00 PM 23.04 73.472 0.137 7.91 13.42 8.81
7/15/2021 1:15:00 PM 23.16 73.688 0.137 7.93 12.61 8.79
7/15/2021 1:30:00 PM 23.15 73.67 0.137 7.92 12.99 8.72
7/15/2021 1:45:00 PM 23.12 73.616 0.137 7.91 13.36 8.65
7/15/2021 2:00:00 PM 23.16 73.688 0.137 7.9 13.06 8.66
7/15/2021 2:15:00 PM 23.25 73.85 0.137 7.92 12.79 8.67
7/15/2021 2:30:00 PM 23.43 74.174 0.137 7.94 12.85 8.68
7/15/2021 2:45:00 PM 23.55 74.39 0.137 7.95 12.64 8.64
7/15/2021 3:00:00 PM 23.55 74.39 0.138 7.94 12.25 8.59
7/15/2021 3:15:00 PM 23.59 74.462 0.138 7.93 13 8.58
7/15/2021 3:30:00 PM 23.65 74.57 0.138 7.93 12.83 8.57
7/15/2021 3:45:00 PM 23.74 74.732 0.138 7.93 12.94 8.56
7/15/2021 4:00:00 PM 23.88 74.984 0.138 7.94 13.06 8.55
7/15/2021 4:15:00 PM 23.97 75.146 0.138 7.94 13.07 8.52
7/15/2021 4:30:00 PM 24.02 75.236 0.138 7.92 12.57 8.48
7/15/2021 4:45:00 PM 24 75.2 0.138 7.91 13.14 8.41
7/15/2021 5:00:00 PM 24 75.2 0.138 7.88 13.03 8.4
7/15/2021 5:15:00 PM 24.02 75.236 0.138 7.86 12.56 8.36
7/15/2021 5:30:00 PM 24.03 75.254 0.138 7.86 12.2 8.33
7/15/2021 5:45:00 PM 24.03 75.254 0.138 7.82 12.56 8.28
7/15/2021 6:00:00 PM 24 75.2 0.139 7.8 12.39 8.25
7/15/2021 6:15:00 PM 23.98 75.164 0.139 7.77 11.96 8.21
7/15/2021 6:30:00 PM 23.95 75.11 0.139 7.74 12.06 8.16
7/15/2021 6:45:00 PM 23.94 75.092 0.139 7.73 12 8.13
7/15/2021 7:00:00 PM 23.92 75.056 0.139 7.7 12.57 8.11
7/15/2021 7:15:00 PM 23.91 75.038 0.139 7.7 12.91 8.09
7/15/2021 7:30:00 PM 23.88 74.984 0.139 7.68 12.76 8.06
7/15/2021 7:45:00 PM 23.86 74.948 0.139 7.67 12.9 8.03
7/15/2021 8:00:00 PM 23.82 74.876 0.139 7.65 12.29 8.01
7/15/2021 8:15:00 PM 23.79 74.82201 0.139 7.63 12.12 7.98
7/15/2021 8:30:00 PM 23.74 74.732 0.139 7.61 12.35 7.96
7/15/2021 8:45:00 PM 23.68 74.624 0.139 7.6 12.42 7.95
7/15/2021 9:00:00 PM 23.62 74.516 0.139 7.57 11.55 7.93
7/15/2021 9:15:00 PM 23.55 74.39 0.139 7.57 12.87 7.92
7/15/2021 9:30:00 PM 23.48 74.264 0.139 7.56 13.77 7.92
7/15/2021 9:45:00 PM 23.4 74.12 0.14 7.56 12.94 7.93
7/15/2021 10:00:00 PM 23.32 73.976 0.14 7.55 12.27 7.93
7/15/2021 10:15:00 PM 23.24 73.832 0.14 7.55 13.62 7.94
7/15/2021 10:30:00 PM 23.16 73.688 0.14 7.54 12.66 7.95
7/15/2021 10:45:00 PM 23.07 73.526 0.14 7.55 12.43 7.96
7/15/2021 11:00:00 PM 22.99 73.382 0.14 7.55 12.2 7.97
7/15/2021 11:15:00 PM 22.9 73.22 0.14 7.54 13.26 7.99
7/15/2021 11:30:00 PM 22.82 73.076 0.14 7.55 12.86 8
7/15/2021 11:45:00 PM 22.73 72.914 0.14 7.54 12.12 8.01
7/16/2021 12:00:00 AM 22.65 72.77 0.14 7.54 12.19 8.02
7/16/2021 12:15:00 AM 22.56 72.608 0.14 7.54 12.46 8.03
7/16/2021 12:30:00 AM 22.48 72.464 0.14 7.53 12.44 8.04
7/16/2021 12:45:00 AM 22.4 72.32 0.14 7.52 12.2 8.06
7/16/2021 1:00:00 AM 22.33 72.194 0.14 7.53 12.08 8.07
7/16/2021 1:15:00 AM 22.25 72.05 0.14 7.52 12.23 8.08
7/16/2021 1:30:00 AM 22.18 71.924 0.14 7.53 12.52 8.09
7/16/2021 1:45:00 AM 22.11 71.798 0.14 7.53 12.08 8.1
7/16/2021 2:00:00 AM 22.04 71.672 0.14 7.52 12.38 8.11
7/16/2021 2:15:00 AM 21.98 71.564 0.14 7.53 12.35 8.12
7/16/2021 2:30:00 AM 21.91 71.438 0.14 7.52 12.33 8.13
7/16/2021 2:45:00 AM 21.85 71.33 0.14 7.51 12.21 8.14
7/16/2021 3:00:00 AM 21.79 71.222 0.14 7.53 11.77 8.15
7/16/2021 3:15:00 AM 21.73 71.114 0.14 7.52 11.85 8.16
7/16/2021 3:30:00 AM 21.67 71.006 0.14 7.52 12.26 8.17
7/16/2021 3:45:00 AM 21.6 70.88 0.14 7.52 11.77 8.18
7/16/2021 4:00:00 AM 21.54 70.772 0.14 7.51 12.07 8.19
7/16/2021 4:15:00 AM 21.48 70.664 0.141 7.51 11.62 8.21
7/16/2021 4:30:00 AM 21.42 70.556 0.141 7.51 12.12 8.21
7/16/2021 4:45:00 AM 21.36 70.448 0.141 7.51 11.26 8.22
7/16/2021 5:00:00 AM 21.31 70.358 0.141 7.51 11.97 8.24
7/16/2021 5:15:00 AM 21.24 70.232 0.14 7.51 12.27 8.25
7/16/2021 5:30:00 AM 21.19 70.142 0.141 7.51 11.75 8.26
7/16/2021 5:45:00 AM 21.13 70.034 0.141 7.51 12.01 8.27
7/16/2021 6:00:00 AM 21.07 69.926 0.141 7.51 12.88 8.28
7/16/2021 6:15:00 AM 21.02 69.836 0.141 7.52 12.24 8.3
7/16/2021 6:30:00 AM 20.97 69.746 0.141 7.52 12.23 8.32
7/16/2021 6:45:00 AM 20.93 69.674 0.141 7.52 11.86 8.35
7/16/2021 7:00:00 AM 20.9 69.62 0.141 7.53 11.77 8.38
7/16/2021 7:15:00 AM 20.88 69.584 0.141 7.54 11.35 8.42
7/16/2021 7:30:00 AM 20.87 69.566 0.141 7.55 11.21 8.47
7/16/2021 7:45:00 AM 20.87 69.566 0.141 7.56 10.63 8.52
7/16/2021 8:00:00 AM 20.89 69.602 0.141 7.58 11.05 8.57
7/16/2021 8:15:00 AM 20.93 69.674 0.141 7.6 10.73 8.62
7/16/2021 8:30:00 AM 20.97 69.746 0.141 7.62 8.08 8.66
7/16/2021 8:45:00 AM 21.03 69.854 0.141 7.64 11.29 8.7
7/16/2021 9:00:00 AM 21.1 69.98 0.141 7.66 10.29 8.75
7/16/2021 9:15:00 AM 21.18 70.124 0.141 7.7 9.98 8.78
7/16/2021 9:30:00 AM 21.27 70.286 0.141 7.73 9.87 8.81
7/16/2021 9:45:00 AM 21.37 70.466 0.141 7.76 9.85 8.83
7/16/2021 10:00:00 AM 21.49 70.682 0.141 7.79 9.37 8.86
7/16/2021 10:15:00 AM 21.62 70.916 0.141 7.82 10.27